Provisional Data: Baldwin Run near Wellsboro Junction, PA


Please select a monitoring station.
Please select start date.
Please select start date.

Toggle Unit: C/F Toggle Unit: C/F
Sample Time Temperature (C) Temperature (F) Specific Conductivity (mS/cm) pH   Turbidity (NTU+) DO (mg/L)
8/9/2021 12:00:00 AM 17.13 62.834 0.076 7.42 12.92 9.37
8/9/2021 12:15:00 AM 17.11 62.798 0.076 7.46 11.45 9.38
8/9/2021 12:30:00 AM 17.08 62.744 0.076 7.44 11.73 9.39
8/9/2021 12:45:00 AM 17.06 62.708 0.076 7.43 11.67 9.4
8/9/2021 1:00:00 AM 17.03 62.654 0.076 7.46 11.47 9.41
8/9/2021 1:15:00 AM 17.01 62.618 0.076 7.45 12.2 9.41
8/9/2021 1:30:00 AM 16.99 62.582 0.076 7.44 12.25 9.42
8/9/2021 1:45:00 AM 16.97 62.546 0.076 7.45 12.49 9.42
8/9/2021 2:00:00 AM 16.95 62.51 0.076 7.43 11.5 9.43
8/9/2021 2:15:00 AM 16.93 62.474 0.076 7.46 11.6 9.43
8/9/2021 2:30:00 AM 16.91 62.438 0.076 7.45 12.04 9.44
8/9/2021 2:45:00 AM 16.89 62.402 0.076 7.42 12.1 9.45
8/9/2021 3:00:00 AM 16.87 62.366 0.076 7.43 11.6 9.45
8/9/2021 3:15:00 AM 16.85 62.33 0.076 7.41 11.39 9.45
8/9/2021 3:30:00 AM 16.83 62.294 0.076 7.42 12.25 9.46
8/9/2021 3:45:00 AM 16.81 62.258 0.076 7.43 11.28 9.47
8/9/2021 4:00:00 AM 16.79 62.222 0.076 7.41 11.2 9.47
8/9/2021 4:15:00 AM 16.77 62.186 0.076 7.4 11.5 9.47
8/9/2021 4:30:00 AM 16.75 62.15 0.076 7.42 11.8 9.48
8/9/2021 4:45:00 AM 16.73 62.114 0.076 7.42 11.24 9.48
8/9/2021 5:00:00 AM 16.72 62.096 0.076 7.42 11.41 9.48
8/9/2021 5:15:00 AM 16.7 62.06 0.076 7.41 11.5 9.49
8/9/2021 5:30:00 AM 16.69 62.042 0.076 7.41 11.68 9.49
8/9/2021 5:45:00 AM 16.68 62.024 0.076 7.39 12.15 9.49
8/9/2021 6:00:00 AM 16.66 61.988 0.076 7.4 15.1 9.49
8/9/2021 6:15:00 AM 16.65 61.97 0.076 7.4 13.65 9.49
8/9/2021 6:30:00 AM 16.64 61.952 0.076 7.41 13.23 9.5
8/9/2021 6:45:00 AM 16.63 61.934 0.076 7.4 13.2 9.51
8/9/2021 7:00:00 AM 16.62 61.916 0.076 7.43 13.42 9.52
8/9/2021 7:15:00 AM 16.62 61.916 0.076 7.43 13.56 9.53
8/9/2021 7:30:00 AM 16.62 61.916 0.076 7.43 13.68 9.54
8/9/2021 7:45:00 AM 16.63 61.934 0.076 7.42 13.24 9.54
8/9/2021 8:00:00 AM 16.64 61.952 0.076 7.42 12.95 9.56
8/9/2021 8:15:00 AM 16.66 61.988 0.076 7.42 12.78 9.57
8/9/2021 8:30:00 AM 16.69 62.042 0.076 7.41 13.6 9.59
8/9/2021 8:45:00 AM 16.72 62.096 0.076 7.45 13.5 9.6
8/9/2021 9:00:00 AM 16.76 62.168 0.076 7.44 13.98 9.6
8/9/2021 9:15:00 AM 16.81 62.258 0.076 7.49 13.44 9.61
8/9/2021 9:30:00 AM 16.9 62.42 0.076 7.49 13.44 9.64
8/9/2021 9:45:00 AM 17.04 62.672 0.076 7.51 13.39 9.62
8/9/2021 10:00:00 AM 17.15 62.87 0.076 7.53 14.03 9.59
8/9/2021 10:15:00 AM 17.22 62.996 0.075 7.55 14.37 9.58
8/9/2021 10:30:00 AM 17.33 63.194 0.075 7.56 12.8 9.58
8/9/2021 10:45:00 AM 17.43 63.374 0.076 7.54 14.08 9.57
8/9/2021 11:00:00 AM 17.58 63.644 0.076 7.55 13.58 9.54
8/9/2021 11:15:00 AM 17.75 63.95 0.075 7.58 14.13 9.5
8/9/2021 11:30:00 AM 17.91 64.238 0.076 7.59 13.76 9.47
8/9/2021 11:45:00 AM 18.04 64.472 0.075 7.56 14.42 9.44
8/9/2021 12:00:00 PM 18.16 64.688 0.075 7.59 14.16 9.42
8/9/2021 12:15:00 PM 18.27 64.886 0.075 7.57 14.32 9.39
8/9/2021 12:30:00 PM 18.36 65.048 0.075 7.57 13.94 9.36
8/9/2021 12:45:00 PM 18.47 65.246 0.075 7.58 13.47 9.34
8/9/2021 1:00:00 PM 18.55 65.39 0.075 7.61 13.89 9.32
8/9/2021 1:15:00 PM 18.61 65.498 0.075 7.61 14.07 9.3
8/9/2021 1:30:00 PM 18.68 65.624 0.075 7.61 13.75 9.29
8/9/2021 1:45:00 PM 18.68 65.624 0.075 7.59 13.97 9.26
8/9/2021 2:00:00 PM 18.65 65.57 0.075 7.58 13.87 9.25
8/9/2021 2:15:00 PM 18.64 65.552 0.076 7.55 13.64 9.26
8/9/2021 2:30:00 PM 18.67 65.606 0.075 7.56 13.35 9.25
8/9/2021 2:45:00 PM 18.71 65.67799 0.075 7.59 14.23 9.23
8/9/2021 3:00:00 PM 18.75 65.75 0.075 7.6 14.06 9.23
8/9/2021 3:15:00 PM 18.7 65.66 0.075 7.56 12.96 9.22
8/9/2021 3:30:00 PM 18.75 65.75 0.075 7.56 13.01 9.22
8/9/2021 3:45:00 PM 18.76 65.768 0.075 7.56 13.65 9.22
8/9/2021 4:00:00 PM 18.77 65.786 0.075 7.57 12.93 9.2
8/9/2021 4:15:00 PM 18.79 65.82201 0.075 7.58 13.67 9.18
8/9/2021 4:30:00 PM 18.8 65.84 0.075 7.58 13.06 9.17
8/9/2021 4:45:00 PM 18.81 65.858 0.075 7.56 13.76 9.15
8/9/2021 5:00:00 PM 18.83 65.894 0.075 7.53 13.77 9.15
8/9/2021 5:15:00 PM 18.85 65.93 0.075 7.53 13.47 9.15
8/9/2021 5:30:00 PM 18.84 65.912 0.075 7.53 14.09 9.16
8/9/2021 5:45:00 PM 18.83 65.894 0.075 7.54 13.65 9.13
8/9/2021 6:00:00 PM 18.79 65.82201 0.075 7.5 13.82 9.11
8/9/2021 6:15:00 PM 18.77 65.786 0.076 7.53 14.91 9.1
8/9/2021 6:30:00 PM 18.74 65.732 0.076 7.49 14.14 9.09
8/9/2021 6:45:00 PM 18.71 65.67799 0.076 7.49 13.21 9.09
8/9/2021 7:00:00 PM 18.67 65.606 0.076 7.48 14.13 9.08
8/9/2021 7:15:00 PM 18.64 65.552 0.076 7.48 14.15 9.08
8/9/2021 7:30:00 PM 18.6 65.48 0.076 7.44 14.23 9.08
8/9/2021 7:45:00 PM 18.57 65.426 0.076 7.44 14.99 9.07
8/9/2021 8:00:00 PM 18.53 65.354 0.076 7.44 14.72 9.07
8/9/2021 8:15:00 PM 18.5 65.3 0.076 7.44 13.85 9.07
8/9/2021 8:30:00 PM 18.47 65.246 0.076 7.47 14.65 9.07
8/9/2021 8:45:00 PM 18.43 65.174 0.076 7.44 14.75 9.08
8/9/2021 9:00:00 PM 18.4 65.12 0.076 7.45 14.74 9.08
8/9/2021 9:15:00 PM 18.38 65.084 0.076 7.46 13.48 9.09
8/9/2021 9:30:00 PM 18.34 65.012 0.076 7.46 13.03 9.1
8/9/2021 9:45:00 PM 18.31 64.958 0.076 7.47 14.2 9.11
8/9/2021 10:00:00 PM 18.28 64.904 0.076 7.44 13.72 9.12
8/9/2021 10:15:00 PM 18.25 64.85 0.077 7.44 13.09 9.13
8/9/2021 10:30:00 PM 18.21 64.778 0.077 7.44 12.28 9.14
8/9/2021 10:45:00 PM 18.18 64.724 0.077 7.45 12.14 9.15
8/9/2021 11:00:00 PM 18.14 64.652 0.077 7.42 12.26 9.15
8/9/2021 11:15:00 PM 18.11 64.598 0.077 7.44 12.54 9.16
8/9/2021 11:30:00 PM 18.07 64.526 0.077 7.45 12.27 9.17
8/9/2021 11:45:00 PM 18.04 64.472 0.077 7.44 13.31 9.18
8/10/2021 12:00:00 AM 18.01 64.418 0.077 7.48 12.59 9.18
8/10/2021 12:15:00 AM 17.98 64.364 0.077 7.47 12.88 9.19
8/10/2021 12:30:00 AM 17.94 64.292 0.077 7.44 12.44 9.19
8/10/2021 12:45:00 AM 17.91 64.238 0.077 7.45 13.44 9.2
8/10/2021 1:00:00 AM 17.88 64.184 0.077 7.47 13.03 9.21
8/10/2021 1:15:00 AM 17.86 64.148 0.077 7.48 12.31 9.21
8/10/2021 1:30:00 AM 17.83 64.094 0.077 7.48 13.15 9.22
8/10/2021 1:45:00 AM 17.8 64.04 0.077 7.45 12.29 9.22
8/10/2021 2:00:00 AM 17.77 63.986 0.077 7.46 12.99 9.23
8/10/2021 2:15:00 AM 17.74 63.932 0.077 7.45 13.03 9.23
8/10/2021 2:30:00 AM 17.72 63.896 0.077 7.46 12.19 9.24
8/10/2021 2:45:00 AM 17.69 63.842 0.077 7.48 13.79 9.25
8/10/2021 3:00:00 AM 17.66 63.788 0.077 7.45 12.36 9.26
8/10/2021 3:15:00 AM 17.63 63.734 0.077 7.45 11.73 9.26
8/10/2021 3:30:00 AM 17.6 63.68 0.077 7.48 12.64 9.27
8/10/2021 3:45:00 AM 17.58 63.644 0.077 7.47 12.72 9.28
8/10/2021 4:00:00 AM 17.55 63.59 0.077 7.47 12.32 9.29
8/10/2021 4:15:00 AM 17.52 63.536 0.077 7.46 11.79 9.3
8/10/2021 4:30:00 AM 17.5 63.5 0.077 7.47 12.43 9.3
8/10/2021 4:45:00 AM 17.49 63.482 0.077 7.45 12.15 9.31
8/10/2021 5:00:00 AM 17.49 63.482 0.077 7.47 12.2 9.3
8/10/2021 5:15:00 AM 17.48 63.464 0.077 7.45 12.36 9.3
8/10/2021 5:30:00 AM 17.47 63.446 0.077 7.41 12.54 9.31
8/10/2021 5:45:00 AM 17.46 63.428 0.077 7.43 13.32 9.31
8/10/2021 6:00:00 AM 17.44 63.392 0.077 7.42 12.31 9.31
8/10/2021 6:15:00 AM 17.43 63.374 0.077 7.41 12.13 9.31
8/10/2021 6:30:00 AM 17.42 63.356 0.077 7.39 13.73 9.31
8/10/2021 6:45:00 AM 17.43 63.374 0.077 7.38 13.58 9.32
8/10/2021 7:00:00 AM 17.43 63.374 0.077 7.38 10.48 9.32
8/10/2021 7:15:00 AM 17.43 63.374 0.077 7.34 14.11 9.33
8/10/2021 7:30:00 AM 17.43 63.374 0.077 7.36 15.02 9.34
8/10/2021 7:45:00 AM 17.44 63.392 0.077 7.34 14.79 9.32
8/10/2021 8:00:00 AM 17.45 63.41 0.077 7.36 15.55 9.33
8/10/2021 8:15:00 AM 17.47 63.446 0.077 7.41 14.92 9.34
8/10/2021 8:30:00 AM 17.5 63.5 0.077 7.41 14.67 9.36
8/10/2021 8:45:00 AM 17.52 63.536 0.077 7.41 14.3 9.36
8/10/2021 9:00:00 AM 17.57 63.626 0.077 7.43 15.4 9.38
8/10/2021 9:15:00 AM 17.59 63.662 0.077 7.41 14.59 9.36
8/10/2021 9:30:00 AM 17.62 63.716 0.077 7.42 14.65 9.35
8/10/2021 9:45:00 AM 17.67 63.806 0.077 7.44 14.28 9.37
8/10/2021 10:00:00 AM 17.74 63.932 0.077 7.49 15.12 9.39
8/10/2021 10:15:00 AM 17.82 64.076 0.077 7.52 14.21 9.4
8/10/2021 10:30:00 AM 17.93 64.274 0.077 7.5 14.43 9.41
8/10/2021 10:45:00 AM 18.13 64.634 0.077 7.54 14.15 9.4
8/10/2021 11:00:00 AM 18.23 64.814 0.077 7.55 14.66 9.34
8/10/2021 11:15:00 AM 18.3 64.94 0.077 7.58 14.97 9.33
8/10/2021 11:30:00 AM 18.36 65.048 0.077 7.58 17.93 9.31
8/10/2021 11:45:00 AM 18.47 65.246 0.076 7.55 14.54 9.3
8/10/2021 12:00:00 PM 18.51 65.318 0.076 7.59 14.52 9.28
8/10/2021 12:15:00 PM 18.65 65.57 0.076 7.61 12.67 9.27
8/10/2021 12:30:00 PM 18.64 65.552 0.076 7.59 15.02 9.22
8/10/2021 12:45:00 PM 18.71 65.67799 0.076 7.58 14.33 9.25
8/10/2021 1:00:00 PM 18.91 66.038 0.076 7.61 13.69 9.24
8/10/2021 1:15:00 PM 18.94 66.092 0.076 7.62 14.13 9.17
8/10/2021 1:30:00 PM 19.14 66.452 0.076 7.62 15.14 9.16
8/10/2021 1:45:00 PM 19.24 66.632 0.076 7.62 15.59 9.14
8/10/2021 2:00:00 PM 19.2 66.56 0.076 7.59 14.22 9.07
8/10/2021 2:15:00 PM 19.21 66.578 0.076 7.61 14.41 9.1
8/10/2021 2:30:00 PM 19.22 66.596 0.076 7.57 13.24 9.1
8/10/2021 2:45:00 PM 19.27 66.686 0.076 7.6 14.55 9.1
8/10/2021 3:00:00 PM 19.29 66.722 0.076 7.59 15.1 9.06
8/10/2021 3:15:00 PM 19.25 66.65 0.076 7.59 13.29 9
8/10/2021 3:30:00 PM 19.2 66.56 0.076 7.55 13.04 9.03
8/10/2021 3:45:00 PM 19.29 66.722 0.076 7.58 14.42 9.08
8/10/2021 4:00:00 PM 19.32 66.776 0.076 7.57 13.74 9.05
8/10/2021 4:15:00 PM 19.36 66.848 0.076 7.58 13.3 9.02
8/10/2021 4:30:00 PM 19.42 66.956 0.076 7.6 13.52 9.01
8/10/2021 4:45:00 PM 19.45 67.01 0.076 7.58 17.01 8.99
8/10/2021 5:00:00 PM 19.45 67.01 0.076 7.58 12.59 8.98
8/10/2021 5:15:00 PM 19.43 66.974 0.076 7.54 12.2 8.97
8/10/2021 5:30:00 PM 19.4 66.92 0.076 7.52 12.56 8.97
8/10/2021 5:45:00 PM 19.38 66.884 0.076 7.55 12.98 8.95
8/10/2021 6:00:00 PM 19.35 66.83 0.077 7.51 11.69 8.94
8/10/2021 6:15:00 PM 19.33 66.794 0.077 7.46 13.31 8.93
8/10/2021 6:30:00 PM 19.31 66.758 0.077 7.47 12.41 8.92
8/10/2021 6:45:00 PM 19.28 66.704 0.077 7.44 12.54 8.89
8/10/2021 7:00:00 PM 19.25 66.65 0.077 7.45 13.36 8.89
8/10/2021 7:15:00 PM 19.21 66.578 0.077 7.44 12.24 8.89
8/10/2021 7:30:00 PM 19.18 66.524 0.077 7.41 13.11 8.89
8/10/2021 7:45:00 PM 19.16 66.488 0.077 7.38 13.06 8.89
8/10/2021 8:00:00 PM 19.14 66.452 0.077 7.38 13.99 8.89
8/10/2021 8:15:00 PM 19.12 66.416 0.077 7.42 13.88 8.88
8/10/2021 8:30:00 PM 19.1 66.38 0.077 7.4 14.78 8.88
8/10/2021 8:45:00 PM 19.08 66.344 0.077 7.42 22.45 8.89
8/10/2021 9:00:00 PM 19.05 66.29 0.077 7.39 13.51 8.89
8/10/2021 9:15:00 PM 19.03 66.254 0.077 7.39 14.11 8.9
8/10/2021 9:30:00 PM 19.01 66.218 0.077 7.43 13.49 8.92
8/10/2021 9:45:00 PM 18.99 66.182 0.077 7.39 13.1 8.92
8/10/2021 10:00:00 PM 18.97 66.146 0.078 7.42 12.67 8.93
8/10/2021 10:15:00 PM 18.94 66.092 0.078 7.38 12.41 8.95
8/10/2021 10:30:00 PM 18.92 66.056 0.078 7.41 12.08 8.96
8/10/2021 10:45:00 PM 18.89 66.002 0.078 7.39 11.54 8.96
8/10/2021 11:00:00 PM 18.87 65.966 0.078 7.38 13.1 8.97
8/10/2021 11:15:00 PM 18.85 65.93 0.078 7.38 13.29 8.98
8/10/2021 11:30:00 PM 18.82 65.876 0.089 7.41 12.62 8.99
8/10/2021 11:45:00 PM 18.79 65.82201 0.08 7.41 12.42 9
8/11/2021 12:00:00 AM 18.77 65.786 0.078 7.45 12.46 9.01
8/11/2021 12:15:00 AM 18.74 65.732 0.078 7.44 12.11 9.01
8/11/2021 12:30:00 AM 18.71 65.67799 0.079 7.46 11.95 9.02
8/11/2021 12:45:00 AM 18.68 65.624 0.094 7.43 11.23 9.02
8/11/2021 1:00:00 AM 18.65 65.57 0.081 7.45 11.67 9.02
8/11/2021 1:15:00 AM 18.62 65.516 0.079 7.46 12.59 9.03
8/11/2021 1:30:00 AM 18.59 65.462 0.078 7.45 12.27 9.03
8/11/2021 1:45:00 AM 18.56 65.408 0.078 7.49 12.75 9.04
8/11/2021 2:00:00 AM 18.54 65.372 0.078 7.48 12.2 9.05
8/11/2021 2:15:00 AM 18.52 65.336 0.078 7.45 11.91 9.05
8/11/2021 2:30:00 AM 18.5 65.3 0.078 7.46 11.69 9.04
8/11/2021 2:45:00 AM 18.49 65.282 0.078 7.44 12.2 9.05
8/11/2021 3:00:00 AM 18.47 65.246 0.078 7.44 11.71 9.05
8/11/2021 3:15:00 AM 18.45 65.21 0.078 7.41 12.27 9.05
8/11/2021 3:30:00 AM 18.44 65.192 0.078 7.41 12.04 9.06
8/11/2021 3:45:00 AM 18.43 65.174 0.078 7.45 11.16 9.05
8/11/2021 4:00:00 AM 18.42 65.156 0.078 7.44 11.91 9.06
8/11/2021 4:15:00 AM 18.4 65.12 0.078 7.41 12.03 9.06
8/11/2021 4:30:00 AM 18.39 65.102 0.078 7.41 11.31 9.06
8/11/2021 4:45:00 AM 18.36 65.048 0.078 7.42 11.73 9.06
8/11/2021 5:00:00 AM 18.35 65.03 0.078 7.42 11.29 9.07
8/11/2021 5:15:00 AM 18.33 64.994 0.078 7.4 11.41 9.07
8/11/2021 5:30:00 AM 18.32 64.976 0.08 7.43 13.16 9.07
8/11/2021 5:45:00 AM 18.3 64.94 0.078 7.4 13.05 9.08
8/11/2021 6:00:00 AM 18.28 64.904 0.078 7.41 12.59 9.08
8/11/2021 6:15:00 AM 18.26 64.868 0.078 7.4 12.71 9.09
8/11/2021 6:30:00 AM 18.25 64.85 0.078 7.43 14.84 9.1
8/11/2021 6:45:00 AM 18.23 64.814 0.078 7.42 15.3 9.11
8/11/2021 7:00:00 AM 18.22 64.796 0.078 7.42 14.93 9.11
8/11/2021 7:15:00 AM 18.21 64.778 0.078 7.39 16.34 9.13
8/11/2021 7:30:00 AM 18.2 64.76 0.078 7.39 17.16 9.14
8/11/2021 7:45:00 AM 18.2 64.76 0.078 7.39 16.73 9.15
8/11/2021 8:00:00 AM 18.2 64.76 0.078 7.4 15.55 9.16
8/11/2021 8:15:00 AM 18.2 64.76 0.078 7.4 13.62 9.16
8/11/2021 8:30:00 AM 18.21 64.778 0.078 7.38 14.65 9.17
8/11/2021 8:45:00 AM 18.21 64.778 0.078 7.4 13.58 9.17
8/11/2021 9:00:00 AM 18.22 64.796 0.078 7.37 14.5 9.18
8/11/2021 9:15:00 AM 18.26 64.868 0.078 7.39 12.37 9.21
8/11/2021 9:30:00 AM 18.32 64.976 0.079 7.43 14.31 9.22
8/11/2021 9:45:00 AM 18.36 65.048 0.078 7.46 18.42 9.18
8/11/2021 10:00:00 AM 18.38 65.084 0.078 7.48 13.89 9.19
8/11/2021 10:15:00 AM 18.43 65.174 0.079 7.47 15.57 9.19
8/11/2021 10:30:00 AM 18.47 65.246 0.078 7.48 13.27 9.19
8/11/2021 10:45:00 AM 18.54 65.372 0.078 7.52 15.04 9.2
8/11/2021 11:00:00 AM 18.63 65.534 0.078 7.52 13.65 9.21
8/11/2021 11:15:00 AM 18.72 65.696 0.078 7.53 13.59 9.21
8/11/2021 11:30:00 AM 18.78 65.804 0.078 7.54 13.93 9.19
8/11/2021 11:45:00 AM 18.79 65.82201 0.078 7.54 13.56 9.14
8/11/2021 12:00:00 PM 18.8 65.84 0.078 7.51 13.93 9.12
8/11/2021 12:15:00 PM 18.92 66.056 0.078 7.55 13.77 9.17
8/11/2021 12:30:00 PM 18.98 66.164 0.078 7.56 13.51 9.14
8/11/2021 12:45:00 PM 19.07 66.326 0.078 7.53 13.74 9.13
8/11/2021 1:00:00 PM 19.09 66.362 0.078 7.55 14.61 9.1
8/11/2021 1:15:00 PM 19.19 66.542 0.078 7.55 14.68 9.11
8/11/2021 1:30:00 PM 19.25 66.65 0.078 7.57 14.06 9.1
8/11/2021 1:45:00 PM 19.38 66.884 0.078 7.55 13.7 9.1
8/11/2021 2:00:00 PM 19.54 67.172 0.077 7.58 14.94 9.08
8/11/2021 2:15:00 PM 19.68 67.424 0.078 7.58 14.32 9.03
8/11/2021 2:30:00 PM 19.77 67.586 0.077 7.59 14.21 9
8/11/2021 2:45:00 PM 19.9 67.82 0.078 7.59 13.68 8.98
8/11/2021 3:00:00 PM 19.97 67.946 0.078 7.6 13.35 8.95
8/11/2021 3:15:00 PM 20.03 68.054 0.078 7.6 14.16 8.93
8/11/2021 3:30:00 PM 20.11 68.198 0.078 7.56 15.46 8.9
8/11/2021 3:45:00 PM 20.12 68.216 0.078 7.58 14.61 8.89
8/11/2021 4:00:00 PM 20.12 68.216 0.078 7.56 13.76 8.87
8/11/2021 4:15:00 PM 20.13 68.234 0.078 7.56 14.29 8.86
8/11/2021 4:30:00 PM 20.11 68.198 0.078 7.56 15.7 8.83
8/11/2021 4:45:00 PM 20.09 68.162 0.078 7.54 15.96 8.82
8/11/2021 5:00:00 PM 20.09 68.162 0.078 7.5 14.48 8.81
8/11/2021 5:15:00 PM 20.08 68.144 0.078 7.54 13.97 8.8
8/11/2021 5:30:00 PM 20.06 68.108 0.078 7.5 14.45 8.8
8/11/2021 5:45:00 PM 20.02 68.036 0.078 7.48 14.8 8.79
8/11/2021 6:00:00 PM 20.01 68.018 0.078 7.5 13.85 8.79
8/11/2021 6:15:00 PM 19.98 67.964 0.078 7.5 16.63 8.8
8/11/2021 6:30:00 PM 19.96 67.92799 0.078 7.48 14.21 8.81
8/11/2021 6:45:00 PM 19.93 67.874 0.078 7.46 14.53 8.8
8/11/2021 7:00:00 PM 19.89 67.802 0.078 7.45 14.24 8.79
8/11/2021 7:15:00 PM 19.86 67.748 0.078 7.48 13.04 8.79
8/11/2021 7:30:00 PM 19.82 67.676 0.078 7.47 13.84 8.77
8/11/2021 7:45:00 PM 19.78 67.604 0.078 7.44 14 8.76
8/11/2021 8:00:00 PM 19.74 67.532 0.078 7.42 11.98 8.76
8/11/2021 8:15:00 PM 19.69 67.442 0.078 7.42 13.67 8.76
8/11/2021 8:30:00 PM 19.65 67.37 0.078 7.44 15.61 8.77
8/11/2021 8:45:00 PM 19.61 67.298 0.079 7.41 17.39 8.77
8/11/2021 9:00:00 PM 19.56 67.208 0.079 7.42 15.5 8.78
8/11/2021 9:15:00 PM 19.52 67.136 0.079 7.46 15.35 8.79
8/11/2021 9:30:00 PM 19.49 67.082 0.079 7.47 13.93 8.8
8/11/2021 9:45:00 PM 19.45 67.01 0.079 7.45 14.89 8.81
8/11/2021 10:00:00 PM 19.41 66.938 0.079 7.49 14.02 8.83
8/11/2021 10:15:00 PM 19.37 66.866 0.079 7.46 12.87 8.84
8/11/2021 10:30:00 PM 19.32 66.776 0.079 7.46 13.95 8.85
8/11/2021 10:45:00 PM 19.27 66.686 0.079 7.45 13.03 8.85
8/11/2021 11:00:00 PM 19.23 66.614 0.079 7.47 14.38 8.86
8/11/2021 11:15:00 PM 19.19 66.542 0.079 7.47 13.85 8.86
8/11/2021 11:30:00 PM 19.15 66.47 0.079 7.47 14.07 8.86
8/11/2021 11:45:00 PM 19.12 66.416 0.079 7.46 13.34 8.86
8/12/2021 12:00:00 AM 19.09 66.362 0.079 7.5 13.5 8.88
8/12/2021 12:15:00 AM 19.05 66.29 0.079 7.47 12.73 8.89
8/12/2021 12:30:00 AM 19.02 66.236 0.079 7.49 13.97 8.9
8/12/2021 12:45:00 AM 18.98 66.164 0.079 7.48 12.94 8.91
8/12/2021 1:00:00 AM 18.95 66.11 0.079 7.52 13.78 8.91
8/12/2021 1:15:00 AM 18.92 66.056 0.079 7.49 14.58 8.93
8/12/2021 1:30:00 AM 18.9 66.02 0.079 7.48 13.47 8.93
8/12/2021 1:45:00 AM 18.87 65.966 0.079 7.5 12.4 8.94
8/12/2021 2:00:00 AM 18.84 65.912 0.079 7.49 13.53 8.95
8/12/2021 2:15:00 AM 18.81 65.858 0.079 7.5 12.43 8.96
8/12/2021 2:30:00 AM 18.78 65.804 0.079 7.49 12.28 8.96
8/12/2021 2:45:00 AM 18.74 65.732 0.079 7.5 12.71 8.97
8/12/2021 3:00:00 AM 18.71 65.67799 0.079 7.49 13.75 8.98
8/12/2021 3:15:00 AM 18.68 65.624 0.079 7.51 13.28 8.99
8/12/2021 3:30:00 AM 18.65 65.57 0.079 7.52 12.96 8.99
8/12/2021 3:45:00 AM 18.61 65.498 0.079 7.49 12.77 9
8/12/2021 4:00:00 AM 18.58 65.444 0.079 7.51 13.17 9
8/12/2021 4:15:00 AM 18.54 65.372 0.079 7.53 13.12 9.01
8/12/2021 4:30:00 AM 18.51 65.318 0.079 7.5 14.09 9.02
8/12/2021 4:45:00 AM 18.47 65.246 0.079 7.5 14.71 9.02
8/12/2021 5:00:00 AM 18.44 65.192 0.079 7.48 13.71 9.03
8/12/2021 5:15:00 AM 18.41 65.138 0.079 7.48 13.83 9.04
8/12/2021 5:30:00 AM 18.38 65.084 0.079 7.5 13.27 9.05
8/12/2021 5:45:00 AM 18.35 65.03 0.079 7.52 13.58 9.05
8/12/2021 6:00:00 AM 18.33 64.994 0.079 7.47 15.63 9.06
8/12/2021 6:15:00 AM 18.3 64.94 0.079 7.48 14.5 9.07
8/12/2021 6:30:00 AM 18.28 64.904 0.079 7.5 15.95 9.08
8/12/2021 6:45:00 AM 18.26 64.868 0.079 7.48 19.55 9.09
8/12/2021 7:00:00 AM 18.26 64.868 0.079 7.47 17.37 9.1
8/12/2021 7:15:00 AM 18.25 64.85 0.08 7.45 15.67 9.12
8/12/2021 7:30:00 AM 18.26 64.868 0.079 7.49 16.67 9.12
8/12/2021 7:45:00 AM 18.27 64.886 0.079 7.46 11.01 9.14
8/12/2021 8:00:00 AM 18.29 64.922 0.079 7.49 16.99 9.15
8/12/2021 8:15:00 AM 18.32 64.976 0.079 7.48 14.69 9.16
8/12/2021 8:30:00 AM 18.37 65.066 0.079 7.46 16.55 9.17
8/12/2021 8:45:00 AM 18.39 65.102 0.079 7.46 15.02 9.16
8/12/2021 9:00:00 AM 18.46 65.228 0.079 7.47 25.25 9.17
8/12/2021 9:15:00 AM 18.54 65.372 0.079 7.54 16.08 9.17
8/12/2021 9:30:00 AM 18.61 65.498 0.079 7.54 15.71 9.16
8/12/2021 9:45:00 AM 18.61 65.498 0.079 7.5 16.53 9.13
8/12/2021 10:00:00 AM 18.67 65.606 0.079 7.52 13.59 9.16
8/12/2021 10:15:00 AM 18.71 65.67799 0.079 7.52 14.1 9.15
8/12/2021 10:30:00 AM 18.76 65.768 0.079 7.51 15.31 9.14
8/12/2021 10:45:00 AM 18.8 65.84 0.079 7.56 14.23 9.12
8/12/2021 11:00:00 AM 18.89 66.002 0.079 7.58 15.65 9.17
8/12/2021 11:15:00 AM 18.92 66.056 0.079 7.57 15.04 9.1
8/12/2021 11:30:00 AM 18.93 66.074 0.079 7.55 16.54 9.06
8/12/2021 11:45:00 AM 18.98 66.164 0.079 7.54 15.84 9.09
8/12/2021 12:00:00 PM 19.2 66.56 0.079 7.57 18.38 9.09
8/12/2021 12:15:00 PM 19.33 66.794 0.079 7.57 20.1 9.07
8/12/2021 12:30:00 PM 19.53 67.154 0.079 7.58 16.64 9.04
8/12/2021 12:45:00 PM 19.64 67.352 0.079 7.58 10.01 9.01
8/12/2021 1:00:00 PM 19.64 67.352 0.079 7.56 16.07 8.94
8/12/2021 1:15:00 PM 19.55 67.19 0.079 7.52 15.03 8.87
8/12/2021 1:30:00 PM 19.47 67.046 0.079 7.53 14.81 8.86
8/12/2021 1:45:00 PM 19.38 66.884 0.079 7.51 15.51 8.87
8/12/2021 2:00:00 PM 19.32 66.776 0.079 7.51 13.4 8.88
8/12/2021 2:15:00 PM 19.26 66.668 0.079 7.53 15.52 8.91
8/12/2021 2:30:00 PM 19.2 66.56 0.079 7.55 14 8.92
8/12/2021 2:45:00 PM 19.15 66.47 0.079 7.56 14.42 8.94
8/12/2021 3:00:00 PM 19.1 66.38 0.079 7.53 14.97 8.95
8/12/2021 3:15:00 PM 19.08 66.344 0.079 7.54 13.18 8.98
8/12/2021 3:30:00 PM 19.16 66.488 0.079 7.57 17.96 9.06
8/12/2021 3:45:00 PM 19.24 66.632 0.078 7.59 13.74 9.06
8/12/2021 4:00:00 PM 19.31 66.758 0.078 7.58 14.33 9.04
8/12/2021 4:15:00 PM 19.37 66.866 0.079 7.57 14.54 9
8/12/2021 4:30:00 PM 19.42 66.956 0.079 7.54 12.26 8.96
8/12/2021 4:45:00 PM 19.45 67.01 0.079 7.55 16.39 8.94
8/12/2021 5:00:00 PM 19.47 67.046 0.079 7.54 15.69 8.92
8/12/2021 5:15:00 PM 19.44 66.992 0.079 7.48 16.16 8.87
8/12/2021 5:30:00 PM 19.47 67.046 0.078 7.5 17.46 8.88
8/12/2021 5:45:00 PM 19.48 67.064 0.078 7.53 13.14 8.93
8/12/2021 6:00:00 PM 19.45 67.01 0.078 7.5 17.28 8.9
8/12/2021 6:15:00 PM 19.42 66.956 0.079 7.53 13.44 8.87
8/12/2021 6:30:00 PM 19.37 66.866 0.079 7.52 14.11 8.87
8/12/2021 6:45:00 PM 19.31 66.758 0.079 7.47 18.7 8.86
8/12/2021 7:00:00 PM 19.27 66.686 0.079 7.43 14.77 8.88
8/12/2021 7:15:00 PM 19.23 66.614 0.079 7.43 15.17 8.88
8/12/2021 7:30:00 PM 19.19 66.542 0.08 7.41 14.19 8.88
8/12/2021 7:45:00 PM 19.16 66.488 0.08 7.41 15.02 8.88
8/12/2021 8:00:00 PM 19.12 66.416 0.079 7.4 15.21 8.87
8/12/2021 8:15:00 PM 19.09 66.362 0.08 7.4 12.98 8.87
8/12/2021 8:30:00 PM 19.07 66.326 0.08 7.38 14.55 8.88
8/12/2021 8:45:00 PM 19.05 66.29 0.08 7.42 14.73 8.88
8/12/2021 9:00:00 PM 19.03 66.254 0.08 7.42 15.01 8.89
8/12/2021 9:15:00 PM 19.02 66.236 0.08 7.43 13.69 8.9
8/12/2021 9:30:00 PM 19.01 66.218 0.08 7.42 15.25 8.91
8/12/2021 9:45:00 PM 18.99 66.182 0.08 7.42 15.39 8.91
8/12/2021 10:00:00 PM 18.98 66.164 0.08 7.4 15.19 8.9
8/12/2021 10:15:00 PM 18.97 66.146 0.08 7.37 13.96 8.9
8/12/2021 10:30:00 PM 18.96 66.128 0.08 7.36 13.77 8.9
8/12/2021 10:45:00 PM 18.95 66.11 0.08 7.38 14.75 8.91
8/12/2021 11:00:00 PM 18.94 66.092 0.08 7.4 15.12 8.92
8/12/2021 11:15:00 PM 18.92 66.056 0.081 7.37 13.51 8.93
8/12/2021 11:30:00 PM 18.9 66.02 0.08 7.39 12.94 8.94
8/12/2021 11:45:00 PM 18.89 66.002 0.08 7.36 14.51 8.94
8/13/2021 12:00:00 AM 18.87 65.966 0.086 7.36 14.06 8.95
8/13/2021 12:15:00 AM 18.85 65.93 0.081 7.36 13 8.96
8/13/2021 12:30:00 AM 18.84 65.912 0.081 7.34 12.29 8.95
8/13/2021 12:45:00 AM 18.82 65.876 0.081 7.34 13.14 8.97
8/13/2021 1:00:00 AM 18.8 65.84 0.081 7.37 13.18 8.97
8/13/2021 1:15:00 AM 18.78 65.804 0.081 7.34 12.98 8.98
8/13/2021 1:30:00 AM 18.75 65.75 0.081 7.37 14.12 8.98
8/13/2021 1:45:00 AM 18.73 65.714 0.081 7.41 13.77 9
8/13/2021 2:00:00 AM 18.7 65.66 0.081 7.42 14.28 9.01
8/13/2021 2:15:00 AM 18.68 65.624 0.08 7.43 14.31 9.01
8/13/2021 2:30:00 AM 18.65 65.57 0.08 7.46 13.65 9.01
8/13/2021 2:45:00 AM 18.63 65.534 0.08 7.44 14.26 9.02
8/13/2021 3:00:00 AM 18.6 65.48 0.08 7.45 13.67 9.02
8/13/2021 3:15:00 AM 18.58 65.444 0.08 7.46 14.56 9.02
8/13/2021 3:30:00 AM 18.56 65.408 0.08 7.47 14.77 9.03
8/13/2021 3:45:00 AM 18.53 65.354 0.08 7.5 13.55 9.04
8/13/2021 4:00:00 AM 18.5 65.3 0.08 7.48 13.06 9.04
8/13/2021 4:15:00 AM 18.47 65.246 0.08 7.47 14.09 9.05
8/13/2021 4:30:00 AM 18.45 65.21 0.08 7.47 13.43 9.05
8/13/2021 4:45:00 AM 18.42 65.156 0.08 7.47 13.68 9.06
8/13/2021 5:00:00 AM 18.39 65.102 0.08 7.48 13.52 9.07
8/13/2021 5:15:00 AM 18.37 65.066 0.08 7.51 13.51 9.07
8/13/2021 5:30:00 AM 18.36 65.048 0.08 7.48 13.7 9.08
8/13/2021 5:45:00 AM 18.33 64.994 0.08 7.5 13.16 9.08
8/13/2021 6:00:00 AM 18.31 64.958 0.08 7.48 13.39 9.09
8/13/2021 6:15:00 AM 18.29 64.922 0.08 7.5 14 9.1
8/13/2021 6:30:00 AM 18.26 64.868 0.08 7.51 14.85 9.11
8/13/2021 6:45:00 AM 18.25 64.85 0.08 7.47 15.68 9.13
8/13/2021 7:00:00 AM 18.24 64.832 0.08 7.5 15 9.13
8/13/2021 7:15:00 AM 18.23 64.814 0.08 7.52 14.92 9.15
8/13/2021 7:30:00 AM 18.22 64.796 0.08 7.51 15.24 9.17
8/13/2021 7:45:00 AM 18.23 64.814 0.08 7.49 15.77 9.19
8/13/2021 8:00:00 AM 18.24 64.832 0.08 7.49 15.63 9.2
8/13/2021 8:15:00 AM 18.25 64.85 0.08 7.52 16.26 9.2
8/13/2021 8:30:00 AM 18.26 64.868 0.08 7.52 14.94 9.2
8/13/2021 8:45:00 AM 18.3 64.94 0.08 7.48 14.99 9.23
8/13/2021 9:00:00 AM 18.33 64.994 0.08 7.55 15.44 9.22
8/13/2021 9:15:00 AM 18.41 65.138 0.08 7.52 16.23 9.24
8/13/2021 9:30:00 AM 18.49 65.282 0.08 7.54 16.81 9.25
8/13/2021 9:45:00 AM 18.58 65.444 0.079 7.54 18.92 9.24
8/13/2021 10:00:00 AM 18.61 65.498 0.079 7.55 15.64 9.23
8/13/2021 10:15:00 AM 18.72 65.696 0.079 7.59 15.94 9.24
8/13/2021 10:30:00 AM 18.92 66.056 0.079 7.6 16.48 9.23
8/13/2021 10:45:00 AM 19.11 66.398 0.079 7.57 16.95 9.19
8/13/2021 11:00:00 AM 19.26 66.668 0.079 7.62 16.5 9.13
8/13/2021 11:15:00 AM 19.38 66.884 0.079 7.62 14.53 9.11
8/13/2021 11:30:00 AM 19.51 67.118 0.079 7.61 14.63 9.08
8/13/2021 11:45:00 AM 19.62 67.316 0.079 7.59 15.91 9.06
8/13/2021 12:00:00 PM 19.76 67.568 0.085 7.61 13.9 9.03
8/13/2021 12:15:00 PM 19.88 67.784 0.079 7.64 15.28 9.02
8/13/2021 12:30:00 PM 19.94 67.892 0.085 7.61 13.55 9
8/13/2021 12:45:00 PM 20.02 68.036 0.08 7.62 16.54 9
8/13/2021 1:00:00 PM 20.11 68.198 0.079 7.6 13.78 8.97
8/13/2021 1:15:00 PM 20.2 68.36 0.085 7.59 13.99 8.94
8/13/2021 1:30:00 PM 20.17 68.306 0.079 7.62 17.04 8.89
8/13/2021 1:45:00 PM 20.08 68.144 0.079 7.6 14.73 8.89
8/13/2021 2:00:00 PM 19.98 67.964 0.079 7.56 13.69 8.9
8/13/2021 2:15:00 PM 19.99 67.982 0.079 7.57 14.24 8.96
8/13/2021 2:30:00 PM 20.08 68.144 0.079 7.63 14.71 8.94
8/13/2021 2:45:00 PM 20.06 68.108 0.079 7.6 15.03 8.88
8/13/2021 3:00:00 PM 20.14 68.252 0.079 7.59 15.04 8.9
8/13/2021 3:15:00 PM 20.08 68.144 0.079 7.58 14.38 8.87
8/13/2021 3:30:00 PM 20.14 68.252 0.079 7.56 22.79 8.86
8/13/2021 3:45:00 PM 20.1 68.18 0.08 7.56 13.84 8.85
8/13/2021 4:00:00 PM 20.07 68.126 0.08 7.53 14.45 8.85
8/13/2021 4:15:00 PM 20.01 68.018 0.079 7.53 14.51 8.81
8/13/2021 4:30:00 PM 19.96 67.92799 0.08 7.57 13.72 8.79
8/13/2021 4:45:00 PM 19.9 67.82 0.085 7.56 14.81 8.82
8/13/2021 5:00:00 PM 19.9 67.82 0.079 7.6 14.69 8.88
8/13/2021 5:15:00 PM 19.9 67.82 0.079 7.61 15.18 8.89
8/13/2021 5:30:00 PM 19.88 67.784 0.079 7.59 14.77 8.89
8/13/2021 5:45:00 PM 19.83 67.694 0.079 7.58 15.18 8.85
8/13/2021 6:00:00 PM 19.81 67.658 0.079 7.53 14.21 8.86
8/13/2021 6:15:00 PM 19.8 67.64 0.079 7.53 15.56 8.86
8/13/2021 6:30:00 PM 19.78 67.604 0.079 7.52 15.66 8.85
8/13/2021 6:45:00 PM 19.74 67.532 0.085 7.49 15.34 8.82
8/13/2021 7:00:00 PM 19.7 67.46 0.08 7.51 14.85 8.81
8/13/2021 7:15:00 PM 19.66 67.388 0.08 7.47 14.08 8.81
8/13/2021 7:30:00 PM 19.64 67.352 0.08 7.46 14.63 8.81
8/13/2021 7:45:00 PM 19.6 67.28 0.08 7.48 14.28 8.81
8/13/2021 8:00:00 PM 19.56 67.208 0.08 7.48 16.98 8.78
8/13/2021 8:15:00 PM 19.53 67.154 0.086 7.44 15.86 8.79
8/13/2021 8:30:00 PM 19.49 67.082 0.08 7.44 15.34 8.8
8/13/2021 8:45:00 PM 19.46 67.028 0.086 7.44 15.66 8.81
8/13/2021 9:00:00 PM 19.43 66.974 0.08 7.45 15.52 8.82
8/13/2021 9:15:00 PM 19.4 66.92 0.086 7.43 14.62 8.83
8/13/2021 9:30:00 PM 19.37 66.866 0.081 7.42 14.96 8.84
8/13/2021 9:45:00 PM 19.34 66.812 0.081 7.46 14.75 8.85
8/13/2021 10:00:00 PM 19.31 66.758 0.086 7.44 15.12 8.85
8/13/2021 10:15:00 PM 19.29 66.722 0.081 7.43 14.64 8.85
8/13/2021 10:30:00 PM 19.26 66.668 0.081 7.42 14.56 8.86
8/13/2021 10:45:00 PM 19.24 66.632 0.081 7.44 13.37 8.86
8/13/2021 11:00:00 PM 19.21 66.578 0.081 7.44 14.07 8.87
8/13/2021 11:15:00 PM 19.19 66.542 0.081 7.41 14.99 8.87
8/13/2021 11:30:00 PM 19.17 66.506 0.081 7.44 13.74 8.87
8/13/2021 11:45:00 PM 19.15 66.47 0.081 7.44 13.56 8.88
8/14/2021 12:00:00 AM 19.13 66.434 0.086 7.43 13.8 8.89
8/14/2021 12:15:00 AM 19.13 66.434 0.081 7.44 19.35 8.89
8/14/2021 12:30:00 AM 19.12 66.416 0.086 7.46 14.97 8.9
8/14/2021 12:45:00 AM 19.1 66.38 0.081 7.45 15.81 8.89
8/14/2021 1:00:00 AM 19.07 66.326 0.08 7.49 15.94 8.88
8/14/2021 1:15:00 AM 19.04 66.272 0.08 7.5 17.25 8.89
8/14/2021 1:30:00 AM 19.01 66.218 0.08 7.47 20.9 8.9
8/14/2021 1:45:00 AM 18.98 66.164 0.08 7.47 41.9 8.92
8/14/2021 2:00:00 AM 18.94 66.092 0.08 7.51 11.79 8.93
8/14/2021 2:15:00 AM 18.91 66.038 0.081 7.51 17.26 8.94
8/14/2021 2:30:00 AM 18.89 66.002 0.081 7.49 17.51 8.95
8/14/2021 2:45:00 AM 18.86 65.948 0.081 7.5 15.76 8.96
8/14/2021 3:00:00 AM 18.83 65.894 0.081 7.49 14.62 8.97
8/14/2021 3:15:00 AM 18.8 65.84 0.081 7.5 15.2 8.97
8/14/2021 3:30:00 AM 18.77 65.786 0.081 7.5 13.41 8.98
8/14/2021 3:45:00 AM 18.75 65.75 0.081 7.49 17.12 8.99
8/14/2021 4:00:00 AM 18.72 65.696 0.05 7.47 14.4 9
8/14/2021 4:15:00 AM 18.69 65.642 0.081 7.48 13.57 9
8/14/2021 4:30:00 AM 18.66 65.588 0.081 7.48 14.75 9.01
8/14/2021 4:45:00 AM 18.63 65.534 0.081 7.48 13.78 9.02
8/14/2021 5:00:00 AM 18.6 65.48 0.081 7.51 14.14 9.03
8/14/2021 5:15:00 AM 18.57 65.426 0.081 7.52 13.34 9.03
8/14/2021 5:30:00 AM 18.54 65.372 0.081 7.49 14.81 9.04
8/14/2021 5:45:00 AM 18.51 65.318 0.082 7.48 13.21 9.05
8/14/2021 6:00:00 AM 18.48 65.264 0.08 7.49 13.64 9.06
8/14/2021 6:15:00 AM 18.45 65.21 0.081 7.51 16.64 9.06
8/14/2021 6:30:00 AM 18.43 65.174 0.08 7.49 17.31 9.08
8/14/2021 6:45:00 AM 18.41 65.138 0.08 7.52 20.55 9.08
8/14/2021 7:00:00 AM 18.39 65.102 0.08 7.51 17.25 9.09
8/14/2021 7:15:00 AM 18.37 65.066 0.08 7.48 18.37 9.1
8/14/2021 7:30:00 AM 18.36 65.048 0.08 7.47 15.8 9.11
8/14/2021 7:45:00 AM 18.35 65.03 0.08 7.5 15.41 9.11
8/14/2021 8:00:00 AM 18.34 65.012 0.08 7.5 15 9.11
8/14/2021 8:15:00 AM 18.31 64.958 0.08 7.5 16.5 9.12
8/14/2021 8:30:00 AM 18.28 64.904 0.079 7.53 17.05 9.13
8/14/2021 8:45:00 AM 18.22 64.796 0.079 7.57 18.06 9.17
8/14/2021 9:00:00 AM 18.18 64.724 0.08 7.43 19.52 9.22
8/14/2021 9:15:00 AM 18.16 64.688 0.079 7.57 18.42 9.23
8/14/2021 9:30:00 AM 18.13 64.634 0.079 7.56 18.24 9.23
8/14/2021 9:45:00 AM 18.09 64.562 0.079 7.55 14.56 9.24
8/14/2021 10:00:00 AM 18.06 64.508 0.08 7.56 16.54 9.26
8/14/2021 10:15:00 AM 18.04 64.472 0.079 7.58 16.36 9.28
8/14/2021 10:30:00 AM 18.02 64.436 0.079 7.58 15.24 9.29
8/14/2021 10:45:00 AM 18.02 64.436 0.079 7.59 16.57 9.31
8/14/2021 11:00:00 AM 18.07 64.526 0.079 7.62 15.83 9.34
8/14/2021 11:15:00 AM 18.05 64.49 0.079 7.6 13.97 9.33
8/14/2021 11:30:00 AM 18.05 64.49 0.079 7.59 15.74 9.32
8/14/2021 11:45:00 AM 18.03 64.454 0.079 7.61 16.12 9.33
8/14/2021 12:00:00 PM 18.05 64.49 0.079 7.62 15.47 9.35
8/14/2021 12:15:00 PM 18.14 64.652 0.079 7.65 15.14 9.4
8/14/2021 12:30:00 PM 18.19 64.742 0.079 7.63 15.81 9.39
8/14/2021 12:45:00 PM 18.25 64.85 0.079 7.64 13.85 9.37
8/14/2021 1:00:00 PM 18.27 64.886 0.079 7.67 14.52 9.35
8/14/2021 1:15:00 PM 18.35 65.03 0.079 7.64 13.43 9.35
8/14/2021 1:30:00 PM 18.4 65.12 0.079 7.68 15.33 9.35
8/14/2021 1:45:00 PM 18.51 65.318 0.079 7.64 15.71 9.29
8/14/2021 2:00:00 PM 18.6 65.48 0.079 7.63 15.24 9.25
8/14/2021 2:15:00 PM 18.68 65.624 0.079 7.66 14.92 9.23
8/14/2021 2:30:00 PM 18.69 65.642 0.079 7.62 14.64 9.22
8/14/2021 2:45:00 PM 18.73 65.714 0.079 7.63 12.38 9.21
8/14/2021 3:00:00 PM 18.73 65.714 0.079 7.63 15.74 9.2
8/14/2021 3:15:00 PM 18.76 65.768 0.079 7.63 15.79 9.2
8/14/2021 3:30:00 PM 18.7 65.66 0.079 7.61 16.78 9.17
8/14/2021 3:45:00 PM 18.73 65.714 0.079 7.6 16.37 9.19
8/14/2021 4:00:00 PM 18.71 65.67799 0.079 7.65 13.54 9.21
8/14/2021 4:15:00 PM 18.69 65.642 0.079 7.64 15.93 9.17
8/14/2021 4:30:00 PM 18.66 65.588 0.079 7.6 15.79 9.15
8/14/2021 4:45:00 PM 18.64 65.552 0.079 7.6 14.86 9.17
8/14/2021 5:00:00 PM 18.64 65.552 0.079 7.6 15.17 9.17
8/14/2021 5:15:00 PM 18.62 65.516 0.079 7.59 15.24 9.15
8/14/2021 5:30:00 PM 18.6 65.48 0.079 7.58 11.54 9.15
8/14/2021 5:45:00 PM 18.56 65.408 0.079 7.6 15.55 9.14
8/14/2021 6:00:00 PM 18.51 65.318 0.08 7.57 14.73 9.13
8/14/2021 6:15:00 PM 18.47 65.246 0.08 7.59 13.78 9.13
8/14/2021 6:30:00 PM 18.43 65.174 0.08 7.56 13.67 9.13
8/14/2021 6:45:00 PM 18.38 65.084 0.08 7.56 16.89 9.13
8/14/2021 7:00:00 PM 18.33 64.994 0.08 7.58 16.93 9.15
8/14/2021 7:15:00 PM 18.27 64.886 0.08 7.57 15.96 9.16
8/14/2021 7:30:00 PM 18.21 64.778 0.08 7.56 15.32 9.17
8/14/2021 7:45:00 PM 18.15 64.67 0.08 7.58 16.8 9.17
8/14/2021 8:00:00 PM 18.09 64.562 0.08 7.56 13.41 9.18
8/14/2021 8:15:00 PM 18.03 64.454 0.08 7.55 13.02 9.19
8/14/2021 8:30:00 PM 17.96 64.328 0.08 7.54 15.63 9.19
8/14/2021 8:45:00 PM 17.9 64.22 0.08 7.54 27.64 9.2
8/14/2021 9:00:00 PM 17.83 64.094 0.08 7.56 70.31 9.19
8/14/2021 9:15:00 PM 17.77 63.986 0.08 7.56 13.4 9.23
8/14/2021 9:30:00 PM 17.71 63.878 0.08 7.56 14.91 9.26
8/14/2021 9:45:00 PM 17.65 63.77 0.08 7.54 11.52 9.27
8/14/2021 10:00:00 PM 17.59 63.662 0.08 7.55 15.82 9.29
8/14/2021 10:15:00 PM 17.53 63.554 0.08 7.54 14.7 9.31
8/14/2021 10:30:00 PM 17.48 63.464 0.08 7.56 13.61 9.32
8/14/2021 10:45:00 PM 17.42 63.356 0.08 7.52 13.74 9.33
8/14/2021 11:00:00 PM 17.37 63.266 0.08 7.53 10.96 9.34
8/14/2021 11:15:00 PM 17.3 63.14 0.08 7.54 8.48 9.35
8/14/2021 11:30:00 PM 17.24 63.032 0.08 7.53 14 9.37
8/14/2021 11:45:00 PM 17.18 62.924 0.08 7.53 15.95 9.37
8/15/2021 12:00:00 AM 17.13 62.834 0.08 7.53 14.44 9.39
8/15/2021 12:15:00 AM 17.07 62.726 0.081 7.53 14.94 9.4
8/15/2021 12:30:00 AM 17.01 62.618 0.08 7.56 14.68 9.42
8/15/2021 12:45:00 AM 16.95 62.51 0.081 7.54 13.59 9.43
8/15/2021 1:00:00 AM 16.88 62.384 0.081 7.52 16.87 9.45
8/15/2021 1:15:00 AM 16.82 62.276 0.081 7.53 13.64 9.46
8/15/2021 1:30:00 AM 16.75 62.15 0.081 7.54 14.62 9.48
8/15/2021 1:45:00 AM 16.68 62.024 0.081 7.56 13.22 9.49
8/15/2021 2:00:00 AM 16.62 61.916 0.081 7.55 13.18 9.5
8/15/2021 2:15:00 AM 16.56 61.808 0.081 7.53 13.55 9.52
8/15/2021 2:30:00 AM 16.5 61.7 0.081 7.56 13.67 9.52
8/15/2021 2:45:00 AM 16.44 61.592 0.081 7.52 13 9.54
8/15/2021 3:00:00 AM 16.4 61.52 0.081 7.53 13.96 9.55
8/15/2021 3:15:00 AM 16.36 61.448 0.081 7.55 14.18 9.56
8/15/2021 3:30:00 AM 16.32 61.376 0.081 7.53 12.27 9.57
8/15/2021 3:45:00 AM 16.28 61.304 0.081 7.55 14.07 9.59
8/15/2021 4:00:00 AM 16.24 61.232 0.081 7.53 14.86 9.6
8/15/2021 4:15:00 AM 16.2 61.16 0.081 7.56 13.96 9.61
8/15/2021 4:30:00 AM 16.15 61.07 0.081 7.54 13.26 9.62
8/15/2021 4:45:00 AM 16.1 60.98 0.081 7.56 14.31 9.64
8/15/2021 5:00:00 AM 16.05 60.89 0.081 7.56 13.45 9.64
8/15/2021 5:15:00 AM 16 60.8 0.081 7.56 13.67 9.66
8/15/2021 5:30:00 AM 15.95 60.71 0.081 7.53 14.97 9.66
8/15/2021 5:45:00 AM 15.9 60.62 0.081 7.53 14.99 9.67
8/15/2021 6:00:00 AM 15.85 60.53 0.081 7.53 13.93 9.68
8/15/2021 6:15:00 AM 15.8 60.44 0.081 7.52 14.66 9.69
8/15/2021 6:30:00 AM 15.76 60.368 0.081 7.56 14.88 9.71
8/15/2021 6:45:00 AM 15.71 60.278 0.081 7.54 15.19 9.73
8/15/2021 7:00:00 AM 15.66 60.188 0.081 7.57 14.88 9.75
8/15/2021 7:15:00 AM 15.62 60.116 0.081 7.57 15.22 9.78
8/15/2021 7:30:00 AM 15.57 60.026 0.081 7.54 14.28 9.8
8/15/2021 7:45:00 AM 15.55 59.99 0.081 7.56 14.67 9.83
8/15/2021 8:00:00 AM 15.53 59.954 0.081 7.56 15.5 9.84
8/15/2021 8:15:00 AM 15.5 59.9 0.081 7.56 17.71 9.84
8/15/2021 8:30:00 AM 15.51 59.918 0.081 7.6 15.12 9.88
8/15/2021 8:45:00 AM 15.53 59.954 0.081 7.6 15.35 9.9
8/15/2021 9:00:00 AM 15.54 59.972 0.081 7.61 15.34 9.9
8/15/2021 9:15:00 AM 15.6 60.08 0.08 7.62 18.86 9.93
8/15/2021 9:30:00 AM 15.68 60.224 0.08 7.6 14.91 9.92
8/15/2021 9:45:00 AM 15.77 60.386 0.08 7.59 15.12 9.91
8/15/2021 10:00:00 AM 15.9 60.62 0.08 7.64 15.2 9.88
8/15/2021 10:15:00 AM 16.06 60.908 0.08 7.61 14.8 9.87
8/15/2021 10:30:00 AM 16.17 61.106 0.08 7.65 15.7 9.85
8/15/2021 10:45:00 AM 16.3 61.34 0.08 7.66 12.06 9.85
8/15/2021 11:00:00 AM 16.38 61.484 0.08 7.63 15 9.8
8/15/2021 11:15:00 AM 16.53 61.754 0.08 7.64 17.56 9.77
8/15/2021 11:30:00 AM 16.64 61.952 0.081 7.64 16.02 9.74
8/15/2021 11:45:00 AM 16.78 62.204 0.08 7.67 15.39 9.73
8/15/2021 12:00:00 PM 16.87 62.366 0.08 7.68 15.18 9.72
8/15/2021 12:15:00 PM 16.96 62.528 0.08 7.68 15.85 9.7
8/15/2021 12:30:00 PM 16.93 62.474 0.08 7.67 15.54 9.7
8/15/2021 12:45:00 PM 16.99 62.582 0.08 7.68 15.19 9.69
8/15/2021 1:00:00 PM 16.99 62.582 0.08 7.68 15.52 9.67
8/15/2021 1:15:00 PM 17.11 62.798 0.08 7.65 14.32 9.64
8/15/2021 1:30:00 PM 17.22 62.996 0.08 7.66 16.33 9.61
8/15/2021 1:45:00 PM 17.3 63.14 0.08 7.65 15.19 9.59
8/15/2021 2:00:00 PM 17.38 63.284 0.08 7.68 14.72 9.57
8/15/2021 2:15:00 PM 17.43 63.374 0.08 7.65 15.09 9.55
8/15/2021 2:30:00 PM 17.46 63.428 0.08 7.64 14.24 9.53
8/15/2021 2:45:00 PM 17.48 63.464 0.08 7.64 15.45 9.53
8/15/2021 3:00:00 PM 17.48 63.464 0.08 7.64 13.33 9.54
8/15/2021 3:15:00 PM 17.48 63.464 0.08 7.64 15.76 9.54
8/15/2021 3:30:00 PM 17.48 63.464 0.08 7.64 16.02 9.53
8/15/2021 3:45:00 PM 17.46 63.428 0.08 7.63 21.04 9.51
8/15/2021 4:00:00 PM 17.43 63.374 0.08 7.66 15.85 9.51
8/15/2021 4:15:00 PM 17.43 63.374 0.08 7.65 18.8 9.5
8/15/2021 4:30:00 PM 17.4 63.32 0.08 7.62 16.57 9.5
8/15/2021 4:45:00 PM 17.4 63.32 0.08 7.62 15.19 9.49
8/15/2021 5:00:00 PM 17.39 63.302 0.08 7.61 14.35 9.5
8/15/2021 5:15:00 PM 17.37 63.266 0.08 7.6 17.19 9.49
8/15/2021 5:30:00 PM 17.36 63.248 0.08 7.6 14.86 9.48
8/15/2021 5:45:00 PM 17.32 63.176 0.08 7.61 15.63 9.44
8/15/2021 6:00:00 PM 17.3 63.14 0.08 7.62 14.98 9.43
8/15/2021 6:15:00 PM 17.25 63.05 0.08 7.61 14.95 9.43
8/15/2021 6:30:00 PM 17.22 62.996 0.081 7.45 14.53 9.44
8/15/2021 6:45:00 PM 17.19 62.942 0.081 7.59 14.72 9.43
8/15/2021 7:00:00 PM 17.16 62.888 0.081 7.58 15.58 9.43
8/15/2021 7:15:00 PM 17.13 62.834 0.081 7.57 13.33 9.42
8/15/2021 7:30:00 PM 17.09 62.762 0.081 7.58 14.9 9.42
8/15/2021 7:45:00 PM 17.06 62.708 0.081 7.57 14.51 9.42
8/15/2021 8:00:00 PM 17.03 62.654 0.081 7.57 14.82 9.42
8/15/2021 8:15:00 PM 16.98 62.564 0.081 7.56 15.61 9.42
8/15/2021 8:30:00 PM 16.93 62.474 0.081 7.59 14.89 9.42
8/15/2021 8:45:00 PM 16.87 62.366 0.081 7.56 16.3 9.44
8/15/2021 9:00:00 PM 16.81 62.258 0.081 7.58 13.86 9.45
8/15/2021 9:15:00 PM 16.75 62.15 0.081 7.57 27.19 9.46
8/15/2021 9:30:00 PM 16.7 62.06 0.082 7.54 14.69 9.47
8/15/2021 9:45:00 PM 16.64 61.952 0.081 7.57 13.76 9.48
8/15/2021 10:00:00 PM 16.59 61.862 0.081 7.57 14.64 9.49
8/15/2021 10:15:00 PM 16.54 61.772 0.081 7.54 12.98 9.51
8/15/2021 10:30:00 PM 16.49 61.682 0.081 7.57 12.7 9.51
8/15/2021 10:45:00 PM 16.44 61.592 0.081 7.56 13.09 9.53
8/15/2021 11:00:00 PM 16.39 61.502 0.081 7.55 13.55 9.53
8/15/2021 11:15:00 PM 16.35 61.43 0.081 7.55 13.01 9.55
8/15/2021 11:30:00 PM 16.31 61.358 0.081 7.55 11.34 9.57
8/15/2021 11:45:00 PM 16.27 61.286 0.082 7.55 17.75 9.58
8/16/2021 12:00:00 AM 16.23 61.214 0.081 7.54 13.1 9.59
8/16/2021 12:15:00 AM 16.19 61.142 0.081 7.56 13.3 9.59
8/16/2021 12:30:00 AM 16.15 61.07 0.081 7.54 14.35 9.6
8/16/2021 12:45:00 AM 16.11 60.998 0.081 7.54 14.01 9.6
8/16/2021 1:00:00 AM 16.08 60.944 0.082 7.53 13.64 9.63
8/16/2021 1:15:00 AM 16.04 60.872 0.081 7.52 12.9 9.62
8/16/2021 1:30:00 AM 16 60.8 0.082 7.54 12.48 9.63
8/16/2021 1:45:00 AM 15.97 60.746 0.082 7.56 12.82 9.63
8/16/2021 2:00:00 AM 15.94 60.692 0.082 7.54 12.44 9.65
8/16/2021 2:15:00 AM 15.9 60.62 0.082 7.53 13.55 9.65
8/16/2021 2:30:00 AM 15.87 60.566 0.082 7.54 13.7 9.65
8/16/2021 2:45:00 AM 15.85 60.53 0.082 7.54 12.58 9.66
8/16/2021 3:00:00 AM 15.81 60.458 0.082 7.53 12.4 9.67
8/16/2021 3:15:00 AM 15.78 60.404 0.082 7.52 11.39 9.67
8/16/2021 3:30:00 AM 15.74 60.332 0.082 7.53 12.92 9.69
8/16/2021 3:45:00 AM 15.71 60.278 0.082 7.55 12.5 9.69
8/16/2021 4:00:00 AM 15.68 60.224 0.082 7.54 11.93 9.7
8/16/2021 4:15:00 AM 15.66 60.188 0.082 7.55 11.96 9.71
8/16/2021 4:30:00 AM 15.63 60.134 0.082 7.52 12.85 9.72
8/16/2021 4:45:00 AM 15.6 60.08 0.082 7.53 12.57 9.73
8/16/2021 5:00:00 AM 15.59 60.062 0.082 7.51 12.58 9.73
8/16/2021 5:15:00 AM 15.57 60.026 0.082 7.51 11.62 9.74
8/16/2021 5:30:00 AM 15.56 60.008 0.082 7.54 11.99 9.74
8/16/2021 5:45:00 AM 15.54 59.972 0.082 7.51 12.77 9.74
8/16/2021 6:00:00 AM 15.53 59.954 0.082 7.53 13.54 9.75
8/16/2021 6:15:00 AM 15.52 59.936 0.082 7.53 13.01 9.75
8/16/2021 6:30:00 AM 15.52 59.936 0.082 7.51 12.5 9.75
8/16/2021 6:45:00 AM 15.51 59.918 0.082 7.5 13.76 9.76
8/16/2021 7:00:00 AM 15.51 59.918 0.082 7.49 13.32 9.77
8/16/2021 7:15:00 AM 15.51 59.918 0.082 7.53 13.48 9.77
8/16/2021 7:30:00 AM 15.51 59.918 0.082 7.5 13.63 9.78
8/16/2021 7:45:00 AM 15.51 59.918 0.082 7.52 14.6 9.79
8/16/2021 8:00:00 AM 15.53 59.954 0.082 7.55 14.47 9.81
8/16/2021 8:15:00 AM 15.54 59.972 0.081 7.53 13.22 9.82
8/16/2021 8:30:00 AM 15.56 60.008 0.081 7.56 14.66 9.81
8/16/2021 8:45:00 AM 15.56 60.008 0.082 7.56 14.47 9.8
8/16/2021 9:00:00 AM 15.58 60.044 0.081 7.56 14.29 9.8
8/16/2021 9:15:00 AM 15.6 60.08 0.081 7.54 13.83 9.82
8/16/2021 9:30:00 AM 15.63 60.134 0.081 7.57 14.13 9.83
8/16/2021 9:45:00 AM 15.67 60.206 0.081 7.58 14.84 9.83
8/16/2021 10:00:00 AM 15.71 60.278 0.081 7.58 15.42 9.83
8/16/2021 10:15:00 AM 15.75 60.35 0.081 7.56 13.5 9.83
8/16/2021 10:30:00 AM 15.81 60.458 0.081 7.57 13.28 9.83
8/16/2021 10:45:00 AM 15.86 60.548 0.081 7.56 13 9.83
8/16/2021 11:00:00 AM 15.95 60.71 0.081 7.57 14.18 9.85
8/16/2021 11:15:00 AM 16.07 60.926 0.081 7.64 12.8 9.86
8/16/2021 11:30:00 AM 16.18 61.124 0.081 7.62 13.85 9.85
8/16/2021 11:45:00 AM 16.25 61.25 0.081 7.61 13.34 9.82
8/16/2021 12:00:00 PM 16.29 61.322 0.081 7.6 14.23 9.78
8/16/2021 12:15:00 PM 16.34 61.412 0.081 7.61 15.07 9.78
8/16/2021 12:30:00 PM 16.42 61.556 0.081 7.63 14.2 9.78
8/16/2021 12:45:00 PM 16.5 61.7 0.081 7.64 12.6 9.76
8/16/2021 1:00:00 PM 16.58 61.844 0.081 7.62 12.91 9.75
8/16/2021 1:15:00 PM 16.61 61.898 0.081 7.61 14.03 9.69
8/16/2021 1:30:00 PM 16.6 61.88 0.081 7.59 14.91 9.64
8/16/2021 1:45:00 PM 16.61 61.898 0.081 7.57 14.87 9.63
8/16/2021 2:00:00 PM 16.61 61.898 0.081 7.6 11.25 9.63
8/16/2021 2:15:00 PM 16.61 61.898 0.081 7.6 13.9 9.62
8/16/2021 2:30:00 PM 16.6 61.88 0.081 7.58 12.42 9.6
8/16/2021 2:45:00 PM 16.6 61.88 0.081 7.53 14.95 9.6
8/16/2021 3:00:00 PM 16.61 61.898 0.081 7.54 14.06 9.6
8/16/2021 3:15:00 PM 16.6 61.88 0.081 7.52 13.99 9.59
8/16/2021 3:30:00 PM 16.6 61.88 0.081 7.53 13.37 9.57
8/16/2021 3:45:00 PM 16.61 61.898 0.081 7.55 13.87 9.57
8/16/2021 4:00:00 PM 16.61 61.898 0.081 7.52 13.28 9.58
8/16/2021 4:15:00 PM 16.62 61.916 0.081 7.52 13.12 9.58
8/16/2021 4:30:00 PM 16.64 61.952 0.081 7.52 14.28 9.61
8/16/2021 4:45:00 PM 16.66 61.988 0.081 7.53 12.89 9.61
8/16/2021 5:00:00 PM 16.67 62.006 0.081 7.52 13.71 9.59
8/16/2021 5:15:00 PM 16.68 62.024 0.081 7.51 13.22 9.57
8/16/2021 5:30:00 PM 16.68 62.024 0.081 7.5 15.02 9.54
8/16/2021 5:45:00 PM 16.69 62.042 0.081 7.48 12.71 9.54
8/16/2021 6:00:00 PM 16.69 62.042 0.082 7.5 12.85 9.54
8/16/2021 6:15:00 PM 16.7 62.06 0.082 7.51 13.27 9.53
8/16/2021 6:30:00 PM 16.71 62.078 0.082 7.48 13.82 9.53
8/16/2021 6:45:00 PM 16.7 62.06 0.082 7.49 12.82 9.5
8/16/2021 7:00:00 PM 16.69 62.042 0.082 7.46 14.57 9.48
8/16/2021 7:15:00 PM 16.69 62.042 0.082 7.47 12.38 9.47
8/16/2021 7:30:00 PM 16.7 62.06 0.081 7.43 16.37 9.45
8/16/2021 7:45:00 PM 16.7 62.06 0.081 7.42 17.04 9.43
8/16/2021 8:00:00 PM 16.69 62.042 0.081 7.42 16.97 9.43
8/16/2021 8:15:00 PM 16.68 62.024 0.081 7.42 21.16 9.44
8/16/2021 8:30:00 PM 16.67 62.006 0.082 7.43 21.65 9.44
8/16/2021 8:45:00 PM 16.66 61.988 0.081 7.4 21.71 9.45
8/16/2021 9:00:00 PM 16.65 61.97 0.082 7.42 19.45 9.45
8/16/2021 9:15:00 PM 16.64 61.952 0.082 7.44 16.28 9.45
8/16/2021 9:30:00 PM 16.63 61.934 0.082 7.44 16.15 9.46
8/16/2021 9:45:00 PM 16.63 61.934 0.082 7.41 15.56 9.46
8/16/2021 10:00:00 PM 16.62 61.916 0.082 7.43 14.44 9.46
8/16/2021 10:15:00 PM 16.61 61.898 0.083 7.41 13.91 9.46
8/16/2021 10:30:00 PM 16.61 61.898 0.083 7.43 12.6 9.47
8/16/2021 10:45:00 PM 16.6 61.88 0.083 7.4 12.26 9.47
8/16/2021 11:00:00 PM 16.59 61.862 0.083 7.39 12.38 9.47
8/16/2021 11:15:00 PM 16.59 61.862 0.083 7.43 12.94 9.47
8/16/2021 11:30:00 PM 16.58 61.844 0.095 7.39 12.73 9.48
8/16/2021 11:45:00 PM 16.58 61.844 0.086 7.43 12.06 9.48
8/17/2021 12:00:00 AM 16.57 61.826 0.084 7.4 11.88 9.48
8/17/2021 12:15:00 AM 16.57 61.826 0.092 7.43 12.23 9.48
8/17/2021 12:30:00 AM 16.57 61.826 0.097 7.41 12.51 9.48
8/17/2021 12:45:00 AM 16.57 61.826 0.091 7.42 12.59 9.47
8/17/2021 1:00:00 AM 16.56 61.808 0.084 7.42 12.77 9.47
8/17/2021 1:15:00 AM 16.57 61.826 0.093 7.45 13.92 9.47
8/17/2021 1:30:00 AM 16.58 61.844 0.084 7.45 17.42 9.46
8/17/2021 1:45:00 AM 16.57 61.826 0.083 7.41 14.04 9.47
8/17/2021 2:00:00 AM 16.57 61.826 0.083 7.41 23.56 9.47
8/17/2021 2:15:00 AM 16.56 61.808 0.083 7.4 23.92 9.47
8/17/2021 2:30:00 AM 16.56 61.808 0.083 7.4 21.41 9.48
8/17/2021 2:45:00 AM 16.56 61.808 0.084 7.42 20.96 9.48
8/17/2021 3:00:00 AM 16.57 61.826 0.083 7.42 16.45 9.48
8/17/2021 3:15:00 AM 16.57 61.826 0.083 7.43 13.56 9.48
8/17/2021 3:30:00 AM 16.57 61.826 0.083 7.46 14.38 9.48
8/17/2021 3:45:00 AM 16.57 61.826 0.083 7.46 13.18 9.48
8/17/2021 4:00:00 AM 16.57 61.826 0.083 7.43 12.71 9.48
8/17/2021 4:15:00 AM 16.57 61.826 0.083 7.45 12.83 9.48
8/17/2021 4:30:00 AM 16.57 61.826 0.083 7.41 13.07 9.48
8/17/2021 4:45:00 AM 16.57 61.826 0.084 7.41 13.43 9.48
8/17/2021 5:00:00 AM 16.57 61.826 0.083 7.43 12.92 9.48
8/17/2021 5:15:00 AM 16.56 61.808 0.083 7.39 12.15 9.48
8/17/2021 5:30:00 AM 16.6 61.88 0.081 7.4 15.09 9.47
8/17/2021 5:45:00 AM 16.64 61.952 0.08 7.38 22.07 9.45
8/17/2021 6:00:00 AM 16.66 61.988 0.079 7.37 33.68 9.45
8/17/2021 6:15:00 AM 16.68 62.024 0.079 7.37 79.12 9.46
8/17/2021 6:30:00 AM 16.66 61.988 0.082 7.39 94.73 9.49
8/17/2021 6:45:00 AM 16.67 62.006 0.082 7.4 62.1 9.5
8/17/2021 7:00:00 AM 16.68 62.024 0.083 7.47 40.5 9.5
8/17/2021 7:15:00 AM 16.69 62.042 0.083 7.29 35.86 9.5
8/17/2021 7:30:00 AM 16.69 62.042 0.083 7.43 31.37 9.51
8/17/2021 7:45:00 AM 16.69 62.042 0.082 7.45 28.87 9.53
8/17/2021 8:00:00 AM 16.69 62.042 0.082 7.42 27.68 9.53
8/17/2021 8:15:00 AM 16.7 62.06 0.081 7.46 24.04 9.54
8/17/2021 8:30:00 AM 16.71 62.078 0.08 7.45 25.31 9.55
8/17/2021 8:45:00 AM 16.73 62.114 0.079 7.44 23.81 9.56
8/17/2021 9:00:00 AM 16.76 62.168 0.079 7.46 19.84 9.56
8/17/2021 9:15:00 AM 16.78 62.204 0.078 7.44 20.21 9.56
8/17/2021 9:30:00 AM 16.82 62.276 0.077 7.44 15.61 9.57
8/17/2021 9:45:00 AM 16.87 62.366 0.077 7.46 17.26 9.57
8/17/2021 10:00:00 AM 16.91 62.438 0.077 7.46 16 9.57
8/17/2021 10:15:00 AM 16.96 62.528 0.077 7.47 15.93 9.56
8/17/2021 10:30:00 AM 17.02 62.636 0.077 7.51 14.85 9.57
8/17/2021 10:45:00 AM 17.08 62.744 0.077 7.48 15.09 9.55
8/17/2021 11:00:00 AM 17.11 62.798 0.077 7.49 15.51 9.53
8/17/2021 11:15:00 AM 17.19 62.942 0.077 7.52 14.86 9.55
8/17/2021 11:30:00 AM 17.24 63.032 0.077 7.53 14.77 9.52
8/17/2021 11:45:00 AM 17.28 63.104 0.077 7.5 15.05 9.52
8/17/2021 12:00:00 PM 17.33 63.194 0.077 7.51 14.22 9.52
8/17/2021 12:15:00 PM 17.47 63.446 0.077 7.59 15.03 9.54
8/17/2021 12:30:00 PM 17.58 63.644 0.077 7.62 13.79 9.52
8/17/2021 12:45:00 PM 17.62 63.716 0.078 7.57 14 9.47
8/17/2021 1:00:00 PM 17.77 63.986 0.078 7.62 13.15 9.48
8/17/2021 1:15:00 PM 17.92 64.256 0.078 7.65 13.47 9.46
8/17/2021 1:30:00 PM 18 64.4 0.078 7.61 13 9.43
8/17/2021 1:45:00 PM 18.1 64.58 0.078 7.66 12.47 9.42
8/17/2021 2:00:00 PM 18.15 64.67 0.078 7.66 13.14 9.4
8/17/2021 2:15:00 PM 18.19 64.742 0.078 7.66 12.52 9.4
8/17/2021 2:30:00 PM 18.2 64.76 0.079 7.64 12.45 9.37
8/17/2021 2:45:00 PM 18.24 64.832 0.079 7.65 12.76 9.34
8/17/2021 3:00:00 PM 18.3 64.94 0.079 7.65 12.18 9.35
8/17/2021 3:15:00 PM 18.29 64.922 0.079 7.61 12.27 9.31
8/17/2021 3:30:00 PM 18.3 64.94 0.079 7.6 12.13 9.31
8/17/2021 3:45:00 PM 18.29 64.922 0.08 7.59 12.79 9.28
8/17/2021 4:00:00 PM 18.28 64.904 0.08 7.6 12.31 9.28
8/17/2021 4:15:00 PM 18.27 64.886 0.08 7.55 12.08 9.26
8/17/2021 4:30:00 PM 18.25 64.85 0.08 7.53 12.19 9.26
8/17/2021 4:45:00 PM 18.26 64.868 0.08 7.53 12.1 9.26
8/17/2021 5:00:00 PM 18.25 64.85 0.08 7.55 11.38 9.25
8/17/2021 5:15:00 PM 18.26 64.868 0.081 7.53 11.32 9.24
8/17/2021 5:30:00 PM 18.25 64.85 0.081 7.56 11.14 9.22
8/17/2021 5:45:00 PM 18.24 64.832 0.081 7.56 11.73 9.2
8/17/2021 6:00:00 PM 18.22 64.796 0.081 7.54 11.76 9.18
8/17/2021 6:15:00 PM 18.2 64.76 0.081 7.53 11.22 9.19
8/17/2021 6:30:00 PM 18.19 64.742 0.081 7.51 11.38 9.2
8/17/2021 6:45:00 PM 18.18 64.724 0.082 7.49 11.66 9.2
8/17/2021 7:00:00 PM 18.17 64.706 0.082 7.48 10.59 9.19
8/17/2021 7:15:00 PM 18.15 64.67 0.081 7.47 10.94 9.18
8/17/2021 7:30:00 PM 18.13 64.634 0.081 7.48 11.51 9.17
8/17/2021 7:45:00 PM 18.11 64.598 0.082 7.44 11.33 9.16
8/17/2021 8:00:00 PM 18.09 64.562 0.082 7.43 12.02 9.16
8/17/2021 8:15:00 PM 18.06 64.508 0.082 7.45 11.68 9.16
8/17/2021 8:30:00 PM 18.03 64.454 0.088 7.42 12.25 9.17
8/17/2021 8:45:00 PM 18.01 64.418 0.088 7.42 11.77 9.17
8/17/2021 9:00:00 PM 17.98 64.364 0.082 7.43 12.36 9.17
8/17/2021 9:15:00 PM 17.96 64.328 0.082 7.4 12.33 9.18
8/17/2021 9:30:00 PM 17.94 64.292 0.083 7.4 11.99 9.18
8/17/2021 9:45:00 PM 17.93 64.274 0.083 7.44 12.9 9.19
8/17/2021 10:00:00 PM 17.92 64.256 0.083 7.42 11.24 9.19
8/17/2021 10:15:00 PM 17.9 64.22 0.083 7.44 11.61 9.19
8/17/2021 10:30:00 PM 17.88 64.184 0.083 7.41 10.87 9.19
8/17/2021 10:45:00 PM 17.86 64.148 0.089 7.43 11.25 9.19
8/17/2021 11:00:00 PM 17.85 64.13 0.083 7.41 10.28 9.19
8/17/2021 11:15:00 PM 17.84 64.112 0.089 7.39 10.41 9.2
8/17/2021 11:30:00 PM 17.82 64.076 0.089 7.39 10.19 9.2
8/17/2021 11:45:00 PM 17.81 64.058 0.089 7.37 10.62 9.2
8/18/2021 12:00:00 AM 17.79 64.022 0.084 7.37 9.85 9.19
8/18/2021 12:15:00 AM 17.77 63.986 0.089 7.39 10.92 9.21
8/18/2021 12:30:00 AM 17.76 63.968 0.089 7.37 10.83 9.22
8/18/2021 12:45:00 AM 17.75 63.95 0.084 7.39 12.05 9.22
8/18/2021 1:00:00 AM 17.74 63.932 0.084 7.39 9.88 9.23
8/18/2021 1:15:00 AM 17.72 63.896 0.084 7.38 10.55 9.23
8/18/2021 1:30:00 AM 17.71 63.878 0.084 7.36 9.85 9.23
8/18/2021 1:45:00 AM 17.71 63.878 0.085 7.36 10.24 9.23
8/18/2021 2:00:00 AM 17.7 63.86 0.084 7.37 11 9.23
8/18/2021 2:15:00 AM 17.69 63.842 0.09 7.34 10.98 9.23
8/18/2021 2:30:00 AM 17.7 63.86 0.084 7.35 11.37 9.22
8/18/2021 2:45:00 AM 17.69 63.842 0.084 7.34 13.42 9.19
8/18/2021 3:00:00 AM 17.7 63.86 0.083 7.34 13.65 9.2
8/18/2021 3:15:00 AM 17.7 63.86 0.084 7.37 15.31 9.21
8/18/2021 3:30:00 AM 17.69 63.842 0.09 7.38 16.39 9.22
8/18/2021 3:45:00 AM 17.68 63.824 0.09 7.35 15.48 9.23
8/18/2021 4:00:00 AM 17.66 63.788 0.09 7.34 13.9 9.22
8/18/2021 4:15:00 AM 17.65 63.77 0.085 7.34 12.2 9.23
8/18/2021 4:30:00 AM 17.64 63.752 0.091 7.35 11.85 9.23
8/18/2021 4:45:00 AM 17.63 63.734 0.091 7.34 11.01 9.23
8/18/2021 5:00:00 AM 17.62 63.716 0.091 7.34 10.24 9.24
8/18/2021 5:15:00 AM 17.62 63.716 0.085 7.34 10.59 9.24
8/18/2021 5:30:00 AM 17.61 63.698 0.091 7.34 9.93 9.25
8/18/2021 5:45:00 AM 17.6 63.68 0.091 7.34 11.33 9.25
8/18/2021 6:00:00 AM 17.6 63.68 0.085 7.36 11.53 9.25
8/18/2021 6:15:00 AM 17.63 63.734 0.089 7.33 12.45 9.24
8/18/2021 6:30:00 AM 17.63 63.734 0.089 7.34 13.77 9.24
8/18/2021 6:45:00 AM 17.64 63.752 0.084 7.35 20.03 9.24
8/18/2021 7:00:00 AM 17.64 63.752 0.084 7.35 31.38 9.25
8/18/2021 7:15:00 AM 17.64 63.752 0.09 7.33 35.1 9.26
8/18/2021 7:30:00 AM 17.69 63.842 0.089 7.41 30.52 9.26
8/18/2021 7:45:00 AM 17.73 63.914 0.083 7.45 35.61 9.27
8/18/2021 8:00:00 AM 17.76 63.968 0.084 7.46 58.42 9.29
8/18/2021 8:15:00 AM 17.76 63.968 0.091 7.49 61.56 9.3
8/18/2021 8:30:00 AM 17.76 63.968 0.093 7.52 48.56 9.31
8/18/2021 8:45:00 AM 17.77 63.986 0.094 7.5 34.44 9.3
8/18/2021 9:00:00 AM 17.78 64.004 0.093 7.48 22.77 9.32
8/18/2021 9:15:00 AM 17.78 64.004 0.092 7.5 20.6 9.33
8/18/2021 9:30:00 AM 17.77 63.986 0.091 7.52 18.54 9.34
8/18/2021 9:45:00 AM 17.77 63.986 0.09 7.51 20.08 9.36
8/18/2021 10:00:00 AM 17.76 63.968 0.084 7.5 22.4 9.36
8/18/2021 10:15:00 AM 17.76 63.968 0.083 7.5 23.65 9.38
8/18/2021 10:30:00 AM 17.74 63.932 0.082 7.49 23.8 9.38
8/18/2021 10:45:00 AM 17.74 63.932 0.082 7.47 20.5 9.4
8/18/2021 11:00:00 AM 17.75 63.95 0.081 7.47 18.21 9.4
8/18/2021 11:15:00 AM 17.75 63.95 0.08 7.49 16.56 9.39
8/18/2021 11:30:00 AM 17.76 63.968 0.08 7.47 14.94 9.39
8/18/2021 11:45:00 AM 17.76 63.968 0.08 7.48 14.97 9.37
8/18/2021 12:00:00 PM 17.77 63.986 0.08 7.5 14.45 9.37
8/18/2021 12:15:00 PM 17.78 64.004 0.079 7.5 14.6 9.35
8/18/2021 12:30:00 PM 17.77 63.986 0.079 7.47 14.86 9.34
8/18/2021 12:45:00 PM 17.77 63.986 0.079 7.46 18.31 9.34
8/18/2021 1:00:00 PM 17.8 64.04 0.078 7.48 17.95 9.35
8/18/2021 1:15:00 PM 17.83 64.094 0.078 7.51 17.01 9.35
8/18/2021 1:30:00 PM 17.88 64.184 0.078 7.53 23.72 9.35
8/18/2021 1:45:00 PM 17.93 64.274 0.078 7.56 29.29 9.36
8/18/2021 2:00:00 PM 17.95 64.31 0.079 7.56 30.85 9.33
8/18/2021 2:15:00 PM 17.98 64.364 0.08 7.59 21.36 9.33
8/18/2021 2:30:00 PM 17.99 64.382 0.08 7.56 19.63 9.3
8/18/2021 2:45:00 PM 18.07 64.526 0.079 7.58 21.27 9.29
8/18/2021 3:00:00 PM 18.13 64.634 0.078 7.56 60.02 9.27
8/18/2021 3:15:00 PM 18.14 64.652 0.079 7.57 68.99 9.25
8/18/2021 3:30:00 PM 18.38 65.084 0.074 7.49 96.59 9.19
8/18/2021 3:45:00 PM 18.61 65.498 0.071 7.5 388.99 9.17
8/18/2021 4:00:00 PM 19 66.2 0.067 7.54 362.84 9.11
8/18/2021 4:15:00 PM 18.93 66.074 0.064 7.51 187.15 9.13
8/18/2021 4:30:00 PM 18.97 66.146 0.063 7.53 225.81 9.12
8/18/2021 4:45:00 PM 18.72 65.696 0.06 7.44 291.94 9.21
8/18/2021 5:00:00 PM 18.68 65.624 0.06 7.43 214.08 9.22
8/18/2021 5:15:00 PM 18.69 65.642 0.056 7.45 195.77 9.22
8/18/2021 5:30:00 PM 18.74 65.732 0.054 7.43 193.17 9.21
8/18/2021 5:45:00 PM 18.96 66.128 0.056 7.3 308.38 9.17
8/18/2021 6:00:00 PM 19.19 66.542 0.05 7.2 484.32 9.13
8/18/2021 6:15:00 PM 19.15 66.47 0.046 7.14 703.01 9.14
8/18/2021 6:30:00 PM 19.14 66.452 0.039 7.08 1037.92 9.14
8/18/2021 6:45:00 PM 19.04 66.272 0.035 6.96 1129.5 9.17
8/18/2021 7:00:00 PM 18.87 65.966 0.069 6.86 993.89 8.98
8/18/2021 7:15:00 PM 18.73 65.714 0.075 6.89 748.49 8.12
8/18/2021 7:30:00 PM 18.52 65.336 0.072 6.93 642.2 8.58
8/18/2021 7:45:00 PM 18.32 64.976 0.07 6.91 664.47 8.76
8/18/2021 8:00:00 PM 18.16 64.688 0.044 6.93 576.62 9.21
8/18/2021 8:15:00 PM 18.05 64.49 0.038 6.94 318.11 9.37
8/18/2021 8:30:00 PM 17.98 64.364 0.038 7.02 254.86 9.38
8/18/2021 8:45:00 PM 17.91 64.238 0.038 6.94 252.65 9.38
8/18/2021 9:00:00 PM 17.84 64.112 0.038 6.94 216.07 9.4
8/18/2021 9:15:00 PM 17.8 64.04 0.038 6.93 228.24 9.4
8/18/2021 9:30:00 PM 17.74 63.932 0.038 6.94 227.84 9.41
8/18/2021 9:45:00 PM 17.71 63.878 0.038 7 206.53 9.42
8/18/2021 10:00:00 PM 17.7 63.86 0.038 7 180.42 9.42
8/18/2021 10:15:00 PM 17.68 63.824 0.039 7 182.02 9.43
8/18/2021 10:30:00 PM 17.62 63.716 0.038 7.01 165.25 9.44
8/18/2021 10:45:00 PM 17.54 63.572 0.039 7.01 149.46 9.47
8/18/2021 11:00:00 PM 17.47 63.446 0.039 6.92 137.72 9.47
8/18/2021 11:15:00 PM 17.41 63.338 0.039 6.92 139.64 9.48
8/18/2021 11:30:00 PM 17.34 63.212 0.039 6.91 135.83 9.49
8/18/2021 11:45:00 PM 17.27 63.086 0.039 6.91 129.69 9.5
8/19/2021 12:00:00 AM 17.19 62.942 0.039 6.9 137.6 9.51
8/19/2021 12:15:00 AM 17.12 62.816 0.04 6.89 132.07 9.52
8/19/2021 12:30:00 AM 17.05 62.69 0.04 6.88 111.25 9.53
8/19/2021 12:45:00 AM 16.99 62.582 0.04 6.92 106.05 9.55
8/19/2021 1:00:00 AM 16.93 62.474 0.04 6.88 89.05 9.57
8/19/2021 1:15:00 AM 16.88 62.384 0.04 6.9 103.69 9.58
8/19/2021 1:30:00 AM 16.84 62.312 0.04 6.93 95.07 9.59
8/19/2021 1:45:00 AM 16.79 62.222 0.04 6.95 93.61 9.6
8/19/2021 2:00:00 AM 16.75 62.15 0.04 6.96 89.02 9.61
8/19/2021 2:15:00 AM 16.69 62.042 0.04 6.95 89.9 9.61
8/19/2021 2:30:00 AM 16.64 61.952 0.04 6.94 84.65 9.62
8/19/2021 2:45:00 AM 16.59 61.862 0.04 6.89 103.29 9.63
8/19/2021 3:00:00 AM 16.55 61.79 0.04 6.91 70.18 9.64
8/19/2021 3:15:00 AM 16.5 61.7 0.04 6.93 133.35 9.64
8/19/2021 3:30:00 AM 16.48 61.664 0.041 6.92 93.18 9.65
8/19/2021 3:45:00 AM 16.45 61.61 0.041 6.96 99.08 9.66
8/19/2021 4:00:00 AM 16.45 61.61 0.04 7.05 99.75 9.66
8/19/2021 4:15:00 AM 16.43 61.574 0.04 7.08 87.13 9.67
8/19/2021 4:30:00 AM 16.41 61.538 0.04 7.09 99.38 9.68
8/19/2021 4:45:00 AM 16.38 61.484 0.04 7.08 99.43 9.68
8/19/2021 5:00:00 AM 16.37 61.466 0.039 7.08 81.2 9.68
8/19/2021 5:15:00 AM 16.37 61.466 0.038 7.1 87.79 9.69
8/19/2021 5:30:00 AM 16.34 61.412 0.035 7.06 74.94 9.7
8/19/2021 5:45:00 AM 16.33 61.394 0.033 7.06 68.34 9.71
8/19/2021 6:00:00 AM 16.32 61.376 0.028 7.07 75.24 9.7
8/19/2021 6:15:00 AM 16.29 61.322 0.024 7.1 73.97 9.72
8/19/2021 6:30:00 AM 16.27 61.286 0.02 7.09 121.14 9.73
8/19/2021 6:45:00 AM 16.26 61.268 0.014 7.1 88.61 9.72
8/19/2021 7:00:00 AM 16.23 61.214 0.016 7.1 110.73 9.73
8/19/2021 7:15:00 AM 16.23 61.214 0.013 7.11 88.04 9.75
8/19/2021 7:30:00 AM 16.22 61.196 0.011 7.12 86.38 9.74
8/19/2021 7:45:00 AM 16.2 61.16 0.006 7.1 76.63 9.74
8/19/2021 8:00:00 AM 16.22 61.196 0.006 7.13 79.21 9.74
8/19/2021 8:15:00 AM 16.21 61.178 0.003 7.12 77.65 9.75
8/19/2021 8:30:00 AM 16.26 61.268 0.002 7.11 70.98 9.74
8/19/2021 8:45:00 AM 16.34 61.412 0.002 7.09 71.06 9.72
8/19/2021 9:00:00 AM 16.35 61.43 0.002 7.04 75.97 9.72
8/19/2021 9:15:00 AM 16.45 61.61 0.001 7.04 98.6 9.69
8/19/2021 9:30:00 AM 16.53 61.754 0.001 7.02 142.17 9.66
8/19/2021 9:45:00 AM 16.73 62.114 0.001 7.15 107.59 9.61
8/19/2021 10:00:00 AM 16.61 61.898 0.001 7.17 89.48 9.65
8/19/2021 10:15:00 AM 16.64 61.952 0.001 7.09 57.49 9.64
8/19/2021 10:30:00 AM 16.7 62.06 0.001 7.11 12.54 9.62
8/19/2021 10:45:00 AM 16.93 62.474 0.001 7.06 4.97 9.57
8/19/2021 11:00:00 AM 16.83 62.294 0.001 7.14 3.74 9.6
8/19/2021 11:15:00 AM 16.76 62.168 0.001 6.89 3.1 9.61
8/19/2021 11:30:00 AM 16.77 62.186 0.001 6.66 2.83 9.61
8/19/2021 11:45:00 AM 16.81 62.258 0.001 7.14 2.65 9.6
8/19/2021 12:00:00 PM 17.07 62.726 0.001 7.11 2.46 9.53
8/19/2021 12:15:00 PM 17.05 62.69 0.001 7.04 2.49 9.54
8/19/2021 12:30:00 PM 17.04 62.672 0.001 7.15 2.51 9.55
8/19/2021 12:45:00 PM 17 62.6 0.001 7.06 2.33 9.55
8/19/2021 1:00:00 PM 17.13 62.834 0.001 7.03 2.4 9.53
8/19/2021 1:15:00 PM 17.14 62.852 0.001 6.56 2.38 9.51
8/19/2021 1:30:00 PM 17.03 62.654 0.001 6.74 2.53 9.54
8/19/2021 1:45:00 PM 17.18 62.924 0.001 6.94 2.44 9.51
8/19/2021 2:00:00 PM 17.26 63.068 0.001 6.83 2.42 9.48
8/19/2021 2:15:00 PM 17.17 62.906 0.001 7.14 2.31 9.51
8/19/2021 2:30:00 PM 17.34 63.212 0 5.72 2.38 9.47
8/19/2021 2:45:00 PM 17.7 63.86 0.001 5.53 2.59 9.38
8/19/2021 3:00:00 PM 17.72 63.896 0.001 5.45 2.8 9.39
8/19/2021 3:15:00 PM 17.48 63.464 0.001 5.46 2.5 9.45
8/19/2021 3:30:00 PM 17.6 63.68 0.001 5.52 2.22 9.42
8/19/2021 3:45:00 PM 17.64 63.752 0.001 5.5 2.36 9.42
8/19/2021 4:00:00 PM 17.75 63.95 0.001 5.51 2.43 9.39
8/19/2021 4:15:00 PM 17.89 64.202 0.001 5.53 2.46 9.36
8/19/2021 4:30:00 PM 17.87 64.166 0.001 5.49 2.22 9.36
8/19/2021 4:45:00 PM 17.76 63.968 0.001 5.53 2.36 9.38
8/19/2021 5:00:00 PM 17.53 63.554 0.001 5.54 2.21 9.45
8/19/2021 5:15:00 PM 17.42 63.356 0.001 5.51 2.21 9.48
8/19/2021 5:30:00 PM 17.4 63.32 0.001 5.57 2.25 9.49
8/19/2021 5:45:00 PM 17.32 63.176 0.001 5.51 2.28 9.5
8/19/2021 6:00:00 PM 17.28 63.104 0.001 5.59 2.32 9.5
8/19/2021 6:15:00 PM 17.2 62.96 0.001 5.69 2.39 9.52
8/19/2021 6:30:00 PM 17.12 62.816 0.001 5.59 2.33 9.54
8/19/2021 6:45:00 PM 17.07 62.726 0.001 5.63 2.33 9.56
8/19/2021 7:00:00 PM 17.04 62.672 0.001 5.78 2.26 9.56
8/19/2021 7:15:00 PM 17.01 62.618 0.001 5.88 2.38 9.56
8/19/2021 7:30:00 PM 16.97 62.546 0.001 6.06 2.33 9.57
8/19/2021 7:45:00 PM 16.92 62.456 0.001 6.38 2.43 9.58
8/19/2021 8:00:00 PM 16.88 62.384 0.001 6.48 2.34 9.59
8/19/2021 8:15:00 PM 16.82 62.276 0.001 6.64 2.43 9.6
8/19/2021 8:30:00 PM 16.77 62.186 0.001 6.67 2.49 9.61
8/19/2021 8:45:00 PM 16.69 62.042 0.001 6.87 2.53 9.64
8/19/2021 9:00:00 PM 16.61 61.898 0.001 6.93 2.46 9.65
8/19/2021 9:15:00 PM 16.56 61.808 0.001 7.01 2.54 9.67
8/19/2021 9:30:00 PM 16.5 61.7 0.001 7.05 2.74 9.69
8/19/2021 9:45:00 PM 16.46 61.628 0.001 7.04 2.76 9.7
8/19/2021 10:00:00 PM 16.42 61.556 0.001 7.05 2.65 9.7
8/19/2021 10:15:00 PM 16.36 61.448 0.001 7.05 2.59 9.71
8/19/2021 10:30:00 PM 16.32 61.376 0.001 7.04 2.7 9.72
8/19/2021 10:45:00 PM 16.28 61.304 0.001 7.03 2.54 9.74
8/19/2021 11:00:00 PM 16.25 61.25 0.001 7.05 2.6 9.74
8/19/2021 11:15:00 PM 16.21 61.178 0.001 7.03 2.67 9.74
8/19/2021 11:30:00 PM 16.2 61.16 0.001 7.04 2.78 9.75
8/19/2021 11:45:00 PM 16.17 61.106 0.001 7.05 2.64 9.76
8/20/2021 12:00:00 AM 16.15 61.07 0.001 7.05 2.61 9.75
8/20/2021 12:15:00 AM 16.12 61.016 0.001 7.04 2.68 9.77
8/20/2021 12:30:00 AM 16.1 60.98 0.001 7.05 2.68 9.77
8/20/2021 12:45:00 AM 16.08 60.944 0.001 7.03 2.78 9.77
8/20/2021 1:00:00 AM 16.06 60.908 0.001 7.05 2.69 9.77
8/20/2021 1:15:00 AM 16.03 60.854 0.001 7.05 2.73 9.77
8/20/2021 1:30:00 AM 16.01 60.818 0.001 7.04 2.68 9.78
8/20/2021 1:45:00 AM 16 60.8 0.001 7.07 2.7 9.78
8/20/2021 2:00:00 AM 15.98 60.764 0.001 7.06 2.79 9.79
8/20/2021 2:15:00 AM 15.96 60.728 0.001 7.06 2.92 9.79
8/20/2021 2:30:00 AM 15.95 60.71 0.001 7.05 2.67 9.79
8/20/2021 2:45:00 AM 15.94 60.692 0.001 7.07 2.63 9.79
8/20/2021 3:00:00 AM 15.93 60.674 0.001 7.05 2.77 9.79
8/20/2021 3:15:00 AM 15.92 60.656 0.001 7.05 2.71 9.79
8/20/2021 3:30:00 AM 15.91 60.638 0.001 7.06 2.59 9.8
8/20/2021 3:45:00 AM 15.89 60.602 0.001 7.06 2.57 9.8
8/20/2021 4:00:00 AM 15.87 60.566 0.001 7.06 2.61 9.81
8/20/2021 4:15:00 AM 15.85 60.53 0.001 7.06 2.67 9.81
8/20/2021 4:30:00 AM 15.83 60.494 0.001 7.07 2.51 9.82
8/20/2021 4:45:00 AM 15.81 60.458 0.001 7.06 2.76 9.82
8/20/2021 5:00:00 AM 15.8 60.44 0.001 7.06 2.57 9.83
8/20/2021 5:15:00 AM 15.79 60.422 0.001 7.07 2.59 9.83
8/20/2021 5:30:00 AM 15.78 60.404 0.001 7.05 2.68 9.83
8/20/2021 5:45:00 AM 15.77 60.386 0.001 7.05 2.75 9.84
8/20/2021 6:00:00 AM 15.76 60.368 0.001 7.05 2.66 9.84
8/20/2021 6:15:00 AM 15.74 60.332 0.001 7.07 2.67 9.84
8/20/2021 6:30:00 AM 15.75 60.35 0.001 7.07 2.92 9.84
8/20/2021 6:45:00 AM 15.74 60.332 0.001 7.08 2.55 9.85
8/20/2021 7:00:00 AM 15.74 60.332 0.001 7.07 2.67 9.85
8/20/2021 7:15:00 AM 15.74 60.332 0.001 7.08 2.74 9.84
8/20/2021 7:30:00 AM 15.74 60.332 0.001 7.09 2.74 9.84
8/20/2021 7:45:00 AM 15.76 60.368 0.001 7.08 2.68 9.84
8/20/2021 8:00:00 AM 15.79 60.422 0.001 7.08 2.74 9.84
8/20/2021 8:15:00 AM 15.82 60.476 0.001 7.07 2.71 9.83
8/20/2021 8:30:00 AM 15.84 60.512 0.001 7.08 2.77 9.83
8/20/2021 8:45:00 AM 15.89 60.602 0.001 7.08 2.84 9.81
8/20/2021 9:00:00 AM 15.93 60.674 0.001 7.09 2.67 9.8
8/20/2021 9:15:00 AM 16 60.8 0.001 7.08 2.72 9.78
8/20/2021 9:30:00 AM 16.1 60.98 0.001 7.1 2.74 9.76
8/20/2021 9:45:00 AM 16.17 61.106 0.001 7.07 2.76 9.75
8/20/2021 10:00:00 AM 16.25 61.25 0.001 7.1 2.72 9.74
8/20/2021 10:15:00 AM 16.3 61.34 0.001 7.09 2.69 9.73
8/20/2021 10:30:00 AM 16.46 61.628 0.001 7.1 2.75 9.68
8/20/2021 10:45:00 AM 16.58 61.844 0.001 7.1 2.7 9.66
8/20/2021 11:00:00 AM 16.91 62.438 0.001 7.16 2.68 9.57
8/20/2021 11:15:00 AM 17.14 62.852 0.001 7.16 2.8 9.53
8/20/2021 11:30:00 AM 17.22 62.996 0.001 7.1 2.68 9.52
8/20/2021 11:45:00 AM 17.27 63.086 0.001 7.06 2.85 9.51
8/20/2021 12:00:00 PM 17.3 63.14 0.001 7.05 2.68 9.51
8/20/2021 12:15:00 PM 17.58 63.644 0.001 7.1 2.89 9.42
8/20/2021 12:30:00 PM 17.79 64.022 0.001 7.14 2.86 9.39
8/20/2021 12:45:00 PM 18.24 64.832 0.001 7.15 2.81 9.28
8/20/2021 1:00:00 PM 18.31 64.958 0.001 7.14 2.78 9.27
8/20/2021 1:15:00 PM 18.36 65.048 0.001 7.12 3.01 9.27
8/20/2021 1:30:00 PM 18.48 65.264 0.001 7.1 3.03 9.25
8/20/2021 1:45:00 PM 18.42 65.156 0.001 7.04 3.02 9.26
8/20/2021 2:00:00 PM 18.52 65.336 0.001 7.09 2.75 9.25
8/20/2021 2:15:00 PM 18.7 65.66 0.001 7.1 2.79 9.21
8/20/2021 2:30:00 PM 18.85 65.93 0.001 7.08 2.87 9.17
8/20/2021 2:45:00 PM 19.05 66.29 0.001 7.18 2.83 9.12
8/20/2021 3:00:00 PM 19.05 66.29 0.001 7.06 2.83 9.13
8/20/2021 3:15:00 PM 19.23 66.614 0.001 7.11 2.89 9.1
8/20/2021 3:30:00 PM 19.11 66.398 0.001 6.96 2.83 9.13
8/20/2021 3:45:00 PM 19 66.2 0.001 6.96 2.92 9.16
8/20/2021 4:00:00 PM 18.87 65.966 0.001 6.96 2.79 9.17
8/20/2021 4:15:00 PM 18.77 65.786 0.001 6.99 2.83 9.19
8/20/2021 4:30:00 PM 18.67 65.606 0.001 6.98 2.82 9.21
8/20/2021 4:45:00 PM 18.54 65.372 0.001 6.95 2.92 9.24
8/20/2021 5:00:00 PM 18.44 65.192 0.001 6.98 2.9 9.26
8/20/2021 5:15:00 PM 18.34 65.012 0.001 6.96 3.02 9.28
8/20/2021 5:30:00 PM 18.24 64.832 0.001 6.95 3.13 9.3
8/20/2021 5:45:00 PM 18.15 64.67 0.001 6.97 3.21 9.32
8/20/2021 6:00:00 PM 18.07 64.526 0.001 6.98 3.08 9.33
8/20/2021 6:15:00 PM 18 64.4 0.001 6.97 3.11 9.35
8/20/2021 6:30:00 PM 17.94 64.292 0.001 6.99 3.11 9.36
8/20/2021 6:45:00 PM 17.88 64.184 0.001 6.99 3.09 9.37
8/20/2021 7:00:00 PM 17.81 64.058 0.001 6.99 3.15 9.39
8/20/2021 7:15:00 PM 17.74 63.932 0.001 6.99 3.4 9.42
8/20/2021 7:30:00 PM 17.68 63.824 0.001 6.99 3.35 9.43
8/20/2021 7:45:00 PM 17.6 63.68 0.001 6.97 3.57 9.45
8/20/2021 8:00:00 PM 17.53 63.554 0.001 6.97 3.26 9.47
8/20/2021 8:15:00 PM 17.45 63.41 0.001 6.97 3.23 9.48
8/20/2021 8:30:00 PM 17.38 63.284 0.001 6.97 3.32 9.49
8/20/2021 8:45:00 PM 17.3 63.14 0.001 6.98 3.35 9.5
8/20/2021 9:00:00 PM 17.24 63.032 0.001 6.98 3.48 9.52
8/20/2021 9:15:00 PM 17.18 62.924 0.001 6.98 3.46 9.53
8/20/2021 9:30:00 PM 17.11 62.798 0 6.97 3.25 9.55
8/20/2021 9:45:00 PM 17.04 62.672 0.001 6.97 3.09 9.57
8/20/2021 10:00:00 PM 16.98 62.564 0.001 6.96 3.18 9.59
8/20/2021 10:15:00 PM 16.93 62.474 0.001 6.96 3.2 9.6
8/20/2021 10:30:00 PM 16.87 62.366 0 6.96 3.33 9.61
8/20/2021 10:45:00 PM 16.82 62.276 0 6.95 3.39 9.62
8/20/2021 11:00:00 PM 16.77 62.186 0.001 6.94 3.39 9.63
8/20/2021 11:15:00 PM 16.73 62.114 0.001 6.96 3.52 9.63
8/20/2021 11:30:00 PM 16.68 62.024 0 6.94 3.57 9.65
8/20/2021 11:45:00 PM 16.63 61.934 0.001 6.93 3.48 9.65
8/21/2021 12:00:00 AM 16.6 61.88 0 6.95 3.46 9.66
8/21/2021 12:15:00 AM 16.56 61.808 0 6.95 3.11 9.67
8/21/2021 12:30:00 AM 16.52 61.736 0.001 6.93 3.17 9.67
8/21/2021 12:45:00 AM 16.49 61.682 0 6.93 3.27 9.68
8/21/2021 1:00:00 AM 16.46 61.628 0.001 6.93 3.28 9.69
8/21/2021 1:15:00 AM 16.42 61.556 0.001 6.92 3.33 9.69
8/21/2021 1:30:00 AM 16.4 61.52 0 6.93 3.55 9.71
8/21/2021 1:45:00 AM 16.37 61.466 0 6.93 3.44 9.71
8/21/2021 2:00:00 AM 16.35 61.43 0 6.94 3.44 9.72
8/21/2021 2:15:00 AM 16.32 61.376 0 6.94 3.48 9.73
8/21/2021 2:30:00 AM 16.29 61.322 0 6.91 3.52 9.73
8/21/2021 2:45:00 AM 16.26 61.268 0 6.9 3.4 9.74
8/21/2021 3:00:00 AM 16.24 61.232 0 6.92 3.44 9.74
8/21/2021 3:15:00 AM 16.2 61.16 0 6.91 3.38 9.75
8/21/2021 3:30:00 AM 16.16 61.088 0 6.91 3.62 9.76
8/21/2021 3:45:00 AM 16.13 61.034 0 6.91 3.5 9.76
8/21/2021 4:00:00 AM 16.12 61.016 0 6.9 3.44 9.76
8/21/2021 4:15:00 AM 16.1 60.98 0 6.9 3.66 9.77
8/21/2021 4:30:00 AM 16.07 60.926 0.001 6.89 3.71 9.77
8/21/2021 4:45:00 AM 16.05 60.89 0.001 6.9 3.55 9.78
8/21/2021 5:00:00 AM 16.03 60.854 0 6.9 3.77 9.79
8/21/2021 5:15:00 AM 16.02 60.836 0 6.88 3.75 9.79
8/21/2021 5:30:00 AM 16 60.8 0 6.88 3.62 9.79
8/21/2021 5:45:00 AM 15.98 60.764 0 6.88 3.53 9.79
8/21/2021 6:00:00 AM 15.96 60.728 0 6.87 3.56 9.8
8/21/2021 6:15:00 AM 15.95 60.71 0 6.86 3.51 9.8
8/21/2021 6:30:00 AM 15.94 60.692 0 6.86 3.49 9.8
8/21/2021 6:45:00 AM 15.92 60.656 0 6.85 3.54 9.8
8/21/2021 7:00:00 AM 15.92 60.656 0 6.86 3.42 9.81
8/21/2021 7:15:00 AM 15.92 60.656 0 6.87 3.61 9.8
8/21/2021 7:30:00 AM 15.93 60.674 0 6.87 3.57 9.8
8/21/2021 7:45:00 AM 15.97 60.746 0 6.87 3.5 9.79
8/21/2021 8:00:00 AM 16 60.8 0 6.88 3.54 9.79
8/21/2021 8:15:00 AM 16.03 60.854 0 6.87 3.58 9.78
8/21/2021 8:30:00 AM 16.06 60.908 0 6.88 3.57 9.78
8/21/2021 8:45:00 AM 16.14 61.052 0 6.89 3.51 9.76
8/21/2021 9:00:00 AM 16.25 61.25 0 6.89 3.59 9.73
8/21/2021 9:15:00 AM 16.45 61.61 0 6.95 3.54 9.68
8/21/2021 9:30:00 AM 16.53 61.754 0 6.91 3.58 9.67
8/21/2021 9:45:00 AM 16.63 61.934 0 6.89 3.84 9.64
8/21/2021 10:00:00 AM 16.68 62.024 0 6.85 3.68 9.63
8/21/2021 10:15:00 AM 16.76 62.168 0 6.86 3.65 9.61
8/21/2021 10:30:00 AM 16.86 62.348 0 6.87 3.72 9.6
8/21/2021 10:45:00 AM 17.04 62.672 0 6.91 3.61 9.56
8/21/2021 11:00:00 AM 17.04 62.672 0 6.81 3.63 9.56
8/21/2021 11:15:00 AM 17.18 62.924 0 6.83 3.7 9.53
8/21/2021 11:30:00 AM 17.32 63.176 0.001 6.84 3.52 9.49
8/21/2021 11:45:00 AM 17.5 63.5 0 6.88 3.48 9.45
8/21/2021 12:00:00 PM 17.77 63.986 0 6.88 3.55 9.39
8/21/2021 12:15:00 PM 18.14 64.652 0 6.96 3.48 9.31
8/21/2021 12:30:00 PM 18.42 65.156 0 7.01 3.48 9.25
8/21/2021 12:45:00 PM 18.67 65.606 0.001 6.99 3.68 9.21
8/21/2021 1:00:00 PM 18.64 65.552 0 6.79 3.87 9.21
8/21/2021 1:15:00 PM 18.63 65.534 0 6.77 3.97 9.22
8/21/2021 1:30:00 PM 18.58 65.444 0 6.73 4.25 9.23
8/21/2021 1:45:00 PM 18.59 65.462 0 6.8 4.28 9.22
8/21/2021 2:00:00 PM 18.7 65.66 0 6.82 4.24 9.2
8/21/2021 2:15:00 PM 18.79 65.82201 0 6.79 4.22 9.18
8/21/2021 2:30:00 PM 18.96 66.128 0 6.85 4.14 9.14
8/21/2021 2:45:00 PM 19.08 66.344 0 6.8 4.28 9.13
8/21/2021 3:00:00 PM 19.15 66.47 0 6.8 4.51 9.11
8/21/2021 3:15:00 PM 19.22 66.596 0 6.83 4.16 9.09
8/21/2021 3:30:00 PM 19.33 66.794 0 6.84 4.14 9.06
8/21/2021 3:45:00 PM 19.29 66.722 0 6.73 4.36 9.07
8/21/2021 4:00:00 PM 19.15 66.47 0.001 6.64 4.7 9.11
8/21/2021 4:15:00 PM 19 66.2 0 6.69 4.99 9.14
8/21/2021 4:30:00 PM 18.89 66.002 0 6.69 5.21 9.16
8/21/2021 4:45:00 PM 18.86 65.948 0 6.72 4.65 9.17
8/21/2021 5:00:00 PM 18.82 65.876 0 6.72 4.3 9.17
8/21/2021 5:15:00 PM 18.79 65.82201 0 6.71 4.28 9.17
8/21/2021 5:30:00 PM 18.73 65.714 0 6.68 4.52 9.19
8/21/2021 5:45:00 PM 18.68 65.624 0 6.69 4.52 9.2
8/21/2021 6:00:00 PM 18.65 65.57 0 6.71 4.55 9.2
8/21/2021 6:15:00 PM 18.61 65.498 0 6.71 4.58 9.21
8/21/2021 6:30:00 PM 18.57 65.426 0 6.69 4.45 9.22
8/21/2021 6:45:00 PM 18.5 65.3 0 6.67 4.61 9.24
8/21/2021 7:00:00 PM 18.43 65.174 0 6.68 4.59 9.26
8/21/2021 7:15:00 PM 18.34 65.012 0 6.66 4.57 9.28
8/21/2021 7:30:00 PM 18.28 64.904 0 6.68 4.88 9.29
8/21/2021 7:45:00 PM 18.21 64.778 0 6.66 4.73 9.31
8/21/2021 8:00:00 PM 18.13 64.634 0 6.67 4.35 9.33
8/21/2021 8:15:00 PM 18.05 64.49 0 6.66 4.76 9.34
8/21/2021 8:30:00 PM 17.98 64.364 0 6.65 4.7 9.35
8/21/2021 8:45:00 PM 17.92 64.256 0 6.66 4.63 9.37
8/21/2021 9:00:00 PM 17.87 64.166 0 6.66 4.85 9.38
8/21/2021 9:15:00 PM 17.81 64.058 0 6.64 4.41 9.39
8/21/2021 9:30:00 PM 17.75 63.95 0 6.66 4.3 9.41
8/21/2021 9:45:00 PM 17.7 63.86 0 6.65 4.45 9.43
8/21/2021 10:00:00 PM 17.64 63.752 0 6.64 4.5 9.44
8/21/2021 10:15:00 PM 17.59 63.662 0 6.64 4.52 9.46
8/21/2021 10:30:00 PM 17.55 63.59 0 6.65 4.32 9.46
8/21/2021 10:45:00 PM 17.5 63.5 0 6.64 4.45 9.47
8/21/2021 11:00:00 PM 17.45 63.41 0 6.63 4.29 9.48
8/21/2021 11:15:00 PM 17.39 63.302 0 6.62 4.46 9.49
8/21/2021 11:30:00 PM 17.33 63.194 0 6.62 4.73 9.5
8/21/2021 11:45:00 PM 17.26 63.068 0 6.61 4.31 9.51
8/22/2021 12:00:00 AM 17.22 62.996 0 6.64 4.24 9.52
8/22/2021 12:15:00 AM 17.18 62.924 0 6.64 4.23 9.53
8/22/2021 12:30:00 AM 17.14 62.852 0 6.63 4.24 9.54
8/22/2021 12:45:00 AM 17.09 62.762 0 6.62 4.54 9.56
8/22/2021 1:00:00 AM 17.03 62.654 0 6.6 4.64 9.57
8/22/2021 1:15:00 AM 16.97 62.546 0 6.61 4.99 9.58
8/22/2021 1:30:00 AM 16.91 62.438 0 6.61 4.7 9.59
8/22/2021 1:45:00 AM 16.88 62.384 0 6.62 4.33 9.6
8/22/2021 2:00:00 AM 16.85 62.33 0 6.62 4.13 9.61
8/22/2021 2:15:00 AM 16.82 62.276 0 6.63 4.56 9.61
8/22/2021 2:30:00 AM 16.81 62.258 0 6.63 4.29 9.61
8/22/2021 2:45:00 AM 16.79 62.222 0 6.64 4.4 9.62
8/22/2021 3:00:00 AM 16.77 62.186 0 6.64 4.42 9.62
8/22/2021 3:15:00 AM 16.75 62.15 0 6.65 4.27 9.62
8/22/2021 3:30:00 AM 16.74 62.132 0 6.64 4.24 9.62
8/22/2021 3:45:00 AM 16.74 62.132 0 6.65 4.7 9.62
8/22/2021 4:00:00 AM 16.73 62.114 0 6.62 4.42 9.62
8/22/2021 4:15:00 AM 16.71 62.078 0 6.63 4.47 9.63
8/22/2021 4:30:00 AM 16.69 62.042 0 6.62 4.45 9.63
8/22/2021 4:45:00 AM 16.67 62.006 0 6.62 4.55 9.63
8/22/2021 5:00:00 AM 16.65 61.97 0.001 6.62 4.49 9.64
8/22/2021 5:15:00 AM 16.62 61.916 0 6.61 4.48 9.65
8/22/2021 5:30:00 AM 16.6 61.88 0 6.6 4.48 9.65
8/22/2021 5:45:00 AM 16.56 61.808 0 6.6 4.54 9.66
8/22/2021 6:00:00 AM 16.53 61.754 0 6.6 4.73 9.66
8/22/2021 6:15:00 AM 16.51 61.718 0 6.61 4.67 9.67
8/22/2021 6:30:00 AM 16.5 61.7 0 6.62 4.27 9.67
8/22/2021 6:45:00 AM 16.49 61.682 0 6.62 4.47 9.68
8/22/2021 7:00:00 AM 16.48 61.664 0 6.63 4.61 9.69
8/22/2021 7:15:00 AM 16.48 61.664 0 6.64 4.59 9.68
8/22/2021 7:30:00 AM 16.52 61.736 0 6.64 4.48 9.67
8/22/2021 7:45:00 AM 16.52 61.736 0 6.62 4.75 9.67
8/22/2021 8:00:00 AM 16.54 61.772 0.001 6.65 4.53 9.67
8/22/2021 8:15:00 AM 16.58 61.844 0.001 6.65 4.46 9.66
8/22/2021 8:30:00 AM 16.63 61.934 0 6.67 4.62 9.64
8/22/2021 8:45:00 AM 16.68 62.024 0 6.69 4.63 9.63
8/22/2021 9:00:00 AM 16.85 62.33 0 6.74 4.42 9.6
8/22/2021 9:15:00 AM 16.86 62.348 0 6.66 4.52 9.6
8/22/2021 9:30:00 AM 16.89 62.402 0 6.68 4.53 9.59
8/22/2021 9:45:00 AM 16.99 62.582 0.001 6.66 4.63 9.58
8/22/2021 10:00:00 AM 17.1 62.78 0.001 6.65 4.47 9.55
8/22/2021 10:15:00 AM 17.29 63.122 0.001 6.71 3.9 9.5
8/22/2021 10:30:00 AM 17.76 63.968 0 6.89 3.8 9.39
8/22/2021 10:45:00 AM 18.17 64.706 0 6.93 3.76 9.31
8/22/2021 11:00:00 AM 18.63 65.534 0 6.92 3.72 9.21
8/22/2021 11:15:00 AM 19.18 66.524 0 6.92 3.66 9.1
8/22/2021 11:30:00 AM 19.44 66.992 0 6.88 3.56 9.05
8/22/2021 11:45:00 AM 19.69 67.442 0.001 6.81 3.58 9
8/22/2021 12:00:00 PM 19.62 67.316 0 6.55 3.77 9.03
8/22/2021 12:15:00 PM 19.47 67.046 0.001 6.43 4.63 9.05
8/22/2021 12:30:00 PM 19.37 66.866 0 6.42 4.73 9.06
8/22/2021 12:45:00 PM 19.2 66.56 0.001 6.42 4.76 9.1
8/22/2021 1:00:00 PM 19.09 66.362 0 6.42 4.49 9.12
8/22/2021 1:15:00 PM 18.98 66.164 0.001 6.45 4.86 9.16
8/22/2021 1:30:00 PM 18.87 65.966 0 6.45 5.04 9.18
8/22/2021 1:45:00 PM 18.81 65.858 0.001 6.46 4.85 9.19
8/22/2021 2:00:00 PM 18.74 65.732 0.001 6.47 4.66 9.2
8/22/2021 2:15:00 PM 18.71 65.67799 0.001 6.47 4.02 9.2
8/22/2021 2:30:00 PM 18.68 65.624 0.001 6.49 4.28 9.21
8/22/2021 2:45:00 PM 18.67 65.606 0.001 6.49 4.26 9.21
8/22/2021 3:00:00 PM 18.68 65.624 0.001 6.5 4.45 9.2
8/22/2021 3:15:00 PM 18.69 65.642 0 6.51 4.51 9.2
8/22/2021 3:30:00 PM 18.73 65.714 0.001 6.52 4.57 9.19
8/22/2021 3:45:00 PM 18.75 65.75 0 6.5 4.52 9.19
8/22/2021 4:00:00 PM 18.77 65.786 0.001 6.52 4.53 9.18
8/22/2021 4:15:00 PM 18.79 65.82201 0.001 6.5 4.55 9.18
8/22/2021 4:30:00 PM 18.8 65.84 0 6.51 4.57 9.17
8/22/2021 4:45:00 PM 18.8 65.84 0.001 6.48 4.65 9.18
8/22/2021 5:00:00 PM 18.8 65.84 0.001 6.5 4.66 9.18
8/22/2021 5:15:00 PM 18.81 65.858 0.001 6.49 4.49 9.17
8/22/2021 5:30:00 PM 18.79 65.82201 0.001 6.47 4.55 9.18
8/22/2021 5:45:00 PM 18.74 65.732 0 6.46 4.85 9.18
8/22/2021 6:00:00 PM 18.7 65.66 0.001 6.44 4.77 9.19
8/22/2021 6:15:00 PM 18.71 65.67799 0.001 6.46 4.9 9.19
8/22/2021 6:30:00 PM 18.7 65.66 0 6.47 4.8 9.19
8/22/2021 6:45:00 PM 18.68 65.624 0.001 6.46 4.85 9.19
8/22/2021 7:00:00 PM 18.66 65.588 0.001 6.47 4.92 9.2
8/22/2021 7:15:00 PM 18.63 65.534 0.001 6.47 4.87 9.21
8/22/2021 7:30:00 PM 18.59 65.462 0.001 6.46 4.91 9.21
8/22/2021 7:45:00 PM 18.54 65.372 0.001 6.44 5.06 9.23
8/22/2021 8:00:00 PM 18.47 65.246 0.001 6.43 5.15 9.24
8/22/2021 8:15:00 PM 18.39 65.102 0.001 6.43 5.26 9.26
8/22/2021 8:30:00 PM 18.31 64.958 0.001 6.42 5.1 9.29
8/22/2021 8:45:00 PM 18.27 64.886 0.001 6.46 4.79 9.29
8/22/2021 9:00:00 PM 18.24 64.832 0.001 6.49 4.82 9.3
8/22/2021 9:15:00 PM 18.18 64.724 0.001 6.46 5.08 9.31
8/22/2021 9:30:00 PM 18.12 64.616 0.001 3.18 5.11 9.32
8/22/2021 9:45:00 PM 18.09 64.562 0.002 3.96 5.19 9.32
8/22/2021 10:00:00 PM 18.05 64.49 0.002 4.26 5.03 9.33
8/22/2021 10:15:00 PM 18 64.4 0.001 4.45 5.17 9.34
8/22/2021 10:30:00 PM 17.95 64.31 0.001 4.49 5.32 9.35
8/22/2021 10:45:00 PM 17.91 64.238 0.001 4.58 5.05 9.35
8/22/2021 11:00:00 PM 17.86 64.148 0.001 4.64 5.33 9.36
8/22/2021 11:15:00 PM 17.83 64.094 0.001 4.75 5.1 9.37
8/22/2021 11:30:00 PM 17.8 64.04 0.001 4.81 5.19 9.38
8/22/2021 11:45:00 PM 17.77 63.986 0.001 4.88 4.94 9.39
8/23/2021 12:00:00 AM 17.74 63.932 0.001 4.92 4.88 9.39
8/23/2021 12:15:00 AM 17.71 63.878 0.001 4.97 5.25 9.4
8/23/2021 12:30:00 AM 17.68 63.824 0.001 5.01 5.11 9.41
8/23/2021 12:45:00 AM 17.65 63.77 0.001 5.03 5.12 9.41
8/23/2021 1:00:00 AM 17.6 63.68 0.001 5.07 4.87 9.43
8/23/2021 1:15:00 AM 17.55 63.59 0.001 5.12 5.11 9.44
8/23/2021 1:30:00 AM 17.51 63.518 0.001 5.16 5.09 9.44
8/23/2021 1:45:00 AM 17.52 63.536 0.001 5.18 4.98 9.44
8/23/2021 2:00:00 AM 17.5 63.5 0.001 5.18 4.61 9.44
8/23/2021 2:15:00 AM 17.49 63.482 0.001 5.21 5.05 9.44
8/23/2021 2:30:00 AM 17.49 63.482 0.001 5.24 4.97 9.44
8/23/2021 2:45:00 AM 17.48 63.464 0.001 5.25 5.07 9.44
8/23/2021 3:00:00 AM 17.46 63.428 0.001 5.26 4.96 9.45
8/23/2021 3:15:00 AM 17.44 63.392 0.001 5.27 5.15 9.45
8/23/2021 3:30:00 AM 17.43 63.374 0.001 5.29 5.21 9.45
8/23/2021 3:45:00 AM 17.44 63.392 0.001 5.32 5.45 9.45
8/23/2021 4:00:00 AM 17.5 63.5 0.001 5.34 5.39 9.43
8/23/2021 4:15:00 AM 17.54 63.572 0.001 5.35 4.52 9.43
8/23/2021 4:30:00 AM 17.6 63.68 0.001 5.34 5.25 9.41
8/23/2021 4:45:00 AM 17.64 63.752 0.001 5.33 5.05 9.41
8/23/2021 5:00:00 AM 17.74 63.932 0.001 5.38 4.67 9.39
8/23/2021 5:15:00 AM 17.7 63.86 0.001 5.37 5.11 9.4
8/23/2021 5:30:00 AM 17.67 63.806 0.001 5.38 5.22 9.41
8/23/2021 5:45:00 AM 17.61 63.698 0.001 5.4 5.08 9.42
8/23/2021 6:00:00 AM 17.54 63.572 0.001 5.4 5.18 9.43
8/23/2021 6:15:00 AM 17.5 63.5 0.001 5.4 4.89 9.44
8/23/2021 6:30:00 AM 17.46 63.428 0.001 5.4 5.16 9.45
8/23/2021 6:45:00 AM 17.42 63.356 0.001 5.45 5.25 9.45
8/23/2021 7:00:00 AM 17.44 63.392 0.001 5.47 5.11 9.45
8/23/2021 7:15:00 AM 17.47 63.446 0.001 5.47 5.37 9.44
8/23/2021 7:30:00 AM 17.5 63.5 0.001 5.48 5.53 9.44
8/23/2021 7:45:00 AM 17.52 63.536 0.001 5.49 5.32 9.44
8/23/2021 8:00:00 AM 17.58 63.644 0.001 5.49 5.36 9.43
8/23/2021 8:15:00 AM 17.66 63.788 0.001 5.49 5.36 9.42
8/23/2021 8:30:00 AM 17.77 63.986 0.001 5.49 5.34 9.39
8/23/2021 8:45:00 AM 17.87 64.166 0.001 5.51 5.07 9.36
8/23/2021 9:00:00 AM 18.01 64.418 0.001 5.51 4.73 9.33
8/23/2021 9:15:00 AM 18.03 64.454 0.001 5.52 5.16 9.32
8/23/2021 9:30:00 AM 18.09 64.562 0.001 5.52 5.44 9.32
8/23/2021 9:45:00 AM 18.46 65.228 0.001 5.54 4.46 9.24
8/23/2021 10:00:00 AM 18.7 65.66 0.001 5.53 4.68 9.18
8/23/2021 10:15:00 AM 19.09 66.362 0.001 5.55 4.49 9.12
8/23/2021 10:30:00 AM 19.5 67.1 0.001 5.57 4.66 9.01
8/23/2021 10:45:00 AM 19.78 67.604 0.001 5.54 4.49 8.97
8/23/2021 11:00:00 AM 20.08 68.144 0.001 5.57 4.42 8.9
8/23/2021 11:15:00 AM 20.04 68.07201 0.001 5.54 4.91 8.92
8/23/2021 11:30:00 AM 20.26 68.468 0.001 5.59 4.31 8.88
8/23/2021 11:45:00 AM 20.3 68.54 0.001 5.58 5.32 8.87
8/23/2021 12:00:00 PM 20.23 68.414 0.001 5.57 5.67 8.89
8/23/2021 12:15:00 PM 20.22 68.396 0.001 5.62 5.08 8.89
8/23/2021 12:30:00 PM 20.1 68.18 0.001 5.57 4.73 8.91
8/23/2021 12:45:00 PM 20.17 68.306 0.001 5.61 4.67 8.89
8/23/2021 1:00:00 PM 20.31 68.558 0.001 5.62 4.67 8.86
8/23/2021 1:15:00 PM 20.46 68.828 0.009 5.92 4.44 8.84
8/23/2021 1:30:00 PM 20.38 68.684 0.009 6 3.14 8.85
8/23/2021 1:45:00 PM 20.47 68.846 0.008 5.96 2.99 8.83
8/23/2021 2:00:00 PM 20.52 68.936 0.007 6.09 3.32 8.82
8/23/2021 2:15:00 PM 20.39 68.702 0.007 5.95 2.73 8.85
8/23/2021 2:30:00 PM 20.31 68.558 0.007 5.95 2.86 8.87
8/23/2021 2:45:00 PM 20.42 68.756 0.006 6.16 2.97 8.85
8/23/2021 3:00:00 PM 20.35 68.63 0.006 6.06 3.16 8.86
8/23/2021 3:15:00 PM 20.31 68.558 0.006 6.08 2.94 8.87
8/23/2021 3:30:00 PM 20.26 68.468 0.005 6.05 2.7 8.88
8/23/2021 3:45:00 PM 20.5 68.9 0.005 6.08 2.89 8.83
8/23/2021 4:00:00 PM 20.56 69.008 0.005 6 3.01 8.81
8/23/2021 4:15:00 PM 20.48 68.864 0.004 5.97 2.98 8.83
8/23/2021 4:30:00 PM 20.46 68.828 0.004 5.97 2.82 8.83
8/23/2021 4:45:00 PM 20.4 68.72 0.004 5.93 2.95 8.85
8/23/2021 5:00:00 PM 20.47 68.846 0.004 5.94 2.98 8.83
8/23/2021 5:15:00 PM 20.72 69.296 0.004 5.97 2.99 8.78
8/23/2021 5:30:00 PM 20.58 69.044 0.004 5.9 3.14 8.81
8/23/2021 5:45:00 PM 20.45 68.81 0.004 5.89 3.09 8.84
8/23/2021 6:00:00 PM 20.37 68.666 0.003 5.9 3.02 8.86
8/23/2021 6:15:00 PM 20.24 68.432 0.003 5.87 3.19 8.89
8/23/2021 6:30:00 PM 20.13 68.234 0.003 5.87 3.34 8.91
8/23/2021 6:45:00 PM 20.05 68.09 0.004 5.88 3.16 8.92
8/23/2021 7:00:00 PM 19.98 67.964 0.003 5.87 3.02 8.93
8/23/2021 7:15:00 PM 19.91 67.838 0.003 5.87 3.03 8.94
8/23/2021 7:30:00 PM 19.82 67.676 0.003 5.87 3.21 8.96
8/23/2021 7:45:00 PM 19.72 67.496 0.003 5.87 3.01 8.99
8/23/2021 8:00:00 PM 19.61 67.298 0.003 5.87 3.01 9.01
8/23/2021 8:15:00 PM 19.52 67.136 0.003 5.87 3.06 9.03
8/23/2021 8:30:00 PM 19.4 66.92 0.003 5.87 3 9.06
8/23/2021 8:45:00 PM 19.31 66.758 0.003 5.88 3.03 9.08
8/23/2021 9:00:00 PM 19.22 66.596 0.003 5.88 3.16 9.1
8/23/2021 9:15:00 PM 19.13 66.434 0.003 5.88 3.1 9.11
8/23/2021 9:30:00 PM 19.03 66.254 0.002 5.89 3.13 9.14
8/23/2021 9:45:00 PM 18.96 66.128 0.002 5.91 3.15 9.16
8/23/2021 10:00:00 PM 18.86 65.948 0.002 5.91 3.13 9.19
8/23/2021 10:15:00 PM 18.79 65.82201 0.002 5.92 3.16 9.2
8/23/2021 10:30:00 PM 18.7 65.66 0.002 5.92 3.29 9.22
8/23/2021 10:45:00 PM 18.62 65.516 0.002 5.93 3.26 9.24
8/23/2021 11:00:00 PM 18.54 65.372 0.002 5.94 3.23 9.26
8/23/2021 11:15:00 PM 18.46 65.228 0.002 5.94 3.06 9.27
8/23/2021 11:30:00 PM 18.39 65.102 0.002 5.95 3.08 9.29
8/23/2021 11:45:00 PM 18.32 64.976 0.002 5.95 3.35 9.31
8/24/2021 12:00:00 AM 18.25 64.85 0.002 5.96 3.32 9.33
8/24/2021 12:15:00 AM 18.18 64.724 0.002 5.96 3.19 9.34
8/24/2021 12:30:00 AM 18.09 64.562 0.002 5.97 3.17 9.36
8/24/2021 12:45:00 AM 18.02 64.436 0.002 5.97 3.11 9.37
8/24/2021 1:00:00 AM 17.94 64.292 0.002 5.99 3.19 9.38
8/24/2021 1:15:00 AM 17.86 64.148 0.002 6 3.36 9.4
8/24/2021 1:30:00 AM 17.79 64.022 0.002 6 3.04 9.41
8/24/2021 1:45:00 AM 17.72 63.896 0.002 5.99 3.1 9.43
8/24/2021 2:00:00 AM 17.65 63.77 0.002 6 3.27 9.45
8/24/2021 2:15:00 AM 17.57 63.626 0.002 6.02 3.12 9.47
8/24/2021 2:30:00 AM 17.51 63.518 0.002 6.03 3.07 9.49
8/24/2021 2:45:00 AM 17.45 63.41 0.001 6.05 3.26 9.5
8/24/2021 3:00:00 AM 17.39 63.302 0.001 6.06 3.21 9.51
8/24/2021 3:15:00 AM 17.35 63.23 0.002 6.06 3.27 9.52
8/24/2021 3:30:00 AM 17.3 63.14 0.002 6.07 3.28 9.52
8/24/2021 3:45:00 AM 17.24 63.032 0.001 6.08 3.3 9.54
8/24/2021 4:00:00 AM 17.2 62.96 0.001 6.1 3.44 9.54
8/24/2021 4:15:00 AM 17.14 62.852 0.001 6.1 3.41 9.56
8/24/2021 4:30:00 AM 17.11 62.798 0.001 6.1 3.24 9.56
8/24/2021 4:45:00 AM 17.09 62.762 0.001 6.1 3.31 9.57
8/24/2021 5:00:00 AM 17.07 62.726 0.001 6.11 3.31 9.58
8/24/2021 5:15:00 AM 17.06 62.708 0.001 6.11 3.44 9.58
8/24/2021 5:30:00 AM 17.07 62.726 0.001 6.13 3.48 9.58
8/24/2021 5:45:00 AM 17.08 62.744 0.001 6.13 3.37 9.58
8/24/2021 6:00:00 AM 17.08 62.744 0.001 6.14 3.3 9.58
8/24/2021 6:15:00 AM 17.08 62.744 0.001 6.14 3.28 9.57
8/24/2021 6:30:00 AM 17.07 62.726 0.001 6.14 3.42 9.58
8/24/2021 6:45:00 AM 17.05 62.69 0.001 6.15 3.3 9.58
8/24/2021 7:00:00 AM 17.04 62.672 0.001 6.15 3.37 9.59
8/24/2021 7:15:00 AM 17.02 62.636 0.001 6.16 3.31 9.59
8/24/2021 7:30:00 AM 17.03 62.654 0.001 6.17 3.34 9.59
8/24/2021 7:45:00 AM 17.09 62.762 0.001 6.18 3.29 9.58
8/24/2021 8:00:00 AM 17.16 62.888 0.001 6.19 3.22 9.56
8/24/2021 8:15:00 AM 17.35 63.23 0.001 6.24 3.19 9.51
8/24/2021 8:30:00 AM 17.55 63.59 0.001 6.3 3.27 9.48
8/24/2021 8:45:00 AM 17.67 63.806 0.001 6.31 3.16 9.46
8/24/2021 9:00:00 AM 17.88 64.184 0.001 6.24 3.3 9.41
8/24/2021 9:15:00 AM 18.28 64.904 0.001 6.31 3.29 9.32
8/24/2021 9:30:00 AM 18.44 65.192 0.001 6.35 3.15 9.3
8/24/2021 9:45:00 AM 18.75 65.75 0.001 6.33 3.23 9.22
8/24/2021 10:00:00 AM 18.94 66.092 0.001 6.28 3.33 9.19
8/24/2021 10:15:00 AM 19.15 66.47 0.001 6.25 3.43 9.15
8/24/2021 10:30:00 AM 19.19 66.542 0.001 6.24 3.33 9.15
8/24/2021 10:45:00 AM 19.26 66.668 0.001 6.22 3.38 9.13
8/24/2021 11:00:00 AM 19.34 66.812 0.001 6.2 3.39 9.12
8/24/2021 11:15:00 AM 19.43 66.974 0.001 6.21 3.42 9.1
8/24/2021 11:30:00 AM 19.48 67.064 0.001 6.21 3.35 9.09
8/24/2021 11:45:00 AM 19.55 67.19 0.001 6.2 3.29 9.09
8/24/2021 12:00:00 PM 19.54 67.172 0.001 6.15 3.25 9.09
8/24/2021 12:15:00 PM 19.64 67.352 0.001 6.18 3.36 9.06
8/24/2021 12:30:00 PM 19.77 67.586 0.001 6.22 3.26 9.03
8/24/2021 12:45:00 PM 19.91 67.838 0.001 6.2 3.42 8.99
8/24/2021 1:00:00 PM 20.13 68.234 0.001 6.22 3.38 8.95
8/24/2021 1:15:00 PM 20.36 68.648 0.001 6.21 3.52 8.91
8/24/2021 1:30:00 PM 20.59 69.062 0.001 6.21 3.5 8.85
8/24/2021 1:45:00 PM 20.63 69.134 0.001 6.15 3.57 8.84
8/24/2021 2:00:00 PM 20.7 69.26 0.001 6.17 3.48 8.83
8/24/2021 2:15:00 PM 20.7 69.26 0.001 6.14 3.69 8.84
8/24/2021 2:30:00 PM 20.73 69.314 0.001 6.14 3.62 8.83
8/24/2021 2:45:00 PM 20.75 69.35 0.001 6.13 3.45 8.82
8/24/2021 3:00:00 PM 20.69 69.242 0.001 6.1 3.52 8.84
8/24/2021 3:15:00 PM 20.65 69.17 0.001 6.12 3.52 8.84
8/24/2021 3:30:00 PM 20.62 69.116 0.001 6.13 3.55 8.85
8/24/2021 3:45:00 PM 20.59 69.062 0.001 6.13 3.47 8.85
8/24/2021 4:00:00 PM 20.57 69.026 0.001 6.13 3.48 8.86
8/24/2021 4:15:00 PM 20.52 68.936 0.001 6.12 3.47 8.86
8/24/2021 4:30:00 PM 20.5 68.9 0.001 6.13 3.57 8.87
8/24/2021 4:45:00 PM 20.49 68.882 0.001 6.13 3.58 8.87
8/24/2021 5:00:00 PM 20.43 68.774 0.001 6.1 3.62 8.88
8/24/2021 5:15:00 PM 20.36 68.648 0.001 6.08 3.79 8.9
8/24/2021 5:30:00 PM 20.29 68.522 0.001 6.09 3.74 8.92
8/24/2021 5:45:00 PM 20.23 68.414 0.001 6.1 3.94 8.93
8/24/2021 6:00:00 PM 20.21 68.378 0.001 6.13 3.78 8.93
8/24/2021 6:15:00 PM 20.18 68.324 0 6.13 3.69 8.94
8/24/2021 6:30:00 PM 20.1 68.18 0 6.11 3.78 8.96
8/24/2021 6:45:00 PM 20.03 68.054 0.001 6.11 3.93 8.97
8/24/2021 7:00:00 PM 19.94 67.892 0 6.11 3.85 8.98
8/24/2021 7:15:00 PM 19.85 67.73 0 6.1 3.95 9
8/24/2021 7:30:00 PM 19.72 67.496 0 6.08 3.98 9.03
8/24/2021 7:45:00 PM 19.62 67.316 0 6.1 4.14 9.06
8/24/2021 8:00:00 PM 19.54 67.172 0 6.09 4.19 9.08
8/24/2021 8:15:00 PM 19.45 67.01 0 6.09 3.79 9.1
8/24/2021 8:30:00 PM 19.37 66.866 0 6.1 4.02 9.12
8/24/2021 8:45:00 PM 19.31 66.758 0 6.1 3.9 9.13
8/24/2021 9:00:00 PM 19.22 66.596 0 6.1 4.16 9.15
8/24/2021 9:15:00 PM 19.15 66.47 0 6.1 4.24 9.16
8/24/2021 9:30:00 PM 19.08 66.344 0 6.1 3.97 9.18
8/24/2021 9:45:00 PM 19.01 66.218 0 6.09 4.19 9.19
8/24/2021 10:00:00 PM 18.93 66.074 0 6.1 4.33 9.22
8/24/2021 10:15:00 PM 18.86 65.948 0 6.09 3.95 9.24
8/24/2021 10:30:00 PM 18.79 65.82201 0 6.1 4.21 9.26
8/24/2021 10:45:00 PM 18.71 65.67799 0 6.12 4.06 9.28
8/24/2021 11:00:00 PM 18.64 65.552 0 6.11 3.87 9.29
8/24/2021 11:15:00 PM 18.57 65.426 0 6.1 4.48 9.3
8/24/2021 11:30:00 PM 18.5 65.3 0 6.1 4.43 9.32
8/24/2021 11:45:00 PM 18.42 65.156 0 6.11 4.37 9.33
8/25/2021 12:00:00 AM 18.36 65.048 0 6.1 4.11 9.35
8/25/2021 12:15:00 AM 18.3 64.94 0 6.11 4.22 9.36
8/25/2021 12:30:00 AM 18.23 64.814 0 6.12 4.09 9.38
8/25/2021 12:45:00 AM 18.16 64.688 0 6.13 3.79 9.4
8/25/2021 1:00:00 AM 18.1 64.58 0 6.13 4.15 9.41
8/25/2021 1:15:00 AM 18.07 64.526 0 6.14 4.01 9.42
8/25/2021 1:30:00 AM 18.02 64.436 0 6.13 3.92 9.43
8/25/2021 1:45:00 AM 17.96 64.328 0 6.12 3.55 9.44
8/25/2021 2:00:00 AM 17.91 64.238 0 6.13 3.82 9.45
8/25/2021 2:15:00 AM 17.87 64.166 0 6.12 3.99 9.45
8/25/2021 2:30:00 AM 17.82 64.076 0 6.12 4.16 9.46
8/25/2021 2:45:00 AM 17.76 63.968 0 6.1 4.28 9.48
8/25/2021 3:00:00 AM 17.73 63.914 0 6.11 4.37 9.48
8/25/2021 3:15:00 AM 17.72 63.896 0 6.15 4.11 9.49
8/25/2021 3:30:00 AM 17.72 63.896 0 6.15 3.78 9.49
8/25/2021 3:45:00 AM 17.7 63.86 0 6.15 4.07 9.5
8/25/2021 4:00:00 AM 17.69 63.842 0 6.15 3.8 9.5
8/25/2021 4:15:00 AM 17.68 63.824 0 6.16 3.97 9.5
8/25/2021 4:30:00 AM 17.67 63.806 0 6.16 3.84 9.5
8/25/2021 4:45:00 AM 17.67 63.806 0 6.17 3.85 9.51
8/25/2021 5:00:00 AM 17.67 63.806 0 6.17 3.74 9.5
8/25/2021 5:15:00 AM 17.66 63.788 0 6.16 4.1 9.5
8/25/2021 5:30:00 AM 17.66 63.788 0 6.16 3.93 9.5
8/25/2021 5:45:00 AM 17.63 63.734 0 6.14 3.75 9.51
8/25/2021 6:00:00 AM 17.63 63.734 0 6.17 4.11 9.51
8/25/2021 6:15:00 AM 17.62 63.716 0 6.15 4.07 9.52
8/25/2021 6:30:00 AM 17.6 63.68 0 6.15 3.92 9.53
8/25/2021 6:45:00 AM 17.59 63.662 0 6.16 3.93 9.52
8/25/2021 7:00:00 AM 17.6 63.68 0 6.18 3.82 9.53
8/25/2021 7:15:00 AM 17.61 63.698 0 6.19 3.89 9.53
8/25/2021 7:30:00 AM 17.63 63.734 0 6.19 4.08 9.52
8/25/2021 7:45:00 AM 17.65 63.77 0 6.2 4.01 9.51
8/25/2021 8:00:00 AM 17.68 63.824 0 6.21 3.81 9.5
8/25/2021 8:15:00 AM 17.74 63.932 0 6.23 3.84 9.49
8/25/2021 8:30:00 AM 17.79 64.022 0 6.23 3.79 9.48
8/25/2021 8:45:00 AM 17.89 64.202 0 6.25 3.56 9.45
8/25/2021 9:00:00 AM 18.06 64.508 0 6.31 3.7 9.42
8/25/2021 9:15:00 AM 18.35 65.03 0 6.35 3.33 9.37
8/25/2021 9:30:00 AM 18.7 65.66 0 6.38 3.37 9.28
8/25/2021 9:45:00 AM 18.96 66.128 0 6.38 3.28 9.23
8/25/2021 10:00:00 AM 19.2 66.56 0 6.37 3.31 9.19
8/25/2021 10:15:00 AM 19.46 67.028 0 6.34 3.37 9.13
8/25/2021 10:30:00 AM 19.73 67.514 0 6.34 3.57 9.08
8/25/2021 10:45:00 AM 19.91 67.838 0 6.27 3.75 9.03
8/25/2021 11:00:00 AM 20.09 68.162 0 6.24 3.69 8.99
8/25/2021 11:15:00 AM 20.3 68.54 0 6.26 3.52 8.95
8/25/2021 11:30:00 AM 20.47 68.846 0 6.25 3.74 8.92
8/25/2021 11:45:00 AM 20.55 68.99 0 6.17 3.79 8.9
8/25/2021 12:00:00 PM 20.7 69.26 0.001 6.2 3.96 8.87
8/25/2021 12:15:00 PM 20.91 69.638 0 6.17 3.69 8.83
8/25/2021 12:30:00 PM 21.11 69.998 0 6.21 3.79 8.79
8/25/2021 12:45:00 PM 21.27 70.286 0 6.18 4.05 8.75
8/25/2021 1:00:00 PM 21.5 70.7 0.001 6.23 3.69 8.71
8/25/2021 1:15:00 PM 21.82 71.276 0 6.22 3.55 8.67
8/25/2021 1:30:00 PM 21.94 71.492 0.001 6.09 3.97 8.63
8/25/2021 1:45:00 PM 22.04 71.672 0 6.06 3.86 8.62
8/25/2021 2:00:00 PM 22.1 71.78 0 6 4.35 8.61
8/25/2021 2:15:00 PM 22.09 71.762 0 5.98 4.23 8.61
8/25/2021 2:30:00 PM 22 71.6 0 5.94 4.56 8.63
8/25/2021 2:45:00 PM 21.9 71.42 0 5.94 4.66 8.64
8/25/2021 3:00:00 PM 21.87 71.366 0 5.96 4.64 8.64
8/25/2021 3:15:00 PM 21.82 71.276 0 5.95 4.48 8.64
8/25/2021 3:30:00 PM 21.82 71.276 0 5.95 4.4 8.64
8/25/2021 3:45:00 PM 21.73 71.114 0 5.93 4.39 8.66
8/25/2021 4:00:00 PM 21.61 70.898 0.001 5.91 4.84 8.69
8/25/2021 4:15:00 PM 21.54 70.772 0 5.94 4.67 8.7
8/25/2021 4:30:00 PM 21.5 70.7 0 5.94 4.64 8.71
8/25/2021 4:45:00 PM 21.46 70.628 0 5.95 4.54 8.72
8/25/2021 5:00:00 PM 21.41 70.538 0.001 5.95 4.57 8.73
8/25/2021 5:15:00 PM 21.34 70.412 0 5.93 4.76 8.73
8/25/2021 5:30:00 PM 21.26 70.268 0.001 5.93 4.55 8.75
8/25/2021 5:45:00 PM 21.18 70.124 0 5.95 4.71 8.76
8/25/2021 6:00:00 PM 21.1 69.98 0.001 5.94 4.72 8.77
8/25/2021 6:15:00 PM 21.03 69.854 0.001 5.95 4.67 8.79
8/25/2021 6:30:00 PM 20.94 69.692 0.001 5.94 4.78 8.81
8/25/2021 6:45:00 PM 20.86 69.548 0.001 5.95 4.82 8.82
8/25/2021 7:00:00 PM 20.78 69.404 0 5.93 4.71 8.84
8/25/2021 7:15:00 PM 20.69 69.242 0.001 5.94 4.62 8.86
8/25/2021 7:30:00 PM 20.59 69.062 0.001 5.95 4.7 8.87
8/25/2021 7:45:00 PM 20.47 68.846 0.001 5.93 4.54 8.9
8/25/2021 8:00:00 PM 20.38 68.684 0.001 5.94 4.84 8.92
8/25/2021 8:15:00 PM 20.29 68.522 0.001 5.96 4.73 8.94
8/25/2021 8:30:00 PM 20.2 68.36 0.001 5.95 4.65 8.96
8/25/2021 8:45:00 PM 20.11 68.198 0.001 5.95 4.91 8.99
8/25/2021 9:00:00 PM 20.03 68.054 0.001 5.94 5.04 9
8/25/2021 9:15:00 PM 19.93 67.874 0.001 5.95 4.84 9.02
8/25/2021 9:30:00 PM 19.85 67.73 0.001 5.94 4.75 9.04
8/25/2021 9:45:00 PM 19.77 67.586 0.001 5.94 4.87 9.05
8/25/2021 10:00:00 PM 19.68 67.424 0.001 5.96 4.78 9.07
8/25/2021 10:15:00 PM 19.62 67.316 0.001 5.96 4.77 9.09
8/25/2021 10:30:00 PM 19.55 67.19 0.001 5.96 4.56 9.11
8/25/2021 10:45:00 PM 19.48 67.064 0.001 5.97 4.62 9.13
8/25/2021 11:00:00 PM 19.42 66.956 0.001 5.97 4.72 9.14
8/25/2021 11:15:00 PM 19.35 66.83 0.001 5.96 4.84 9.15
8/25/2021 11:30:00 PM 19.28 66.704 0.001 5.96 4.85 9.16
8/25/2021 11:45:00 PM 19.22 66.596 0.001 5.94 4.77 9.17
8/26/2021 12:00:00 AM 19.15 66.47 0.001 5.94 4.72 9.18
8/26/2021 12:15:00 AM 19.07 66.326 0.001 5.94 4.6 9.2
8/26/2021 12:30:00 AM 19.02 66.236 0.001 5.94 4.71 9.21
8/26/2021 12:45:00 AM 18.96 66.128 0.001 5.95 4.36 9.23
8/26/2021 1:00:00 AM 18.91 66.038 0.001 5.97 4.35 9.24
8/26/2021 1:15:00 AM 18.87 65.966 0.001 5.97 4.49 9.26
8/26/2021 1:30:00 AM 18.81 65.858 0.001 5.97 4.6 9.27
8/26/2021 1:45:00 AM 18.76 65.768 0.001 5.95 4.82 9.27
8/26/2021 2:00:00 AM 18.71 65.67799 0.001 5.95 4.84 9.29
8/26/2021 2:15:00 AM 18.66 65.588 0.001 5.96 4.67 9.29
8/26/2021 2:30:00 AM 18.61 65.498 0 5.96 4.72 9.31
8/26/2021 2:45:00 AM 18.56 65.408 0.001 5.96 4.54 9.31
8/26/2021 3:00:00 AM 18.52 65.336 0.001 5.96 4.48 9.32
8/26/2021 3:15:00 AM 18.47 65.246 0.001 5.96 4.6 9.33
8/26/2021 3:30:00 AM 18.43 65.174 0.001 5.95 4.74 9.33
8/26/2021 3:45:00 AM 18.4 65.12 0.001 5.97 4.42 9.35
8/26/2021 4:00:00 AM 18.38 65.084 0.001 5.99 4.51 9.35
8/26/2021 4:15:00 AM 18.35 65.03 0.001 5.98 4.52 9.36
8/26/2021 4:30:00 AM 18.34 65.012 0.001 5.99 4.51 9.36
8/26/2021 4:45:00 AM 18.33 64.994 0.001 6 4.52 9.36
8/26/2021 5:00:00 AM 18.31 64.958 0.001 6 4.53 9.37
8/26/2021 5:15:00 AM 18.3 64.94 0.001 6 4.4 9.37
8/26/2021 5:30:00 AM 18.29 64.922 0.001 6 4.47 9.38
8/26/2021 5:45:00 AM 18.27 64.886 0.001 6.02 4.44 9.38
8/26/2021 6:00:00 AM 18.26 64.868 0.001 6.02 4.54 9.38
8/26/2021 6:15:00 AM 18.27 64.886 0.001 6.04 4.95 9.38
8/26/2021 6:30:00 AM 18.26 64.868 0.001 6.01 4.92 9.38
8/26/2021 6:45:00 AM 18.25 64.85 0.001 6.04 4.92 9.39
8/26/2021 7:00:00 AM 18.28 64.904 0.001 6.07 4.93 9.38
8/26/2021 7:15:00 AM 18.29 64.922 0.001 6.07 4.91 9.38
8/26/2021 7:30:00 AM 18.32 64.976 0.001 6.11 4.88 9.37
8/26/2021 7:45:00 AM 18.32 64.976 0.001 6.13 4.43 9.37
8/26/2021 8:00:00 AM 18.38 65.084 0.001 6.15 4.42 9.36
8/26/2021 8:15:00 AM 18.39 65.102 0.001 6.13 4.45 9.35
8/26/2021 8:30:00 AM 18.44 65.192 0.001 6.13 4.11 9.34
8/26/2021 8:45:00 AM 18.51 65.318 0.001 6.16 4.17 9.32
8/26/2021 9:00:00 AM 18.58 65.444 0.001 6.16 3.92 9.31
8/26/2021 9:15:00 AM 18.79 65.82201 0.001 6.2 3.85 9.27
8/26/2021 9:30:00 AM 18.93 66.074 0.001 6.2 3.96 9.25
8/26/2021 9:45:00 AM 19.14 66.452 0.001 6.25 3.89 9.2
8/26/2021 10:00:00 AM 19.49 67.082 0.001 6.37 3.43 9.11
8/26/2021 10:15:00 AM 19.96 67.92799 0.001 6.44 3.08 9.01
8/26/2021 10:30:00 AM 19.91 67.838 0.001 6.17 3.92 9.03
8/26/2021 10:45:00 AM 19.88 67.784 0.001 6.1 3.32 9.04
8/26/2021 11:00:00 AM 19.88 67.784 0.001 6.06 3.41 9.03
8/26/2021 11:15:00 AM 19.87 67.766 0.001 6.02 3.24 9.04
8/26/2021 11:30:00 AM 19.85 67.73 0.001 6.01 3.27 9.04
8/26/2021 11:45:00 AM 19.87 67.766 0.001 5.99 3.3 9.03
8/26/2021 12:00:00 PM 19.93 67.874 0.001 6 3.47 9.02
8/26/2021 12:15:00 PM 20.28 68.504 0.001 6.14 3.55 8.96
8/26/2021 12:30:00 PM 20.42 68.756 0.001 6.06 3.98 8.93
8/26/2021 12:45:00 PM 20.91 69.638 0.001 6.35 3.34 8.81
8/26/2021 1:00:00 PM 21.12 70.016 0.001 6.3 3.17 8.79
8/26/2021 1:15:00 PM 21.48 70.664 0.001 6.32 3.35 8.71
8/26/2021 1:30:00 PM 21.54 70.772 0.001 6.17 4.31 8.71
8/26/2021 1:45:00 PM 22.03 71.654 0.001 6.35 3.45 8.61
8/26/2021 2:00:00 PM 21.94 71.492 0.001 6.09 4.06 8.63
8/26/2021 2:15:00 PM 21.79 71.222 0 5.94 4.33 8.66
8/26/2021 2:30:00 PM 21.96 71.528 0 6.06 4.12 8.62
8/26/2021 2:45:00 PM 21.88 71.384 0 5.95 4.04 8.64
8/26/2021 3:00:00 PM 22.03 71.654 0.001 6.09 3.93 8.6
8/26/2021 3:15:00 PM 22.01 71.618 0.001 5.98 4.19 8.61
8/26/2021 3:30:00 PM 21.95 71.51 0.001 5.97 3.95 8.62
8/26/2021 3:45:00 PM 21.86 71.348 0 5.9 3.94 8.63
8/26/2021 4:00:00 PM 21.77 71.186 0 5.86 3.87 8.65
8/26/2021 4:15:00 PM 21.71 71.078 0.001 5.86 3.89 8.66
8/26/2021 4:30:00 PM 21.63 70.934 0.001 5.86 3.8 8.68
8/26/2021 4:45:00 PM 21.57 70.826 0.001 5.87 3.76 8.69
8/26/2021 5:00:00 PM 21.5 70.7 0.001 5.85 3.82 8.7
8/26/2021 5:15:00 PM 21.43 70.574 0.001 5.85 3.89 8.71
8/26/2021 5:30:00 PM 21.37 70.466 0.001 5.83 3.9 8.72
8/26/2021 5:45:00 PM 21.31 70.358 0.001 5.86 3.82 8.73
8/26/2021 6:00:00 PM 21.23 70.214 0.001 5.84 3.96 8.74
8/26/2021 6:15:00 PM 21.18 70.124 0.001 5.86 3.87 8.75
8/26/2021 6:30:00 PM 21.11 69.998 0.001 5.84 4.03 8.76
8/26/2021 6:45:00 PM 21.05 69.89 0.001 5.84 3.95 8.78
8/26/2021 7:00:00 PM 20.98 69.764 0.001 5.85 4.09 8.79
8/26/2021 7:15:00 PM 20.9 69.62 0.001 5.85 4.07 8.81
8/26/2021 7:30:00 PM 20.82 69.476 0.001 5.85 4.25 8.83
8/26/2021 7:45:00 PM 20.72 69.296 0.001 5.84 4.29 8.85
8/26/2021 8:00:00 PM 20.64 69.152 0.001 5.85 4.36 8.86
8/26/2021 8:15:00 PM 20.54 68.972 0.001 5.84 4.33 8.88
8/26/2021 8:30:00 PM 20.45 68.81 0.001 5.84 4.51 8.89
8/26/2021 8:45:00 PM 20.36 68.648 0.001 5.84 4.52 8.92
8/26/2021 9:00:00 PM 20.29 68.522 0.001 5.85 4.6 8.93
8/26/2021 9:15:00 PM 20.2 68.36 0.001 5.85 4.74 8.96
8/26/2021 9:30:00 PM 20.12 68.216 0.001 5.84 4.78 8.97
8/26/2021 9:45:00 PM 20.04 68.07201 0.001 5.86 4.82 8.99
8/26/2021 10:00:00 PM 19.98 67.964 0.001 5.87 4.91 9
8/26/2021 10:15:00 PM 19.92 67.856 0.001 5.87 4.92 9.01
8/26/2021 10:30:00 PM 19.85 67.73 0.001 5.87 4.98 9.03
8/26/2021 10:45:00 PM 19.79 67.622 0.001 5.88 4.86 9.04
8/26/2021 11:00:00 PM 19.73 67.514 0.001 5.88 5.01 9.06
8/26/2021 11:15:00 PM 19.68 67.424 0.001 5.87 5.1 9.07
8/26/2021 11:30:00 PM 19.62 67.316 0.001 5.88 5.15 9.08
8/26/2021 11:45:00 PM 19.56 67.208 0.001 5.87 5.26 9.1
8/27/2021 12:00:00 AM 19.52 67.136 0.001 5.9 5.32 9.11
8/27/2021 12:15:00 AM 19.51 67.118 0.001 5.92 5.24 9.1
8/27/2021 12:30:00 AM 19.49 67.082 0.001 5.92 5.37 9.11
8/27/2021 12:45:00 AM 19.47 67.046 0.001 5.93 5.46 9.12
8/27/2021 1:00:00 AM 19.45 67.01 0.001 5.93 5.57 9.12
8/27/2021 1:15:00 AM 19.43 66.974 0.001 5.92 5.56 9.12
8/27/2021 1:30:00 AM 19.42 66.956 0.001 5.94 5.7 9.12
8/27/2021 1:45:00 AM 19.41 66.938 0.001 5.94 5.8 9.13
8/27/2021 2:00:00 AM 19.38 66.884 0.001 5.94 5.94 9.13
8/27/2021 2:15:00 AM 19.35 66.83 0.001 5.94 5.9 9.13
8/27/2021 2:30:00 AM 19.31 66.758 0.001 5.93 5.96 9.14
8/27/2021 2:45:00 AM 19.26 66.668 0.001 5.91 5.89 9.15
8/27/2021 3:00:00 AM 19.21 66.578 0.001 5.9 6.07 9.16
8/27/2021 3:15:00 AM 19.16 66.488 0.001 5.92 6.14 9.17
8/27/2021 3:30:00 AM 19.12 66.416 0.001 5.93 6.24 9.17
8/27/2021 3:45:00 AM 19.08 66.344 0.001 5.9 6.36 9.18
8/27/2021 4:00:00 AM 19.01 66.218 0.001 5.9 6.26 9.21
8/27/2021 4:15:00 AM 18.96 66.128 0.001 5.91 6.33 9.22
8/27/2021 4:30:00 AM 18.9 66.02 0.001 5.91 6.37 9.22
8/27/2021 4:45:00 AM 18.85 65.93 0.001 5.92 6.46 9.24
8/27/2021 5:00:00 AM 18.8 65.84 0.001 5.92 6.36 9.25
8/27/2021 5:15:00 AM 18.76 65.768 0.001 5.92 6.55 9.27
8/27/2021 5:30:00 AM 18.71 65.67799 0.001 5.9 6.61 9.27
8/27/2021 5:45:00 AM 18.67 65.606 0.001 5.92 6.47 9.28
8/27/2021 6:00:00 AM 18.65 65.57 0.001 5.92 6.57 9.28
8/27/2021 6:15:00 AM 18.62 65.516 0.001 5.95 6.44 9.29
8/27/2021 6:30:00 AM 18.59 65.462 0.001 5.95 6.54 9.29
8/27/2021 6:45:00 AM 18.58 65.444 0.001 5.97 6.61 9.29
8/27/2021 7:00:00 AM 18.58 65.444 0.001 5.98 6.51 9.3
8/27/2021 7:15:00 AM 18.56 65.408 0.001 5.97 6.51 9.29
8/27/2021 7:30:00 AM 18.55 65.39 0.001 5.98 6.64 9.29
8/27/2021 7:45:00 AM 18.56 65.408 0.001 6 6.73 9.29
8/27/2021 8:00:00 AM 18.59 65.462 0.001 6.02 6.78 9.29
8/27/2021 8:15:00 AM 18.61 65.498 0.001 6.02 6.93 9.29
8/27/2021 8:30:00 AM 18.63 65.534 0.001 6.04 6.97 9.28
8/27/2021 8:45:00 AM 18.67 65.606 0.001 6.06 7.07 9.28
8/27/2021 9:00:00 AM 18.73 65.714 0.001 6.1 7.03 9.27
8/27/2021 9:15:00 AM 18.84 65.912 0.001 6.12 7.03 9.25
8/27/2021 9:30:00 AM 18.88 65.984 0.001 6.1 7.19 9.24
8/27/2021 9:45:00 AM 18.92 66.056 0.001 6.09 7.13 9.24
8/27/2021 10:00:00 AM 18.99 66.182 0.001 6.12 7.15 9.22
8/27/2021 10:15:00 AM 19.11 66.398 0.001 6.18 7.2 9.2
8/27/2021 10:30:00 AM 19.24 66.632 0.001 6.2 6.93 9.16
8/27/2021 10:45:00 AM 19.38 66.884 0.001 6.23 7.08 9.13
8/27/2021 11:00:00 AM 19.53 67.154 0.001 6.25 6.9 9.11
8/27/2021 11:15:00 AM 19.67 67.406 0.001 6.23 6.93 9.08
8/27/2021 11:30:00 AM 19.77 67.586 0.001 6.19 7.15 9.06
8/27/2021 11:45:00 AM 19.99 67.982 0.001 6.3 7.17 9
8/27/2021 12:00:00 PM 20.34 68.612 0.001 6.46 6.72 8.94
8/27/2021 12:15:00 PM 20.55 68.99 0.001 6.39 6.93 8.9
8/27/2021 12:30:00 PM 20.86 69.548 0.001 6.42 6.69 8.83
8/27/2021 12:45:00 PM 21.2 70.16 0.001 6.49 6.99 8.76
8/27/2021 1:00:00 PM 21.48 70.664 0.001 6.43 7.04 8.7
8/27/2021 1:15:00 PM 21.75 71.15 0.001 6.38 7.01 8.66
8/27/2021 1:30:00 PM 21.9 71.42 0 6.23 7.07 8.63
8/27/2021 1:45:00 PM 22.03 71.654 0 6.18 6.86 8.61
8/27/2021 2:00:00 PM 22.11 71.798 0 6.12 7.16 8.6
8/27/2021 2:15:00 PM 22.18 71.924 0 6.05 7.65 8.59
8/27/2021 2:30:00 PM 22.18 71.924 0 6.01 8.2 8.59
8/27/2021 2:45:00 PM 22.11 71.798 0 5.92 8.39 8.6
8/27/2021 3:00:00 PM 22.07 71.726 0 5.97 7.88 8.59
8/27/2021 3:15:00 PM 22 71.6 0 5.95 8.15 8.61
8/27/2021 3:30:00 PM 21.92 71.456 0 5.95 7.64 8.62
8/27/2021 3:45:00 PM 21.81 71.258 0 5.93 7.74 8.64
8/27/2021 4:00:00 PM 21.69 71.042 0 5.93 7.55 8.68
8/27/2021 4:15:00 PM 21.56 70.808 0 5.89 9.25 8.7
8/27/2021 4:30:00 PM 21.35 70.43 0 5.83 10.71 8.75
8/27/2021 4:45:00 PM 21.07 69.926 0 5.99 5.83 8.8
8/27/2021 5:00:00 PM 20.84 69.512 0 6.19 9.02 8.85
8/27/2021 5:15:00 PM 20.86 69.548 0.001 6.27 6.65 8.84
8/27/2021 5:30:00 PM 20.86 69.548 0.001 6.32 6.23 8.84
8/27/2021 5:45:00 PM 20.8 69.44 0.001 6.34 5.77 8.86
8/27/2021 6:00:00 PM 20.7 69.26 0.001 6.34 5.65 8.87
8/27/2021 6:15:00 PM 20.59 69.062 0.001 6.31 5.83 8.88
8/27/2021 6:30:00 PM 20.49 68.882 0.001 6.32 5.18 8.9
8/27/2021 6:45:00 PM 20.4 68.72 0.001 6.31 4.76 8.91
8/27/2021 7:00:00 PM 20.31 68.558 0.001 6.3 5.38 8.93
8/27/2021 7:15:00 PM 20.22 68.396 0.001 6.29 5.02 8.96
8/27/2021 7:30:00 PM 20.13 68.234 0.001 6.29 4.6 8.99
8/27/2021 7:45:00 PM 20.07 68.126 0.001 6.29 4.33 9
8/27/2021 8:00:00 PM 20.02 68.036 0.001 6.3 4.34 9.01
8/27/2021 8:15:00 PM 19.95 67.91 0.001 6.3 4.54 9.02
8/27/2021 8:30:00 PM 19.9 67.82 0.001 6.29 4.67 9.03
8/27/2021 8:45:00 PM 19.85 67.73 0.001 6.29 4.23 9.04
8/27/2021 9:00:00 PM 19.81 67.658 0.001 6.28 4.21 9.05
8/27/2021 9:15:00 PM 19.78 67.604 0.001 6.28 4.61 9.05
8/27/2021 9:30:00 PM 19.72 67.496 0.001 6.27 4.27 9.07
8/27/2021 9:45:00 PM 19.67 67.406 0.001 6.26 4.47 9.08
8/27/2021 10:00:00 PM 19.63 67.334 0.001 6.26 4.74 9.09
8/27/2021 10:15:00 PM 19.6 67.28 0.001 6.26 4.68 9.1
8/27/2021 10:30:00 PM 19.57 67.226 0.001 6.25 4.91 9.11
8/27/2021 10:45:00 PM 19.56 67.208 0.001 6.26 4.78 9.11
8/27/2021 11:00:00 PM 19.54 67.172 0.001 6.25 5.15 9.12
8/27/2021 11:15:00 PM 19.52 67.136 0.001 6.24 4.52 9.12
8/27/2021 11:30:00 PM 19.48 67.064 0.001 6.24 4.81 9.13
8/27/2021 11:45:00 PM 19.47 67.046 0.001 6.26 4.62 9.13
8/28/2021 12:00:00 AM 19.43 66.974 0.001 6.27 4.67 9.14
8/28/2021 12:15:00 AM 19.4 66.92 0.001 6.28 4.85 9.14
8/28/2021 12:30:00 AM 19.36 66.848 0.001 6.28 4.76 9.14
8/28/2021 12:45:00 AM 19.34 66.812 0.001 6.28 4.66 9.15
8/28/2021 1:00:00 AM 19.32 66.776 0.001 6.29 4.67 9.15
8/28/2021 1:15:00 AM 19.3 66.74 0.001 6.29 4.62 9.15
8/28/2021 1:30:00 AM 19.3 66.74 0.001 6.29 4.32 9.15
8/28/2021 1:45:00 AM 19.28 66.704 0.001 6.28 4.45 9.15
8/28/2021 2:00:00 AM 19.26 66.668 0.001 6.28 4.39 9.16
8/28/2021 2:15:00 AM 19.24 66.632 0.001 6.27 5 9.16
8/28/2021 2:30:00 AM 19.23 66.614 0.001 6.28 5.21 9.15
8/28/2021 2:45:00 AM 19.22 66.596 0.001 6.27 4.64 9.16
8/28/2021 3:00:00 AM 19.19 66.542 0.001 6.26 4.55 9.16
8/28/2021 3:15:00 AM 19.17 66.506 0.001 6.26 4.58 9.16
8/28/2021 3:30:00 AM 19.13 66.434 0.001 6.25 4.8 9.17
8/28/2021 3:45:00 AM 19.09 66.362 0.001 6.23 5.42 9.18
8/28/2021 4:00:00 AM 19.06 66.308 0.001 6.25 4.91 9.18
8/28/2021 4:15:00 AM 19.04 66.272 0.001 6.25 4.6 9.19
8/28/2021 4:30:00 AM 19.04 66.272 0.001 6.26 4.91 9.2
8/28/2021 4:45:00 AM 19.03 66.254 0.001 6.26 4.95 9.2
8/28/2021 5:00:00 AM 19.02 66.236 0.001 6.26 4.83 9.21
8/28/2021 5:15:00 AM 19 66.2 0.001 6.25 5.04 9.21
8/28/2021 5:30:00 AM 18.98 66.164 0.001 6.3 4.89 9.22
8/28/2021 5:45:00 AM 18.97 66.146 0.001 6.27 5.56 9.23
8/28/2021 6:00:00 AM 18.95 66.11 0.001 6.27 4.55 9.23
8/28/2021 6:15:00 AM 18.95 66.11 0.001 6.27 4.55 9.23
8/28/2021 6:30:00 AM 18.92 66.056 0.001 6.26 5.32 9.24
8/28/2021 6:45:00 AM 18.92 66.056 0.001 6.27 4.56 9.24
8/28/2021 7:00:00 AM 18.91 66.038 0.001 6.27 4.71 9.24
8/28/2021 7:15:00 AM 18.88 65.984 0.001 6.24 5.14 9.26
8/28/2021 7:30:00 AM 18.89 66.002 0.001 6.25 4.72 9.25
8/28/2021 7:45:00 AM 18.9 66.02 0.001 6.26 4.74 9.25
8/28/2021 8:00:00 AM 18.91 66.038 0.001 6.26 4.82 9.24
8/28/2021 8:15:00 AM 18.95 66.11 0.001 6.28 5.01 9.24
8/28/2021 8:30:00 AM 19.01 66.218 0.001 6.29 4.68 9.22
8/28/2021 8:45:00 AM 19.06 66.308 0.001 6.28 4.35 9.22
8/28/2021 9:00:00 AM 19.18 66.524 0.001 6.33 4.6 9.19
8/28/2021 9:15:00 AM 19.35 66.83 0.001 6.36 4.29 9.16
8/28/2021 9:30:00 AM 19.62 67.316 0.001 6.45 4.12 9.11
8/28/2021 9:45:00 AM 19.82 67.676 0.001 6.51 4.09 9.07
8/28/2021 10:00:00 AM 20.12 68.216 0.001 6.49 4.11 9
8/28/2021 10:15:00 AM 20.32 68.576 0.001 6.43 4.21 8.98
8/28/2021 10:30:00 AM 20.5 68.9 0.001 6.41 4.25 8.93
8/28/2021 10:45:00 AM 20.53 68.954 0.001 6.35 4.52 8.93
8/28/2021 11:00:00 AM 20.79 69.422 0.001 6.44 3.84 8.87
8/28/2021 11:15:00 AM 20.92 69.656 0.001 6.41 4.52 8.86
8/28/2021 11:30:00 AM 20.91 69.638 0.001 6.35 5 8.86
8/28/2021 11:45:00 AM 20.94 69.692 0.001 6.32 5.22 8.85
8/28/2021 12:00:00 PM 20.98 69.764 0.001 6.32 4.8 8.84
8/28/2021 12:15:00 PM 21 69.8 0.001 6.32 5.01 8.84
8/28/2021 12:30:00 PM 21.25 70.25 0.001 6.39 4.17 8.78
8/28/2021 12:45:00 PM 21.38 70.484 0.001 6.39 5.01 8.76
8/28/2021 1:00:00 PM 21.73 71.114 0.001 6.43 4.52 8.69
8/28/2021 1:15:00 PM 22.16 71.888 0.001 6.52 4.47 8.61
8/28/2021 1:30:00 PM 22.34 72.212 0.001 6.41 4.49 8.59
8/28/2021 1:45:00 PM 22.36 72.248 0.001 6.31 5.2 8.59
8/28/2021 2:00:00 PM 22.41 72.338 0.001 6.23 5.16 8.57
8/28/2021 2:15:00 PM 22.47 72.446 0.001 6.25 5.21 8.56
8/28/2021 2:30:00 PM 22.48 72.464 0.001 6.23 5.52 8.55
8/28/2021 2:45:00 PM 22.44 72.392 0.001 6.21 5.94 8.56
8/28/2021 3:00:00 PM 22.39 72.302 0.001 6.19 5.86 8.57
8/28/2021 3:15:00 PM 22.38 72.284 0.001 6.2 5.42 8.57
8/28/2021 3:30:00 PM 22.34 72.212 0.001 6.15 5.69 8.58
8/28/2021 3:45:00 PM 22.38 72.284 0.001 6.17 5.24 8.57
8/28/2021 4:00:00 PM 22.38 72.284 0.001 6.16 5.86 8.57
8/28/2021 4:15:00 PM 22.34 72.212 0.001 6.13 5.96 8.58
8/28/2021 4:30:00 PM 22.18 71.924 0.001 6.1 6.32 8.61
8/28/2021 4:45:00 PM 22.03 71.654 0.001 6.11 6.49 8.64
8/28/2021 5:00:00 PM 22.01 71.618 0.001 6.12 5.85 8.65
8/28/2021 5:15:00 PM 21.91 71.438 0.001 6.11 6.14 8.66
8/28/2021 5:30:00 PM 21.82 71.276 0.001 6.12 6.17 8.67
8/28/2021 5:45:00 PM 21.75 71.15 0.001 6.12 6.28 8.68
8/28/2021 6:00:00 PM 21.65 70.97 0.001 6.12 6.03 8.7
8/28/2021 6:15:00 PM 21.67 71.006 0.001 6.14 6 8.7
8/28/2021 6:30:00 PM 21.58 70.844 0.001 6.12 6.31 8.72
8/28/2021 6:45:00 PM 21.51 70.718 0.001 6.11 6.44 8.73
8/28/2021 7:00:00 PM 21.45 70.61 0.001 6.12 6.2 8.75
8/28/2021 7:15:00 PM 21.4 70.52 0.001 6.12 6.37 8.75
8/28/2021 7:30:00 PM 21.34 70.412 0.001 6.11 6.49 8.76
8/28/2021 7:45:00 PM 21.25 70.25 0.001 6.1 6.62 8.78
8/28/2021 8:00:00 PM 21.17 70.106 0.001 6.11 6.25 8.8
8/28/2021 8:15:00 PM 21.12 70.016 0.001 6.11 6.51 8.81
8/28/2021 8:30:00 PM 21.07 69.926 0.001 6.11 6.18 8.81
8/28/2021 8:45:00 PM 21 69.8 0.001 6.11 6.41 8.83
8/28/2021 9:00:00 PM 20.92 69.656 0.001 6.1 6.71 8.85
8/28/2021 9:15:00 PM 20.83 69.494 0.001 6.09 6.9 8.87
8/28/2021 9:30:00 PM 20.72 69.296 0.001 6.09 6.35 8.9
8/28/2021 9:45:00 PM 20.66 69.188 0.001 6.09 6.47 8.9
8/28/2021 10:00:00 PM 20.58 69.044 0.001 6.1 6.89 8.92
8/28/2021 10:15:00 PM 20.52 68.936 0.001 6.12 6.68 8.93
8/28/2021 10:30:00 PM 20.49 68.882 0.001 6.12 6.66 8.94
8/28/2021 10:45:00 PM 20.47 68.846 0.001 6.13 6.52 8.94
8/28/2021 11:00:00 PM 20.43 68.774 0.001 6.12 6.34 8.94
8/28/2021 11:15:00 PM 20.41 68.738 0.001 6.14 6.61 8.95
8/28/2021 11:30:00 PM 20.41 68.738 0.001 6.15 6.49 8.95
8/28/2021 11:45:00 PM 20.37 68.666 0.001 6.13 6.56 8.96
8/29/2021 12:00:00 AM 20.34 68.612 0.001 6.14 6.43 8.97
8/29/2021 12:15:00 AM 20.32 68.576 0.001 6.15 6.85 8.97
8/29/2021 12:30:00 AM 20.31 68.558 0.001 6.14 6.8 8.98
8/29/2021 12:45:00 AM 20.29 68.522 0.001 6.15 6.27 8.99
8/29/2021 1:00:00 AM 20.27 68.486 0.001 6.14 7.11 8.99
8/29/2021 1:15:00 AM 20.2 68.36 0.001 6.12 7.01 9
8/29/2021 1:30:00 AM 20.16 68.288 0.001 6.12 7.11 9.01
8/29/2021 1:45:00 AM 20.11 68.198 0.001 6.11 6.93 9.02
8/29/2021 2:00:00 AM 20.09 68.162 0.001 6.13 6.94 9.02
8/29/2021 2:15:00 AM 20.06 68.108 0.001 6.13 7 9.03
8/29/2021 2:30:00 AM 20.01 68.018 0.001 6.13 7.09 9.04
8/29/2021 2:45:00 AM 19.99 67.982 0.001 6.13 7.04 9.05
8/29/2021 3:00:00 AM 19.96 67.92799 0.001 6.14 6.99 9.04
8/29/2021 3:15:00 AM 19.89 67.802 0.001 6.12 7.07 9.06
8/29/2021 3:30:00 AM 19.9 67.82 0.001 6.15 6.67 9.05
8/29/2021 3:45:00 AM 19.86 67.748 0.001 6.13 6.6 9.06
8/29/2021 4:00:00 AM 19.82 67.676 0.001 6.14 7.14 9.07
8/29/2021 4:15:00 AM 19.77 67.586 0.001 6.13 6.8 9.07
8/29/2021 4:30:00 AM 19.76 67.568 0.001 6.15 7.02 9.07
8/29/2021 4:45:00 AM 19.72 67.496 0.001 6.14 7.27 9.08
8/29/2021 5:00:00 AM 19.71 67.478 0.001 6.15 6.94 9.08
8/29/2021 5:15:00 AM 19.68 67.424 0.001 6.14 7.06 9.09
8/29/2021 5:30:00 AM 19.66 67.388 0.001 6.14 7.19 9.1
8/29/2021 5:45:00 AM 19.61 67.298 0.001 6.14 7.3 9.11
8/29/2021 6:00:00 AM 19.58 67.244 0.001 6.14 7.29 9.12
8/29/2021 6:15:00 AM 19.56 67.208 0.001 6.14 7.31 9.13
8/29/2021 6:30:00 AM 19.5 67.1 0.001 6.13 7.29 9.15
8/29/2021 6:45:00 AM 19.5 67.1 0.001 6.14 7.12 9.14
8/29/2021 7:00:00 AM 19.48 67.064 0.001 6.15 7.38 9.15
8/29/2021 7:15:00 AM 19.45 67.01 0.001 6.15 7.44 9.16
8/29/2021 7:30:00 AM 19.42 66.956 0.001 6.15 6.97 9.17
8/29/2021 7:45:00 AM 19.45 67.01 0.001 6.16 7.22 9.15
8/29/2021 8:00:00 AM 19.45 67.01 0.001 6.16 7.5 9.16
8/29/2021 8:15:00 AM 19.43 66.974 0.001 6.16 7.61 9.16
8/29/2021 8:30:00 AM 19.44 66.992 0.001 6.16 7.81 9.15
8/29/2021 8:45:00 AM 19.48 67.064 0.001 6.17 7.26 9.15
8/29/2021 9:00:00 AM 19.49 67.082 0.001 6.18 7.31 9.15
8/29/2021 9:15:00 AM 19.52 67.136 0.001 6.16 7.46 9.14
8/29/2021 9:30:00 AM 19.56 67.208 0.001 6.19 7.05 9.13
8/29/2021 9:45:00 AM 19.61 67.298 0.001 6.19 7.39 9.12
8/29/2021 10:00:00 AM 19.66 67.388 0.001 6.19 7.24 9.1
8/29/2021 10:15:00 AM 19.7 67.46 0.001 6.23 7.01 9.09
8/29/2021 10:30:00 AM 19.77 67.586 0.001 6.21 7.37 9.07
8/29/2021 10:45:00 AM 19.93 67.874 0.001 6.28 6.74 9.04
8/29/2021 11:00:00 AM 20.04 68.07201 0.001 6.21 7.41 9.02
8/29/2021 11:15:00 AM 20.19 68.342 0.001 6.26 6.49 8.99
8/29/2021 11:30:00 AM 20.29 68.522 0.001 6.25 7.16 8.98
8/29/2021 11:45:00 AM 20.43 68.774 0.001 6.29 6.45 8.95
8/29/2021 12:00:00 PM 20.49 68.882 0.001 6.16 7.14 8.92
8/29/2021 12:15:00 PM 20.55 68.99 0.001 6.17 8.09 8.91
8/29/2021 12:30:00 PM 20.65 69.17 0.001 6.19 7.46 8.89
8/29/2021 12:45:00 PM 20.78 69.404 0.001 6.21 7.19 8.86
8/29/2021 1:00:00 PM 20.86 69.548 0.001 6.2 7.64 8.85
8/29/2021 1:15:00 PM 20.93 69.674 0.001 6.18 7.71 8.83
8/29/2021 1:30:00 PM 20.99 69.782 0.001 6.13 7.56 8.82
8/29/2021 1:45:00 PM 21.07 69.926 0.001 6.14 7.58 8.79
8/29/2021 2:00:00 PM 21.12 70.016 0.001 6.11 8.06 8.78
8/29/2021 2:15:00 PM 21.1 69.98 0.001 6.05 8.36 8.78
8/29/2021 2:30:00 PM 21.14 70.052 0.001 6.05 7.8 8.78
8/29/2021 2:45:00 PM 21.19 70.142 0.001 6.07 7.83 8.76
8/29/2021 3:00:00 PM 21.33 70.394 0.001 6.11 7.34 8.74
8/29/2021 3:15:00 PM 21.45 70.61 0.001 6.07 7.65 8.72
8/29/2021 3:30:00 PM 21.5 70.7 0.001 6.05 7.68 8.71
8/29/2021 3:45:00 PM 21.47 70.646 0.001 6.02 7.99 8.71
8/29/2021 4:00:00 PM 21.45 70.61 0.001 6.04 7.63 8.71
8/29/2021 4:15:00 PM 21.39 70.502 0.001 6.01 7.77 8.72
8/29/2021 4:30:00 PM 21.41 70.538 0.001 6.03 7.29 8.72
8/29/2021 4:45:00 PM 21.45 70.61 0.001 6.04 7.36 8.71
8/29/2021 5:00:00 PM 21.42 70.556 0.001 5.99 7.65 8.72
8/29/2021 5:15:00 PM 21.45 70.61 0.001 6.03 7.2 8.71
8/29/2021 5:30:00 PM 21.53 70.754 0.001 6.05 6.99 8.69
8/29/2021 5:45:00 PM 21.5 70.7 0.001 6 6.96 8.7
8/29/2021 6:00:00 PM 21.4 70.52 0.001 5.93 7.16 8.72
8/29/2021 6:15:00 PM 21.23 70.214 0.001 5.84 8.09 8.75
8/29/2021 6:30:00 PM 21.18 70.124 0.001 5.95 6.61 8.76
8/29/2021 6:45:00 PM 21.1 69.98 0.001 5.96 6.47 8.77
8/29/2021 7:00:00 PM 21.01 69.818 0.001 5.96 6.41 8.78
8/29/2021 7:15:00 PM 20.91 69.638 0.001 5.95 6.44 8.81
8/29/2021 7:30:00 PM 20.83 69.494 0.001 5.96 6.22 8.82
8/29/2021 7:45:00 PM 20.76 69.368 0.001 5.97 6.07 8.84
8/29/2021 8:00:00 PM 20.72 69.296 0.001 5.98 5.99 8.85
8/29/2021 8:15:00 PM 20.65 69.17 0.001 5.98 5.98 8.85
8/29/2021 8:30:00 PM 20.58 69.044 0.001 5.96 6.03 8.86
8/29/2021 8:45:00 PM 20.52 68.936 0.001 5.96 5.96 8.87
8/29/2021 9:00:00 PM 20.47 68.846 0.001 5.98 5.9 8.88
8/29/2021 9:15:00 PM 20.43 68.774 0.001 5.97 5.78 8.89
8/29/2021 9:30:00 PM 20.38 68.684 0.001 5.97 5.78 8.9
8/29/2021 9:45:00 PM 20.33 68.594 0.001 5.97 5.67 8.91
8/29/2021 10:00:00 PM 20.26 68.468 0.001 5.95 5.65 8.93
8/29/2021 10:15:00 PM 20.18 68.324 0.001 5.96 5.66 8.96
8/29/2021 10:30:00 PM 20.13 68.234 0.001 5.96 5.6 8.96
8/29/2021 10:45:00 PM 20.09 68.162 0.001 5.97 5.51 8.97
8/29/2021 11:00:00 PM 20.04 68.07201 0.001 5.97 5.44 8.98
8/29/2021 11:15:00 PM 19.98 67.964 0.001 5.97 5.59 8.99
8/29/2021 11:30:00 PM 19.94 67.892 0.001 5.97 5.61 8.99
8/29/2021 11:45:00 PM 19.91 67.838 0.001 5.97 5.51 8.99
8/30/2021 12:00:00 AM 19.87 67.766 0.001 5.97 5.44 9
8/30/2021 12:15:00 AM 19.84 67.712 0.001 5.98 5.46 9.01
8/30/2021 12:30:00 AM 19.79 67.622 0.001 5.97 5.47 9.02
8/30/2021 12:45:00 AM 19.79 67.622 0.001 5.98 5.35 9.02
8/30/2021 1:00:00 AM 19.77 67.586 0.001 5.98 5.22 9.02
8/30/2021 1:15:00 AM 19.73 67.514 0.001 5.97 5.39 9.03
8/30/2021 1:30:00 AM 19.71 67.478 0.001 5.98 5.22 9.03
8/30/2021 1:45:00 AM 19.69 67.442 0.001 5.99 5.41 9.04
8/30/2021 2:00:00 AM 19.66 67.388 0.001 5.99 5.21 9.05
8/30/2021 2:15:00 AM 19.61 67.298 0.001 5.97 5.15 9.06
8/30/2021 2:30:00 AM 19.56 67.208 0.001 5.96 5.07 9.08
8/30/2021 2:45:00 AM 19.52 67.136 0.001 5.97 5.05 9.08
8/30/2021 3:00:00 AM 19.46 67.028 0.001 5.97 4.98 9.09
8/30/2021 3:15:00 AM 19.42 66.956 0.001 5.97 5.01 9.1
8/30/2021 3:30:00 AM 19.36 66.848 0.001 5.96 5 9.11
8/30/2021 3:45:00 AM 19.32 66.776 0.001 5.97 5.11 9.12
8/30/2021 4:00:00 AM 19.32 66.776 0.001 6.07 4.99 9.12
8/30/2021 4:15:00 AM 19.3 66.74 0.001 6.04 4.84 9.12
8/30/2021 4:30:00 AM 19.27 66.686 0.001 6.03 4.89 9.12
8/30/2021 4:45:00 AM 19.25 66.65 0.001 6.01 4.74 9.12
8/30/2021 5:00:00 AM 19.23 66.614 0.001 6.02 4.84 9.12
8/30/2021 5:15:00 AM 19.19 66.542 0.001 5.99 4.89 9.13
8/30/2021 5:30:00 AM 19.16 66.488 0.001 5.98 4.74 9.13
8/30/2021 5:45:00 AM 19.13 66.434 0.001 6 4.9 9.14
8/30/2021 6:00:00 AM 19.1 66.38 0.001 5.99 5.02 9.14
8/30/2021 6:15:00 AM 19.08 66.344 0.001 6 4.99 9.15
8/30/2021 6:30:00 AM 19.05 66.29 0.001 6.01 4.9 9.16
8/30/2021 6:45:00 AM 19.03 66.254 0.001 6.06 4.96 9.16
8/30/2021 7:00:00 AM 19.02 66.236 0.001 6.1 5.17 9.16
8/30/2021 7:15:00 AM 19.01 66.218 0.001 6.1 5.42 9.17
8/30/2021 7:30:00 AM 19.01 66.218 0.001 6.15 5.31 9.16
8/30/2021 7:45:00 AM 19.02 66.236 0.001 6.16 5.59 9.17
8/30/2021 8:00:00 AM 19.03 66.254 0.001 6.2 5.34 9.17
8/30/2021 8:15:00 AM 19.06 66.308 0.001 6.21 5.59 9.16
8/30/2021 8:30:00 AM 19.14 66.452 0.001 6.27 5.76 9.13
8/30/2021 8:45:00 AM 19.34 66.812 0.001 6.38 5.29 9.09
8/30/2021 9:00:00 AM 19.41 66.938 0.001 6.39 5.72 9.08
8/30/2021 9:15:00 AM 19.48 67.064 0.001 6.36 5.8 9.07
8/30/2021 9:30:00 AM 19.6 67.28 0.001 6.37 5.78 9.05
8/30/2021 9:45:00 AM 19.67 67.406 0.001 6.36 5.98 9.03
8/30/2021 10:00:00 AM 19.78 67.604 0.001 6.37 5.87 9
8/30/2021 10:15:00 AM 19.95 67.91 0.001 6.4 5.14 8.96
8/30/2021 10:30:00 AM 20.04 68.07201 0.001 6.37 5.26 8.94
8/30/2021 10:45:00 AM 20.08 68.144 0.001 6.35 5.87 8.94
8/30/2021 11:00:00 AM 20.12 68.216 0.001 6.34 5.55 8.94
8/30/2021 11:15:00 AM 20.11 68.198 0.001 6.3 5.83 8.93
8/30/2021 11:30:00 AM 20.29 68.522 0.001 6.41 4.86 8.9
8/30/2021 11:45:00 AM 20.54 68.972 0.001 6.45 4.59 8.84
8/30/2021 12:00:00 PM 20.67 69.206 0.001 6.44 4.88 8.81
8/30/2021 12:15:00 PM 20.78 69.404 0.001 6.37 5.57 8.79
8/30/2021 12:30:00 PM 20.94 69.692 0.001 6.41 5.02 8.77
8/30/2021 12:45:00 PM 20.96 69.728 0.001 6.36 6.06 8.76
8/30/2021 1:00:00 PM 21.22 70.196 0.001 6.37 4.61 8.7
8/30/2021 1:15:00 PM 21.45 70.61 0.001 6.42 4.99 8.65
8/30/2021 1:30:00 PM 21.8 71.24 0.001 6.37 4.55 8.6
8/30/2021 1:45:00 PM 21.86 71.348 0.001 6.22 4.53 8.58
8/30/2021 2:00:00 PM 21.93 71.474 0.001 6.21 5.85 8.56
8/30/2021 2:15:00 PM 22.05 71.69 0.001 6.17 5.07 8.54
8/30/2021 2:30:00 PM 22.05 71.69 0.001 6.08 5.97 8.55
8/30/2021 2:45:00 PM 22.11 71.798 0 5.94 6.49 8.54
8/30/2021 3:00:00 PM 22.12 71.816 0.001 6.11 5.4 8.53
8/30/2021 3:15:00 PM 22.05 71.69 0.001 6.06 5.56 8.54
8/30/2021 3:30:00 PM 21.93 71.474 0.001 6.08 5.54 8.55
8/30/2021 3:45:00 PM 21.75 71.15 0 5.99 7.85 8.59
8/30/2021 4:00:00 PM 21.72 71.096 0.001 6.05 4.93 8.58
8/30/2021 4:15:00 PM 21.65 70.97 0 5.99 5.58 8.6
8/30/2021 4:30:00 PM 21.54 70.772 0 5.9 6.6 8.63
8/30/2021 4:45:00 PM 21.51 70.718 0 5.94 4.8 8.63
8/30/2021 5:00:00 PM 21.41 70.538 0 5.91 4.91 8.65
8/30/2021 5:15:00 PM 21.37 70.466 0 5.97 4.16 8.65
8/30/2021 5:30:00 PM 21.37 70.466 0.001 6.02 4.23 8.65
8/30/2021 5:45:00 PM 21.31 70.358 0.001 6.04 4.19 8.66
8/30/2021 6:00:00 PM 21.27 70.286 0.001 6.07 4.22 8.67
8/30/2021 6:15:00 PM 21.22 70.196 0.001 6.06 4.2 8.67
8/30/2021 6:30:00 PM 21.15 70.07 0.001 6.08 4.15 8.68
8/30/2021 6:45:00 PM 21.08 69.944 0.001 6.09 4.17 8.7
8/30/2021 7:00:00 PM 21.01 69.818 0.001 6.13 4.17 8.72
8/30/2021 7:15:00 PM 20.9 69.62 0.001 6.14 4.17 8.75
8/30/2021 7:30:00 PM 20.77 69.386 0.001 6.14 4.14 8.78
8/30/2021 7:45:00 PM 20.64 69.152 0.001 6.14 4.01 8.8
8/30/2021 8:00:00 PM 20.48 68.864 0.001 6.12 4.01 8.83
8/30/2021 8:15:00 PM 20.32 68.576 0.001 6.13 4.08 8.86
8/30/2021 8:30:00 PM 20.17 68.306 0.001 6.12 4.16 8.9
8/30/2021 8:45:00 PM 20.04 68.07201 0.001 6.08 4.18 8.93
8/30/2021 9:00:00 PM 19.91 67.838 0.001 6.09 3.97 8.96
8/30/2021 9:15:00 PM 19.76 67.568 0.001 6.08 4.02 8.99
8/30/2021 9:30:00 PM 19.62 67.316 0.001 6.02 4.71 9.02
8/30/2021 9:45:00 PM 19.48 67.064 0.001 6.04 3.73 9.06
8/30/2021 10:00:00 PM 19.34 66.812 0.001 6.03 4.25 9.09
8/30/2021 10:15:00 PM 19.2 66.56 0.001 6.04 3.8 9.11
8/30/2021 10:30:00 PM 19.06 66.308 0.001 5.99 4.85 9.14
8/30/2021 10:45:00 PM 18.93 66.074 0.001 6 4.06 9.17
8/30/2021 11:00:00 PM 18.79 65.82201 0.001 5.98 3.69 9.21
8/30/2021 11:15:00 PM 18.64 65.552 0.001 5.95 4.87 9.24
8/30/2021 11:30:00 PM 18.5 65.3 0.001 5.96 4.06 9.26
8/30/2021 11:45:00 PM 18.34 65.012 0.001 5.99 3.15 9.29
8/31/2021 12:00:00 AM 18.19 64.742 0.001 5.99 3.6 9.33
8/31/2021 12:15:00 AM 18.03 64.454 0.001 5.99 3.44 9.37
8/31/2021 12:30:00 AM 17.87 64.166 0.001 5.98 3.47 9.39
8/31/2021 12:45:00 AM 17.73 63.914 0.001 6 3.31 9.42
8/31/2021 1:00:00 AM 17.59 63.662 0.001 5.98 3.79 9.45
8/31/2021 1:15:00 AM 17.47 63.446 0.001 5.97 3.73 9.48
8/31/2021 1:30:00 AM 17.35 63.23 0.001 5.97 3.23 9.51
8/31/2021 1:45:00 AM 17.24 63.032 0.001 6 2.94 9.53
8/31/2021 2:00:00 AM 17.14 62.852 0.001 5.99 3.25 9.54
8/31/2021 2:15:00 AM 17.05 62.69 0.001 5.99 3.14 9.56
8/31/2021 2:30:00 AM 16.97 62.546 0.001 5.99 3.62 9.58
8/31/2021 2:45:00 AM 16.89 62.402 0.001 5.97 4 9.6
8/31/2021 3:00:00 AM 16.83 62.294 0.001 5.97 3.77 9.61
8/31/2021 3:15:00 AM 16.77 62.186 0.001 5.98 3.5 9.62
8/31/2021 3:30:00 AM 16.73 62.114 0.001 5.98 3.8 9.63
8/31/2021 3:45:00 AM 16.72 62.096 0.001 5.99 3.29 9.63
8/31/2021 4:00:00 AM 16.72 62.096 0.001 6.04 2.64 9.63
8/31/2021 4:15:00 AM 16.77 62.186 0.001 6.06 2.73 9.62
8/31/2021 4:30:00 AM 16.8 62.24 0.001 6.06 3.21 9.61
8/31/2021 4:45:00 AM 16.81 62.258 0.001 6.04 3.28 9.61
8/31/2021 5:00:00 AM 16.86 62.348 0.001 6.07 2.64 9.6
8/31/2021 5:15:00 AM 16.87 62.366 0.001 6.05 3.31 9.6
8/31/2021 5:30:00 AM 16.87 62.366 0.001 6.06 2.77 9.59
8/31/2021 5:45:00 AM 16.87 62.366 0.001 6.05 2.93 9.59
8/31/2021 6:00:00 AM 16.87 62.366 0.001 6.06 2.72 9.59
8/31/2021 6:15:00 AM 16.82 62.276 0.001 6.02 5.13 9.61
8/31/2021 6:30:00 AM 16.83 62.294 0.001 6.04 2.82 9.61
8/31/2021 6:45:00 AM 16.83 62.294 0.001 6.07 2.71 9.6
8/31/2021 7:00:00 AM 16.82 62.276 0.001 6.06 3.22 9.6
8/31/2021 7:15:00 AM 16.81 62.258 0.001 6.09 2.75 9.61
8/31/2021 7:30:00 AM 16.78 62.204 0.001 6.04 4.09 9.61
8/31/2021 7:45:00 AM 16.76 62.168 0.001 6.06 3.27 9.62
8/31/2021 8:00:00 AM 16.77 62.186 0.001 6.06 2.95 9.61
8/31/2021 8:15:00 AM 16.8 62.24 0.001 6.1 2.68 9.61
8/31/2021 8:30:00 AM 16.81 62.258 0.001 6.08 3.02 9.61
8/31/2021 8:45:00 AM 16.88 62.384 0.001 6.11 2.7 9.59
8/31/2021 9:00:00 AM 16.96 62.528 0.001 6.17 2.79 9.57
8/31/2021 9:15:00 AM 17.09 62.762 0.001 6.22 3.07 9.53
8/31/2021 9:30:00 AM 17.22 62.996 0.001 6.18 3.28 9.5
8/31/2021 9:45:00 AM 17.34 63.212 0.001 6.24 3.48 9.48
8/31/2021 10:00:00 AM 17.48 63.464 0.001 6.25 3.87 9.46
8/31/2021 10:15:00 AM 17.75 63.95 0.001 6.39 4.36 9.4
8/31/2021 10:30:00 AM 17.97 64.346 0.001 6.38 4.22 9.33
8/31/2021 10:45:00 AM 18.13 64.634 0.001 6.38 4.23 9.31
8/31/2021 11:00:00 AM 18.32 64.976 0.001 6.38 4.41 9.28
8/31/2021 11:15:00 AM 18.51 65.318 0.001 6.39 4.47 9.23
8/31/2021 11:30:00 AM 18.69 65.642 0.001 6.37 4.53 9.18
8/31/2021 11:45:00 AM 18.81 65.858 0.001 6.3 4.39 9.18
8/31/2021 12:00:00 PM 19.01 66.218 0.001 6.16 4.48 9.13
8/31/2021 12:15:00 PM 19.13 66.434 0 6.09 3.77 9.11
8/31/2021 12:30:00 PM 19.25 66.65 0 6.06 3.9 9.08
8/31/2021 12:45:00 PM 19.4 66.92 0 5.93 7.94 9.05
8/31/2021 1:00:00 PM 19.57 67.226 0 6 4.15 9.02
8/31/2021 1:15:00 PM 19.96 67.92799 0 5.96 4.38 8.94
8/31/2021 1:30:00 PM 20.15 68.27 0 5.8 3.86 8.89
8/31/2021 1:45:00 PM 20.36 68.648 0 5.81 7.86 8.85
8/31/2021 2:00:00 PM 20.38 68.684 0 5.9 4.74 8.86
8/31/2021 2:15:00 PM 20.38 68.684 0 5.89 5.73 8.87
8/31/2021 2:30:00 PM 20.39 68.702 0 5.82 4.19 8.86
8/31/2021 2:45:00 PM 20.3 68.54 0 5.81 8.77 8.87
8/31/2021 3:00:00 PM 20.3 68.54 0 5.89 4.74 8.88
8/31/2021 3:15:00 PM 20.26 68.468 0 5.91 3.42 8.88
8/31/2021 3:30:00 PM 20.29 68.522 0 6 2.6 8.87
8/31/2021 3:45:00 PM 20.3 68.54 0 5.96 2.77 8.87
8/31/2021 4:00:00 PM 20.29 68.522 0 6 2.5 8.87
8/31/2021 4:15:00 PM 20.25 68.45 0 6.01 2.63 8.87
8/31/2021 4:30:00 PM 20.24 68.432 0 6.01 2.61 8.88
8/31/2021 4:45:00 PM 20.27 68.486 0 6.05 2.34 8.87
8/31/2021 5:00:00 PM 20.25 68.45 0 6.06 2.4 8.87
8/31/2021 5:15:00 PM 20.2 68.36 0 6.06 2.5 8.89
8/31/2021 5:30:00 PM 20.13 68.234 0 6.06 2.42 8.9
8/31/2021 5:45:00 PM 20.07 68.126 0 6.08 2.4 8.91
8/31/2021 6:00:00 PM 20.06 68.108 0 6.1 2.44 8.91
8/31/2021 6:15:00 PM 20.05 68.09 0 6.11 2.4 8.91
8/31/2021 6:30:00 PM 20.02 68.036 0 6.11 2.45 8.92
8/31/2021 6:45:00 PM 19.96 67.92799 0 6.11 2.64 8.92
8/31/2021 7:00:00 PM 19.91 67.838 0 6.1 2.56 8.93
8/31/2021 7:15:00 PM 19.84 67.712 0 6.09 2.55 8.94
8/31/2021 7:30:00 PM 19.77 67.586 0 6.1 2.56 8.96
8/31/2021 7:45:00 PM 19.71 67.478 0 6.11 2.55 8.98
8/31/2021 8:00:00 PM 19.64 67.352 0 6.11 2.7 8.99
8/31/2021 8:15:00 PM 19.58 67.244 0 6.12 2.7 9.01
8/31/2021 8:30:00 PM 19.51 67.118 0 6.12 2.81 9.03
8/31/2021 8:45:00 PM 19.45 67.01 0 6.13 2.73 9.04
8/31/2021 9:00:00 PM 19.39 66.902 0 6.13 2.72 9.06
8/31/2021 9:15:00 PM 19.31 66.758 0 6.12 2.77 9.07
8/31/2021 9:30:00 PM 19.24 66.632 0 6.14 2.71 9.08
8/31/2021 9:45:00 PM 19.18 66.524 0 6.14 2.88 9.1
8/31/2021 10:00:00 PM 19.13 66.434 0 6.14 2.9 9.11
8/31/2021 10:15:00 PM 19.07 66.326 0 6.14 2.73 9.11
8/31/2021 10:30:00 PM 19.01 66.218 0 6.15 2.77 9.14
8/31/2021 10:45:00 PM 18.94 66.092 0 6.13 3.18 9.16
8/31/2021 11:00:00 PM 18.87 65.966 0 6.13 3.03 9.18
8/31/2021 11:15:00 PM 18.79 65.82201 0 6.14 2.82 9.19
8/31/2021 11:30:00 PM 18.71 65.67799 0 6.12 3.34 9.2
8/31/2021 11:45:00 PM 18.64 65.552 0 6.12 3.2 9.22
9/1/2021 12:00:00 AM 18.56 65.408 0 6.12 3.1 9.23
9/1/2021 12:15:00 AM 18.39 65.102 0 5.99 7.21 9.27
9/1/2021 12:30:00 AM 18.41 65.138 0 6.11 3.58 9.26
9/1/2021 12:45:00 AM 18.32 64.976 0 6.07 4.12 9.28
9/1/2021 1:00:00 AM 18.31 64.958 0 6.12 2.97 9.28
9/1/2021 1:15:00 AM 18.29 64.922 0 6.13 2.87 9.29
9/1/2021 1:30:00 AM 18.25 64.85 0 6.15 2.81 9.3
9/1/2021 1:45:00 AM 18.18 64.724 0 6.14 2.7 9.32
9/1/2021 2:00:00 AM 18.09 64.562 0 6.11 3.52 9.34
9/1/2021 2:15:00 AM 18.02 64.436 0 6.15 2.6 9.35
9/1/2021 2:30:00 AM 17.94 64.292 0 6.15 2.78 9.36
9/1/2021 2:45:00 AM 17.87 64.166 0 6.14 2.75 9.37
9/1/2021 3:00:00 AM 17.81 64.058 0.001 6.15 2.71 9.38
9/1/2021 3:15:00 AM 17.76 63.968 0.001 6.15 2.98 9.38
9/1/2021 3:30:00 AM 17.73 63.914 0.001 6.17 2.69 9.39
9/1/2021 3:45:00 AM 17.71 63.878 0.001 6.17 2.8 9.4
9/1/2021 4:00:00 AM 17.69 63.842 0.001 6.19 2.62 9.4
9/1/2021 4:15:00 AM 17.66 63.788 0.001 6.17 3.26 9.41
9/1/2021 4:30:00 AM 17.64 63.752 0.001 6.19 2.64 9.41
9/1/2021 4:45:00 AM 17.61 63.698 0.001 6.18 2.79 9.42
9/1/2021 5:00:00 AM 17.59 63.662 0.001 6.2 2.68 9.43
9/1/2021 5:15:00 AM 17.56 63.608 0.001 6.21 2.68 9.43
9/1/2021 5:30:00 AM 17.52 63.536 0.001 6.18 2.96 9.44
9/1/2021 5:45:00 AM 17.5 63.5 0.001 6.19 2.67 9.44
9/1/2021 6:00:00 AM 17.46 63.428 0.001 6.15 2.7 9.45
9/1/2021 6:15:00 AM 17.44 63.392 0 6.19 2.67 9.46
9/1/2021 6:30:00 AM 17.42 63.356 0 6.18 2.81 9.46
9/1/2021 6:45:00 AM 17.36 63.248 0 6.14 3.99 9.47
9/1/2021 7:00:00 AM 17.34 63.212 0 6.14 3.47 9.48
9/1/2021 7:15:00 AM 17.34 63.212 0 6.17 2.85 9.47
9/1/2021 7:30:00 AM 17.3 63.14 0 6.16 3.25 9.48
9/1/2021 7:45:00 AM 17.33 63.194 0 6.2 2.62 9.48
9/1/2021 8:00:00 AM 17.32 63.176 0 6.17 2.84 9.48
9/1/2021 8:15:00 AM 17.28 63.104 0 6.14 3.48 9.48
9/1/2021 8:30:00 AM 17.3 63.14 0 6.21 2.88 9.48
9/1/2021 8:45:00 AM 17.3 63.14 0 6.25 2.46 9.48
9/1/2021 9:00:00 AM 17.29 63.122 0 6.27 2.39 9.48
9/1/2021 9:15:00 AM 17.24 63.032 0 6.25 2.99 9.5
9/1/2021 9:30:00 AM 17.29 63.122 0.001 6.3 2.98 9.48
9/1/2021 9:45:00 AM 17.23 63.014 0.003 6.44 3.26 9.5
9/1/2021 10:00:00 AM 17.24 63.032 0.006 6.57 3.3 9.49
9/1/2021 10:15:00 AM 17.28 63.104 0.011 6.68 3.14 9.48
9/1/2021 10:30:00 AM 17.26 63.068 0.014 6.85 3.05 9.48
9/1/2021 10:45:00 AM 17.24 63.032 0.015 6.92 3.23 9.48
9/1/2021 11:00:00 AM 17.12 62.816 0.015 6.9 3.03 9.52
9/1/2021 11:15:00 AM 17.12 62.816 0.014 6.83 2.96 9.51
9/1/2021 11:30:00 AM 17.11 62.798 0.014 6.86 3.02 9.51
9/1/2021 11:45:00 AM 17.07 62.726 0.014 6.81 2.9 9.52
9/1/2021 12:00:00 PM 17.03 62.654 0.013 6.84 2.86 9.53
9/1/2021 12:15:00 PM 17.06 62.708 0.013 6.85 2.91 9.52
9/1/2021 12:30:00 PM 17.06 62.708 0.013 6.83 2.92 9.53
9/1/2021 12:45:00 PM 17.02 62.636 0.011 6.74 2.77 9.53
9/1/2021 1:00:00 PM 17.01 62.618 0.01 6.77 2.87 9.53
9/1/2021 1:15:00 PM 17.04 62.672 0.009 6.77 2.77 9.52
9/1/2021 1:30:00 PM 17.06 62.708 0.009 6.76 2.77 9.52
9/1/2021 1:45:00 PM 17.08 62.744 0.009 6.81 2.82 9.51
9/1/2021 2:00:00 PM 17.1 62.78 0.01 6.85 2.83 9.51
9/1/2021 2:15:00 PM 17.11 62.798 0.01 6.85 2.88 9.51
9/1/2021 2:30:00 PM 17.11 62.798 0.009 6.87 2.81 9.51
9/1/2021 2:45:00 PM 17.1 62.78 0.008 6.94 2.79 9.51
9/1/2021 3:00:00 PM 17 62.6 0.007 7.04 2.69 9.52
9/1/2021 3:15:00 PM 16.87 62.366 0.006 7.05 2.78 9.56
9/1/2021 3:30:00 PM 16.81 62.258 0.006 7.04 2.7 9.57
9/1/2021 3:45:00 PM 16.53 61.754 0.006 6.98 2.68 9.63
9/1/2021 4:00:00 PM 16.34 61.412 0.005 6.96 2.68 9.67
9/1/2021 4:15:00 PM 16.2 61.16 0.005 7.11 2.65 9.7
9/1/2021 4:30:00 PM 16.22 61.196 0.004 7.07 2.66 9.69
9/1/2021 4:45:00 PM 16.21 61.178 0.004 7.04 2.55 9.69
9/1/2021 5:00:00 PM 16.2 61.16 0.004 7.06 2.48 9.69
9/1/2021 5:15:00 PM 15.99 60.782 0.003 6.95 2.54 9.76
9/1/2021 5:30:00 PM 16.03 60.854 0.003 7.02 2.46 9.74
9/1/2021 5:45:00 PM 16.1 60.98 0.003 7.03 2.52 9.71
9/1/2021 6:00:00 PM 16.13 61.034 0.003 7.06 2.56 9.71
9/1/2021 6:15:00 PM 16.17 61.106 0.003 7.03 2.52 9.7
9/1/2021 6:30:00 PM 16.16 61.088 0.003 7.01 2.59 9.71
9/1/2021 6:45:00 PM 16.15 61.07 0.003 7.08 2.44 9.7
9/1/2021 7:00:00 PM 16.11 60.998 0.003 7.07 2.52 9.72
9/1/2021 7:15:00 PM 16.09 60.962 0.003 7.03 2.45 9.73
9/1/2021 7:30:00 PM 16 60.8 0.002 7.01 2.53 9.75
9/1/2021 7:45:00 PM 15.9 60.62 0.002 6.96 2.55 9.76
9/1/2021 8:00:00 PM 15.91 60.638 0.002 6.99 2.52 9.76
9/1/2021 8:15:00 PM 15.75 60.35 0.002 6.9 2.59 9.79
9/1/2021 8:30:00 PM 15.67 60.206 0.002 6.9 2.49 9.82
9/1/2021 8:45:00 PM 15.63 60.134 0.002 6.92 2.7 9.83
9/1/2021 9:00:00 PM 15.57 60.026 0.002 6.92 2.57 9.84
9/1/2021 9:15:00 PM 15.44 59.792 0.002 6.83 2.55 9.88
9/1/2021 9:30:00 PM 15.4 59.72 0.002 6.84 2.5 9.89
9/1/2021 9:45:00 PM 15.33 59.594 0.002 6.81 2.54 9.9
9/1/2021 10:00:00 PM 15.16 59.288 0.002 6.8 2.55 9.94
9/1/2021 10:15:00 PM 15.15 59.27 0.002 6.79 2.5 9.94
9/1/2021 10:30:00 PM 15.08 59.144 0.002 6.86 2.55 9.95
9/1/2021 10:45:00 PM 14.97 58.946 0.001 6.87 2.48 9.97
9/1/2021 11:00:00 PM 14.81 58.658 0.001 6.81 2.55 10.02
9/1/2021 11:15:00 PM 14.65 58.37 0.001 6.79 2.64 10.06
9/1/2021 11:30:00 PM 14.53 58.154 0.001 6.85 2.61 10.08
9/1/2021 11:45:00 PM 14.48 58.064 0.001 6.86 2.54 10.08
9/2/2021 12:00:00 AM 14.36 57.848 0.001 6.83 2.59 10.11
9/2/2021 12:15:00 AM 14.25 57.65 0.001 6.85 2.71 10.15
9/2/2021 12:30:00 AM 14.11 57.398 0.001 6.83 2.52 10.18
9/2/2021 12:45:00 AM 13.99 57.182 0.001 6.78 2.72 10.21
9/2/2021 1:00:00 AM 13.91 57.038 0.001 6.68 2.74 10.19
9/2/2021 1:15:00 AM 13.81 56.858 0.001 6.81 2.67 10.22
9/2/2021 1:30:00 AM 13.65 56.57 0.001 6.82 2.71 10.27
9/2/2021 1:45:00 AM 13.48 56.264 0.001 6.8 2.77 10.3
9/2/2021 2:00:00 AM 13.34 56.012 0.001 6.81 2.74 10.34
9/2/2021 2:15:00 AM 13.2 55.76 0.001 6.82 2.71 10.37
9/2/2021 2:30:00 AM 13.07 55.526 0.001 6.84 2.73 10.4
9/2/2021 2:45:00 AM 12.94 55.292 0.001 6.79 2.68 10.44
9/2/2021 3:00:00 AM 12.81 55.058 0.001 6.76 2.76 10.48
9/2/2021 3:15:00 AM 12.67 54.806 0.001 6.7 2.74 10.5
9/2/2021 3:30:00 AM 12.55 54.59 0 6.71 2.97 10.52
9/2/2021 3:45:00 AM 12.39 54.302 0.001 6.67 4.15 10.57
9/2/2021 4:00:00 AM 12.27 54.086 0 6.74 3.18 10.62
9/2/2021 4:15:00 AM 12.18 53.924 0.001 6.65 2.68 10.65
9/2/2021 4:30:00 AM 12.19 53.942 0 6.68 3.77 10.64
9/2/2021 4:45:00 AM 12.05 53.69 0 6.64 4.2 10.68
9/2/2021 5:00:00 AM 11.97 53.546 0.001 6.68 4.03 10.68
9/2/2021 5:15:00 AM 11.72 53.096 0 6.61 3.86 10.76
9/2/2021 5:30:00 AM 11.69 53.042 0 6.6 4.62 10.76
9/2/2021 5:45:00 AM 11.62 52.916 0 6.71 3.97 10.78
9/2/2021 6:00:00 AM 11.66 52.988 0 6.63 4.12 10.77
9/2/2021 6:15:00 AM 11.62 52.916 0 6.72 4.62 10.78
9/2/2021 6:30:00 AM 11.66 52.988 0 6.79 2.96 10.77
9/2/2021 6:45:00 AM 11.52 52.736 0 6.66 4.58 10.83
9/2/2021 7:00:00 AM 11.39 52.502 0 6.59 4.32 10.87
9/2/2021 7:15:00 AM 11.47 52.646 0 6.7 4.31 10.84
9/2/2021 7:30:00 AM 11.53 52.754 0 6.79 2.97 10.82
9/2/2021 7:45:00 AM 11.64 52.952 0 6.79 2.87 10.79
9/2/2021 8:00:00 AM 11.88 53.384 0 6.88 2.84 10.73
9/2/2021 8:15:00 AM 12.22 53.996 0 6.94 2.79 10.62
9/2/2021 8:30:00 AM 12.48 54.464 0 6.97 2.84 10.57
9/2/2021 8:45:00 AM 12.85 55.13 0 7.01 2.74 10.46
9/2/2021 9:00:00 AM 13.18 55.724 0 6.98 2.81 10.39
9/2/2021 9:15:00 AM 13.58 56.444 0 6.94 2.86 10.29
9/2/2021 9:30:00 AM 13.74 56.732 0 6.69 3.01 10.27
9/2/2021 9:45:00 AM 13.92 57.056 0 6.43 3.62 10.23
9/2/2021 10:00:00 AM 13.99 57.182 0 6.44 4.18 10.21
9/2/2021 10:15:00 AM 13.97 57.146 0 6.14 5.67 10.22
9/2/2021 10:30:00 AM 14.08 57.344 0 6.27 5.48 10.19
9/2/2021 10:45:00 AM 14.18 57.524